Time,TemperatureF,DewpointF,PressureIn,WindDirection,WindDirectionDegrees,WindSpeedMPH,WindSpeedGustMPH,Humidity,HourlyPrecipIn,Conditions,Clouds,dailyrainin,SoftwareType,DateUTC
2013-03-05 00:00:00,38.8,25.7,29.99,SSE,157,0.0,6.0,59,0.00,,---,0.00,VWS V14.01,2013-03-05 05:00:00,
2013-03-05 00:01:00,38.8,25.7,29.99,SSE,156,0.0,2.0,59,0.00,,---,0.00,VWS V14.01,2013-03-05 05:01:00,
2013-03-05 00:02:00,38.8,25.7,29.99,SSE,156,0.0,2.0,59,0.00,,---,0.00,VWS V14.01,2013-03-05 05:02:00,
2013-03-05 00:03:00,38.8,25.7,29.99,SE,138,0.0,2.0,59,0.00,,---,0.00,VWS V14.01,2013-03-05 05:03:00,
2013-03-05 00:04:00,38.8,25.7,29.99,SE,126,0.0,4.0,59,0.00,,---,0.00,VWS V14.01,2013-03-05 05:04:00,
2013-03-05 00:05:00,38.8,25.7,29.99,SE,135,0.0,2.0,59,0.00,,---,0.00,VWS V14.01,2013-03-05 05:05:00,
2013-03-05 00:06:00,38.8,25.7,29.99,ESE,107,0.0,2.0,59,0.00,,---,0.00,VWS V14.01,2013-03-05 05:06:00,
2013-03-05 00:07:00,38.8,25.7,29.99,ESE,107,0.0,2.0,59,0.00,,---,0.00,VWS V14.01,2013-03-05 05:07:00,
2013-03-05 00:08:00,38.8,25.7,29.99,SE,130,2.0,4.0,59,0.00,,---,0.00,VWS V14.01,2013-03-05 05:08:00,
2013-03-05 00:09:00,38.8,26.9,29.99,ESE,117,1.0,2.0,62,0.00,,---,0.00,VWS V14.01,2013-03-05 05:09:00,
2013-03-05 00:10:00,38.8,25.7,29.99,SE,140,1.0,4.0,59,0.00,,---,0.00,VWS V14.01,2013-03-05 05:10:00,
2013-03-05 00:11:00,38.8,25.7,29.99,ESE,123,1.0,4.0,59,0.00,,---,0.00,VWS V14.01,2013-03-05 05:11:00,
2013-03-05 00:12:00,38.7,25.2,29.98,SE,135,1.0,4.0,58,0.00,,---,0.00,VWS V14.01,2013-03-05 05:12:00,
2013-03-05 00:13:00,38.7,25.2,29.98,SE,135,1.0,4.0,58,0.00,,---,0.00,VWS V14.01,2013-03-05 05:13:00,
2013-03-05 00:14:00,38.8,25.3,29.98,SE,144,1.0,4.0,58,0.00,,---,0.00,VWS V14.01,2013-03-05 05:14:00,
2013-03-05 00:15:00,38.7,25.6,29.98,ESE,109,4.0,4.0,59,0.00,,---,0.00,VWS V14.01,2013-03-05 05:15:00,
2013-03-05 00:16:00,38.8,25.3,29.98,ESE,121,0.0,4.0,58,0.00,,---,0.00,VWS V14.01,2013-03-05 05:16:00,
2013-03-05 00:17:00,38.8,25.7,29.98,SE,130,4.0,4.0,59,0.00,,---,0.00,VWS V14.01,2013-03-05 05:17:00,
2013-03-05 00:18:00,38.8,25.7,29.98,SE,130,4.0,4.0,59,0.00,,---,0.00,VWS V14.01,2013-03-05 05:18:00,
2013-03-05 00:19:00,38.8,25.7,29.98,East,92,0.0,4.0,59,0.00,,---,0.00,VWS V14.01,2013-03-05 05:19:00,
2013-03-05 00:20:00,38.8,26.9,29.98,ESE,115,2.0,4.0,62,0.00,,---,0.00,VWS V14.01,2013-03-05 05:20:00,
2013-03-05 00:21:00,38.7,25.6,29.98,ESE,104,0.0,4.0,59,0.00,,---,0.00,VWS V14.01,2013-03-05 05:21:00,
2013-03-05 00:22:00,38.8,25.3,29.98,ESE,123,1.0,5.0,58,0.00,,---,0.00,VWS V14.01,2013-03-05 05:22:00,
2013-03-05 00:23:00,38.8,25.3,29.98,ESE,123,1.0,5.0,58,0.00,,---,0.00,VWS V14.01,2013-03-05 05:23:00,
2013-03-05 00:24:00,38.7,26.8,29.98,ESE,122,2.0,4.0,62,0.00,,---,0.00,VWS V14.01,2013-03-05 05:24:00,
2013-03-05 00:25:00,38.8,25.7,29.98,SE,130,5.0,7.0,59,0.00,,---,0.00,VWS V14.01,2013-03-05 05:25:00,
2013-03-05 00:26:00,38.8,25.3,29.98,ESE,106,4.0,5.0,58,0.00,,---,0.00,VWS V14.01,2013-03-05 05:26:00,
2013-03-05 00:27:00,38.8,25.7,29.98,ESE,116,0.0,2.0,59,0.00,,---,0.00,VWS V14.01,2013-03-05 05:27:00,
2013-03-05 00:28:00,38.8,25.7,29.98,ESE,116,0.0,2.0,59,0.00,,---,0.00,VWS V14.01,2013-03-05 05:28:00,
2013-03-05 00:29:00,38.8,25.7,29.98,ESE,106,0.0,0.0,59,0.00,,---,0.00,VWS V14.01,2013-03-05 05:29:00,
2013-03-05 00:30:00,38.8,26.1,29.98,SE,130,2.0,2.0,60,0.00,,---,0.00,VWS V14.01,2013-03-05 05:30:00,
2013-03-05 00:31:00,38.3,26.0,29.96,ESE,119,6.0,7.0,61,0.00,,---,0.00,VWS V14.01,2013-03-05 05:31:00,
2013-03-05 00:32:00,38.7,26.0,29.98,ESE,105,2.0,5.0,60,0.00,,---,0.00,VWS V14.01,2013-03-05 05:32:00,
2013-03-05 00:33:00,38.7,26.0,29.98,ESE,105,2.0,5.0,60,0.00,,---,0.00,VWS V14.01,2013-03-05 05:33:00,
2013-03-05 00:34:00,38.7,26.0,29.98,SE,138,0.0,4.0,60,0.00,,---,0.00,VWS V14.01,2013-03-05 05:34:00,
2013-03-05 00:35:00,38.7,26.0,29.98,SE,136,2.0,4.0,60,0.00,,---,0.00,VWS V14.01,2013-03-05 05:35:00,
2013-03-05 00:36:00,38.7,26.0,29.98,SE,127,2.0,5.0,60,0.00,,---,0.00,VWS V14.01,2013-03-05 05:36:00,
2013-03-05 00:37:00,38.6,25.9,29.98,SE,127,0.0,5.0,60,0.00,,---,0.00,VWS V14.01,2013-03-05 05:37:00,
2013-03-05 00:38:00,38.6,25.9,29.98,SE,127,0.0,5.0,60,0.00,,---,0.00,VWS V14.01,2013-03-05 05:38:00,
2013-03-05 00:39:00,38.6,25.9,29.98,ESE,102,0.0,4.0,60,0.00,,---,0.00,VWS V14.01,2013-03-05 05:39:00,
2013-03-05 00:40:00,38.6,25.9,29.97,East,101,1.0,5.0,60,0.00,,---,0.00,VWS V14.01,2013-03-05 05:40:00,
2013-03-05 00:41:00,38.6,26.3,29.97,ESE,112,4.0,4.0,61,0.00,,---,0.00,VWS V14.01,2013-03-05 05:41:00,
2013-03-05 00:42:00,38.6,26.3,29.97,ESE,105,4.0,6.0,61,0.00,,---,0.00,VWS V14.01,2013-03-05 05:42:00,
2013-03-05 00:43:00,38.6,26.3,29.97,ESE,105,4.0,6.0,61,0.00,,---,0.00,VWS V14.01,2013-03-05 05:43:00,
2013-03-05 00:44:00,38.6,26.3,29.97,ESE,119,4.0,5.0,61,0.00,,---,0.00,VWS V14.01,2013-03-05 05:44:00,
2013-03-05 00:45:00,38.5,26.2,29.97,East,86,0.0,4.0,61,0.00,,---,0.00,VWS V14.01,2013-03-05 05:45:00,
2013-03-05 00:46:00,38.5,26.2,29.97,East,87,1.0,1.0,61,0.00,,---,0.00,VWS V14.01,2013-03-05 05:46:00,
2013-03-05 00:47:00,38.5,26.6,29.97,ESE,117,5.0,5.0,62,0.00,,---,0.00,VWS V14.01,2013-03-05 05:47:00,
2013-03-05 00:48:00,38.5,26.6,29.97,ESE,117,5.0,5.0,62,0.00,,---,0.00,VWS V14.01,2013-03-05 05:48:00,
2013-03-05 00:49:00,38.5,26.2,29.97,SSE,148,4.0,6.0,61,0.00,,---,0.00,VWS V14.01,2013-03-05 05:49:00,
2013-03-05 00:50:00,38.4,26.1,29.97,ESE,111,4.0,7.0,61,0.00,,---,0.00,VWS V14.01,2013-03-05 05:50:00,
2013-03-05 00:51:00,38.4,26.1,29.97,ESE,122,2.0,7.0,61,0.00,,---,0.00,VWS V14.01,2013-03-05 05:51:00,
2013-03-05 00:52:00,38.4,26.1,29.97,ESE,106,1.0,6.0,61,0.00,,---,0.00,VWS V14.01,2013-03-05 05:52:00,
2013-03-05 00:53:00,38.4,26.1,29.96,ESE,115,4.0,5.0,61,0.00,,---,0.00,VWS V14.01,2013-03-05 05:53:00,
2013-03-05 00:54:00,38.4,26.1,29.96,ESE,115,4.0,5.0,61,0.00,,---,0.00,VWS V14.01,2013-03-05 05:54:00,
2013-03-05 00:55:00,38.4,26.1,29.96,SE,130,0.0,4.0,61,0.00,,---,0.00,VWS V14.01,2013-03-05 05:55:00,
2013-03-05 00:56:00,38.4,26.1,29.96,ESE,117,2.0,8.0,61,0.00,,---,0.00,VWS V14.01,2013-03-05 05:56:00,
2013-03-05 00:57:00,38.4,26.1,29.96,SE,132,4.0,7.0,61,0.00,,---,0.00,VWS V14.01,2013-03-05 05:57:00,
2013-03-05 00:58:00,38.4,26.1,29.96,ESE,121,4.0,4.0,61,0.00,,---,0.00,VWS V14.01,2013-03-05 05:58:00,
2013-03-05 00:59:00,38.4,26.1,29.96,ESE,121,4.0,4.0,61,0.00,,---,0.00,VWS V14.01,2013-03-05 05:59:00,
2013-03-05 01:00:00,38.4,26.5,29.96,ESE,112,5.0,5.0,62,0.00,,---,0.00,VWS V14.01,2013-03-05 06:00:00,
2013-03-05 01:01:00,38.4,26.1,29.96,East,94,0.0,6.0,61,0.00,,---,0.00,VWS V14.01,2013-03-05 06:01:00,
2013-03-05 01:02:00,38.4,26.1,29.96,ESE,122,6.0,8.0,61,0.00,,---,0.00,VWS V14.01,2013-03-05 06:02:00,
2013-03-05 01:03:00,38.4,26.1,29.96,ESE,106,1.0,7.0,61,0.00,,---,0.00,VWS V14.01,2013-03-05 06:03:00,
2013-03-05 01:04:00,38.4,26.1,29.96,ESE,106,1.0,7.0,61,0.00,,---,0.00,VWS V14.01,2013-03-05 06:04:00,
2013-03-05 01:05:00,38.4,26.1,29.96,ESE,115,0.0,5.0,61,0.00,,---,0.00,VWS V14.01,2013-03-05 06:05:00,
2013-03-05 01:06:00,38.4,26.1,29.96,SSE,156,4.0,5.0,61,0.00,,---,0.00,VWS V14.01,2013-03-05 06:06:00,
2013-03-05 01:07:00,38.4,26.1,29.96,SE,128,1.0,4.0,61,0.00,,---,0.00,VWS V14.01,2013-03-05 06:07:00,
2013-03-05 01:08:00,38.4,26.1,29.96,East,81,5.0,5.0,61,0.00,,---,0.00,VWS V14.01,2013-03-05 06:08:00,
2013-03-05 01:09:00,38.4,26.1,29.96,East,81,5.0,5.0,61,0.00,,---,0.00,VWS V14.01,2013-03-05 06:09:00,
2013-03-05 01:10:00,38.4,26.1,29.96,East,88,0.0,6.0,61,0.00,,---,0.00,VWS V14.01,2013-03-05 06:10:00,
2013-03-05 01:11:00,38.4,26.1,29.96,SE,138,4.0,5.0,61,0.00,,---,0.00,VWS V14.01,2013-03-05 06:11:00,
2013-03-05 01:12:00,38.4,26.1,29.96,East,88,1.0,6.0,61,0.00,,---,0.00,VWS V14.01,2013-03-05 06:12:00,
2013-03-05 01:13:00,38.4,26.1,29.96,ENE,73,2.0,5.0,61,0.00,,---,0.00,VWS V14.01,2013-03-05 06:13:00,
2013-03-05 01:14:00,38.4,26.1,29.96,ENE,73,2.0,5.0,61,0.00,,---,0.00,VWS V14.01,2013-03-05 06:14:00,
2013-03-05 01:15:00,38.4,26.1,29.96,ESE,123,2.0,5.0,61,0.00,,---,0.00,VWS V14.01,2013-03-05 06:15:00,
2013-03-05 01:16:00,38.4,26.1,29.96,ESE,120,0.0,6.0,61,0.00,,---,0.00,VWS V14.01,2013-03-05 06:16:00,
2013-03-05 01:17:00,38.4,26.1,29.96,SE,126,5.0,5.0,61,0.00,,---,0.00,VWS V14.01,2013-03-05 06:17:00,
2013-03-05 01:18:00,38.4,26.1,29.96,East,97,0.0,8.0,61,0.00,,---,0.00,VWS V14.01,2013-03-05 06:18:00,
2013-03-05 01:19:00,38.4,26.1,29.96,East,97,0.0,8.0,61,0.00,,---,0.00,VWS V14.01,2013-03-05 06:19:00,
2013-03-05 01:20:00,38.4,26.1,29.96,SE,127,2.0,5.0,61,0.00,,---,0.00,VWS V14.01,2013-03-05 06:20:00,
2013-03-05 01:21:00,38.4,26.1,29.96,SE,125,2.0,6.0,61,0.00,,---,0.00,VWS V14.01,2013-03-05 06:21:00,
2013-03-05 01:22:00,38.4,26.1,29.96,ESE,113,2.0,5.0,61,0.00,,---,0.00,VWS V14.01,2013-03-05 06:22:00,
2013-03-05 01:23:00,38.4,26.1,29.96,NNE,19,0.0,5.0,61,0.00,,---,0.00,VWS V14.01,2013-03-05 06:23:00,
2013-03-05 01:24:00,38.4,26.1,29.96,NNE,19,0.0,5.0,61,0.00,,---,0.00,VWS V14.01,2013-03-05 06:24:00,
2013-03-05 01:25:00,38.4,26.1,29.96,East,96,2.0,4.0,61,0.00,,---,0.00,VWS V14.01,2013-03-05 06:25:00,
2013-03-05 01:26:00,38.4,26.1,29.96,SE,136,0.0,4.0,61,0.00,,---,0.00,VWS V14.01,2013-03-05 06:26:00,
2013-03-05 01:27:00,38.4,26.1,29.96,ESE,110,2.0,5.0,61,0.00,,---,0.00,VWS V14.01,2013-03-05 06:27:00,
2013-03-05 01:28:00,38.3,26.0,29.96,SE,129,2.0,5.0,61,0.00,,---,0.00,VWS V14.01,2013-03-05 06:28:00,
2013-03-05 01:29:00,38.3,26.0,29.96,SE,129,2.0,5.0,61,0.00,,---,0.00,VWS V14.01,2013-03-05 06:29:00,
2013-03-05 01:30:00,38.3,26.0,29.96,East,81,3.0,7.0,61,0.00,,---,0.00,VWS V14.01,2013-03-05 06:30:00,
2013-03-05 01:31:00,38.3,26.0,29.96,ESE,119,6.0,7.0,61,0.00,,---,0.00,VWS V14.01,2013-03-05 06:31:00,
2013-03-05 01:32:00,38.3,26.0,29.96,East,101,1.0,6.0,61,0.00,,---,0.00,VWS V14.01,2013-03-05 06:32:00,
2013-03-05 01:33:00,38.3,26.0,29.96,East,86,2.0,4.0,61,0.00,,---,0.00,VWS V14.01,2013-03-05 06:33:00,
2013-03-05 01:34:00,38.3,26.0,29.96,East,86,2.0,4.0,61,0.00,,---,0.00,VWS V14.01,2013-03-05 06:34:00,
2013-03-05 01:35:00,38.3,26.0,29.95,East,92,0.0,6.0,61,0.00,,---,0.00,VWS V14.01,2013-03-05 06:35:00,
2013-03-05 01:36:00,38.3,26.0,29.95,SE,127,5.0,7.0,61,0.00,,---,0.00,VWS V14.01,2013-03-05 06:36:00,
2013-03-05 01:37:00,38.2,26.0,29.96,East,97,6.0,7.0,61,0.00,,---,0.00,VWS V14.01,2013-03-05 06:37:00,
2013-03-05 01:38:00,38.2,26.0,29.96,ESE,106,1.0,6.0,61,0.00,,---,0.00,VWS V14.01,2013-03-05 06:38:00,
2013-03-05 01:39:00,38.2,26.0,29.96,ESE,106,1.0,6.0,61,0.00,,---,0.00,VWS V14.01,2013-03-05 06:39:00,
2013-03-05 01:40:00,38.2,26.0,29.96,ESE,118,0.0,6.0,61,0.00,,---,0.00,VWS V14.01,2013-03-05 06:40:00,
2013-03-05 01:41:00,38.3,26.0,29.96,ESE,121,1.0,2.0,61,0.00,,---,0.00,VWS V14.01,2013-03-05 06:41:00,
2013-03-05 01:42:00,38.2,26.0,29.96,East,88,3.0,8.0,61,0.00,,---,0.00,VWS V14.01,2013-03-05 06:42:00,
2013-03-05 01:43:00,38.2,26.0,29.96,ESE,114,0.0,6.0,61,0.00,,---,0.00,VWS V14.01,2013-03-05 06:43:00,
2013-03-05 01:44:00,38.2,26.0,29.96,ESE,114,0.0,6.0,61,0.00,,---,0.00,VWS V14.01,2013-03-05 06:44:00,
2013-03-05 01:45:00,38.2,26.0,29.96,East,83,2.0,3.0,61,0.00,,---,0.00,VWS V14.01,2013-03-05 06:45:00,
2013-03-05 01:46:00,38.2,26.0,29.95,East,94,4.0,5.0,61,0.00,,---,0.00,VWS V14.01,2013-03-05 06:46:00,
2013-03-05 01:47:00,38.2,26.0,29.95,East,88,2.0,4.0,61,0.00,,---,0.00,VWS V14.01,2013-03-05 06:47:00,
2013-03-05 01:48:00,38.2,26.0,29.96,East,89,4.0,7.0,61,0.00,,---,0.00,VWS V14.01,2013-03-05 06:48:00,
2013-03-05 01:49:00,38.2,26.0,29.96,East,89,4.0,7.0,61,0.00,,---,0.00,VWS V14.01,2013-03-05 06:49:00,
2013-03-05 01:50:00,38.2,26.0,29.96,East,97,2.0,5.0,61,0.00,,---,0.00,VWS V14.01,2013-03-05 06:50:00,
2013-03-05 01:51:00,38.2,26.0,29.96,SE,127,0.0,5.0,61,0.00,,---,0.00,VWS V14.01,2013-03-05 06:51:00,
2013-03-05 01:52:00,38.2,26.0,29.96,SE,127,0.0,2.0,61,0.00,,---,0.00,VWS V14.01,2013-03-05 06:52:00,
2013-03-05 01:53:00,38.2,26.3,29.96,ESE,104,1.0,2.0,62,0.00,,---,0.00,VWS V14.01,2013-03-05 06:53:00,
2013-03-05 01:54:00,38.2,26.3,29.96,ESE,104,1.0,2.0,62,0.00,,---,0.00,VWS V14.01,2013-03-05 06:54:00,
2013-03-05 01:55:00,38.2,26.3,29.96,North,350,2.0,2.0,62,0.00,,---,0.00,VWS V14.01,2013-03-05 06:55:00,
2013-03-05 01:56:00,38.1,26.2,29.96,East,86,0.0,2.0,62,0.00,,---,0.00,VWS V14.01,2013-03-05 06:56:00,
2013-03-05 01:57:00,38.1,26.2,29.96,NNE,28,0.0,2.0,62,0.00,,---,0.00,VWS V14.01,2013-03-05 06:57:00,
2013-03-05 01:58:00,38.1,26.2,29.96,SSE,148,0.0,4.0,62,0.00,,---,0.00,VWS V14.01,2013-03-05 06:58:00,
2013-03-05 01:59:00,38.1,26.2,29.96,SSE,148,0.0,4.0,62,0.00,,---,0.00,VWS V14.01,2013-03-05 06:59:00,
2013-03-05 02:00:00,38.1,26.2,29.96,ESE,121,0.0,5.0,62,0.00,,---,0.00,VWS V14.01,2013-03-05 07:00:00,
2013-03-05 02:01:00,38.1,26.2,29.96,East,92,0.0,4.0,62,0.00,,---,0.00,VWS V14.01,2013-03-05 07:01:00,
2013-03-05 02:02:00,38.0,26.1,29.96,East,99,1.0,4.0,62,0.00,,---,0.00,VWS V14.01,2013-03-05 07:02:00,
2013-03-05 02:03:00,38.1,26.2,29.95,ENE,78,2.0,4.0,62,0.00,,---,0.00,VWS V14.01,2013-03-05 07:03:00,
2013-03-05 02:04:00,38.1,26.2,29.95,ENE,78,2.0,4.0,62,0.00,,---,0.00,VWS V14.01,2013-03-05 07:04:00,
2013-03-05 02:05:00,38.0,26.1,29.95,East,82,1.0,4.0,62,0.00,,---,0.00,VWS V14.01,2013-03-05 07:05:00,
2013-03-05 02:06:00,38.0,26.1,29.95,ESE,109,0.0,4.0,62,0.00,,---,0.00,VWS V14.01,2013-03-05 07:06:00,
2013-03-05 02:07:00,38.0,26.1,29.95,East,90,0.0,1.0,62,0.00,,---,0.00,VWS V14.01,2013-03-05 07:07:00,
2013-03-05 02:08:00,38.0,26.1,29.95,ESE,104,2.0,4.0,62,0.00,,---,0.00,VWS V14.01,2013-03-05 07:08:00,
2013-03-05 02:09:00,38.0,26.1,29.96,East,101,0.0,5.0,62,0.00,,---,0.00,VWS V14.01,2013-03-05 07:09:00,
2013-03-05 02:10:00,38.0,26.1,29.96,ESE,109,0.0,1.0,62,0.00,,---,0.00,VWS V14.01,2013-03-05 07:10:00,
2013-03-05 02:11:00,38.0,26.1,29.95,ESE,103,2.0,6.0,62,0.00,,---,0.00,VWS V14.01,2013-03-05 07:11:00,
2013-03-05 02:12:00,38.0,26.1,29.95,East,86,2.0,6.0,62,0.00,,---,0.00,VWS V14.01,2013-03-05 07:12:00,
2013-03-05 02:13:00,38.0,26.1,29.96,ESE,103,0.0,5.0,62,0.00,,---,0.00,VWS V14.01,2013-03-05 07:13:00,
2013-03-05 02:14:00,38.0,26.1,29.95,East,94,0.0,0.0,62,0.00,,---,0.00,VWS V14.01,2013-03-05 07:14:00,
2013-03-05 02:15:00,38.0,26.1,29.95,East,94,0.0,0.0,62,0.00,,---,0.00,VWS V14.01,2013-03-05 07:15:00,
2013-03-05 02:16:00,38.0,26.5,29.96,East,87,1.0,4.0,63,0.00,,---,0.00,VWS V14.01,2013-03-05 07:16:00,
2013-03-05 02:17:00,38.0,26.5,29.96,East,92,0.0,1.0,63,0.00,,---,0.00,VWS V14.01,2013-03-05 07:17:00,
2013-03-05 02:18:00,37.9,26.4,29.95,ESE,108,4.0,4.0,63,0.00,,---,0.00,VWS V14.01,2013-03-05 07:18:00,
2013-03-05 02:19:00,37.9,26.5,29.95,ESE,103,2.0,5.0,63,0.00,,---,0.00,VWS V14.01,2013-03-05 07:19:00,
2013-03-05 02:20:00,37.9,26.4,29.95,ESE,103,2.0,5.0,63,0.00,,---,0.00,VWS V14.01,2013-03-05 07:20:00,
2013-03-05 02:21:00,37.9,26.4,29.95,ESE,115,1.0,4.0,63,0.00,,---,0.00,VWS V14.01,2013-03-05 07:21:00,
2013-03-05 02:22:00,37.9,26.4,29.96,East,83,3.0,9.0,63,0.00,,---,0.00,VWS V14.01,2013-03-05 07:22:00,
2013-03-05 02:23:00,37.9,26.4,29.95,ENE,78,0.0,6.0,63,0.00,,---,0.00,VWS V14.01,2013-03-05 07:23:00,
2013-03-05 02:24:00,37.9,26.4,29.95,East,96,2.0,7.0,63,0.00,,---,0.00,VWS V14.01,2013-03-05 07:24:00,
2013-03-05 02:25:00,37.9,26.5,29.95,SE,124,2.0,4.0,63,0.00,,---,0.00,VWS V14.01,2013-03-05 07:25:00,
2013-03-05 02:26:00,37.9,26.4,29.95,SE,124,2.0,4.0,63,0.00,,---,0.00,VWS V14.01,2013-03-05 07:26:00,
2013-03-05 02:27:00,37.9,26.4,29.95,ESE,104,4.0,6.0,63,0.00,,---,0.00,VWS V14.01,2013-03-05 07:27:00,
2013-03-05 02:28:00,37.9,26.4,29.95,NNE,33,3.0,6.0,63,0.00,,---,0.00,VWS V14.01,2013-03-05 07:28:00,
2013-03-05 02:29:00,37.9,26.4,29.95,SE,130,2.0,4.0,63,0.00,,---,0.00,VWS V14.01,2013-03-05 07:29:00,
2013-03-05 02:30:00,37.9,26.5,29.95,ENE,73,1.0,4.0,63,0.00,,---,0.00,VWS V14.01,2013-03-05 07:30:00,
2013-03-05 02:31:00,37.9,26.4,29.95,ENE,73,1.0,4.0,63,0.00,,---,0.00,VWS V14.01,2013-03-05 07:31:00,
2013-03-05 02:32:00,37.9,26.4,29.95,SE,130,2.0,4.0,63,0.00,,---,0.00,VWS V14.01,2013-03-05 07:32:00,
2013-03-05 02:33:00,37.9,26.4,29.95,ESE,120,0.0,4.0,63,0.00,,---,0.00,VWS V14.01,2013-03-05 07:33:00,
2013-03-05 02:34:00,37.9,26.4,29.95,East,89,3.0,7.0,63,0.00,,---,0.00,VWS V14.01,2013-03-05 07:34:00,
2013-03-05 02:35:00,37.9,26.5,29.95,East,95,0.0,1.0,63,0.00,,---,0.00,VWS V14.01,2013-03-05 07:35:00,
2013-03-05 02:36:00,37.9,26.4,29.95,East,95,0.0,1.0,63,0.00,,---,0.00,VWS V14.01,2013-03-05 07:36:00,
2013-03-05 02:37:00,37.9,26.8,29.95,NE,45,2.0,4.0,64,0.00,,---,0.00,VWS V14.01,2013-03-05 07:37:00,
2013-03-05 02:38:00,37.9,26.4,29.95,East,85,1.0,6.0,63,0.00,,---,0.00,VWS V14.01,2013-03-05 07:38:00,
2013-03-05 02:39:00,37.9,26.4,29.95,SE,124,0.0,5.0,63,0.00,,---,0.00,VWS V14.01,2013-03-05 07:39:00,
2013-03-05 02:40:00,37.9,26.8,29.95,ESE,105,5.0,6.0,64,0.00,,---,0.00,VWS V14.01,2013-03-05 07:40:00,
2013-03-05 02:41:00,37.9,26.5,29.95,ESE,111,0.0,5.0,63,0.00,,---,0.00,VWS V14.01,2013-03-05 07:41:00,
2013-03-05 02:42:00,37.9,26.4,29.95,ESE,111,0.0,5.0,63,0.00,,---,0.00,VWS V14.01,2013-03-05 07:42:00,
2013-03-05 02:43:00,37.9,26.8,29.95,East,98,0.0,4.0,64,0.00,,---,0.00,VWS V14.01,2013-03-05 07:43:00,
2013-03-05 02:44:00,37.9,26.8,29.95,SE,138,5.0,7.0,64,0.00,,---,0.00,VWS V14.01,2013-03-05 07:44:00,
2013-03-05 02:45:00,37.9,26.4,29.95,NE,45,3.0,12.0,63,0.00,,---,0.00,VWS V14.01,2013-03-05 07:45:00,
2013-03-05 02:46:00,37.9,26.5,29.95,SE,130,4.0,7.0,63,0.00,,---,0.00,VWS V14.01,2013-03-05 07:46:00,
2013-03-05 02:47:00,37.9,26.4,29.95,SE,130,4.0,7.0,63,0.00,,---,0.00,VWS V14.01,2013-03-05 07:47:00,
2013-03-05 02:48:00,37.9,26.4,29.95,SE,127,0.0,5.0,63,0.00,,---,0.00,VWS V14.01,2013-03-05 07:48:00,
2013-03-05 02:49:00,37.9,26.8,29.94,SE,131,8.0,8.0,64,0.00,,---,0.00,VWS V14.01,2013-03-05 07:49:00,
2013-03-05 02:50:00,37.9,26.4,29.94,SE,141,4.0,8.0,63,0.00,,---,0.00,VWS V14.01,2013-03-05 07:50:00,
2013-03-05 02:51:00,37.9,26.8,29.94,East,91,2.0,6.0,64,0.00,,---,0.00,VWS V14.01,2013-03-05 07:51:00,
2013-03-05 02:52:00,37.9,26.8,29.94,East,91,2.0,6.0,64,0.00,,---,0.00,VWS V14.01,2013-03-05 07:52:00,
2013-03-05 02:53:00,37.9,26.8,29.94,ESE,114,6.0,7.0,64,0.00,,---,0.00,VWS V14.01,2013-03-05 07:53:00,
2013-03-05 02:54:00,37.9,26.8,29.94,SSE,148,1.0,7.0,64,0.00,,---,0.00,VWS V14.01,2013-03-05 07:54:00,
2013-03-05 02:55:00,37.9,26.8,29.94,East,85,1.0,5.0,64,0.00,,---,0.00,VWS V14.01,2013-03-05 07:55:00,
2013-03-05 02:56:00,37.9,26.8,29.94,SE,129,6.0,6.0,64,0.00,,---,0.00,VWS V14.01,2013-03-05 07:56:00,
2013-03-05 02:57:00,37.9,26.8,29.94,SE,129,6.0,6.0,64,0.00,,---,0.00,VWS V14.01,2013-03-05 07:57:00,
2013-03-05 02:58:00,37.9,26.8,29.94,East,80,1.0,6.0,64,0.00,,---,0.00,VWS V14.01,2013-03-05 07:58:00,
2013-03-05 02:59:00,37.9,26.8,29.94,SE,128,2.0,5.0,64,0.00,,---,0.00,VWS V14.01,2013-03-05 07:59:00,
2013-03-05 03:00:00,37.9,26.8,29.94,SSE,154,1.0,5.0,64,0.00,,---,0.00,VWS V14.01,2013-03-05 08:00:00,
2013-03-05 03:01:00,37.9,26.8,29.94,East,101,0.0,2.0,64,0.00,,---,0.00,VWS V14.01,2013-03-05 08:01:00,
2013-03-05 03:02:00,37.9,26.8,29.94,East,101,0.0,2.0,64,0.00,,---,0.00,VWS V14.01,2013-03-05 08:02:00,
2013-03-05 03:03:00,37.9,26.8,29.94,SE,136,0.0,6.0,64,0.00,,---,0.00,VWS V14.01,2013-03-05 08:03:00,
2013-03-05 03:04:00,37.9,26.8,29.94,ESE,108,1.0,4.0,64,0.00,,---,0.00,VWS V14.01,2013-03-05 08:04:00,
2013-03-05 03:05:00,37.9,26.8,29.94,SE,135,5.0,8.0,64,0.00,,---,0.00,VWS V14.01,2013-03-05 08:05:00,
2013-03-05 03:06:00,37.9,26.8,29.94,East,82,1.0,5.0,64,0.00,,---,0.00,VWS V14.01,2013-03-05 08:06:00,
2013-03-05 03:07:00,37.9,26.8,29.94,East,94,2.0,5.0,64,0.00,,---,0.00,VWS V14.01,2013-03-05 08:07:00,
2013-03-05 03:08:00,37.9,26.8,29.94,ESE,103,0.0,8.0,64,0.00,,---,0.00,VWS V14.01,2013-03-05 08:08:00,
2013-03-05 03:09:00,37.9,26.8,29.94,ESE,105,1.0,8.0,64,0.00,,---,0.00,VWS V14.01,2013-03-05 08:09:00,
2013-03-05 03:10:00,37.9,26.8,29.94,East,91,2.0,7.0,64,0.00,,---,0.00,VWS V14.01,2013-03-05 08:10:00,
2013-03-05 03:11:00,37.9,26.8,29.94,SE,133,5.0,5.0,64,0.00,,---,0.00,VWS V14.01,2013-03-05 08:11:00,
2013-03-05 03:12:00,37.9,26.8,29.93,ESE,116,2.0,5.0,64,0.00,,---,0.00,VWS V14.01,2013-03-05 08:12:00,
2013-03-05 03:13:00,37.9,26.8,29.93,ESE,115,6.0,7.0,64,0.00,,---,0.00,VWS V14.01,2013-03-05 08:13:00,
2013-03-05 03:14:00,37.9,26.8,29.93,ESE,123,2.0,9.0,64,0.00,,---,0.00,VWS V14.01,2013-03-05 08:14:00,
2013-03-05 03:15:00,37.9,26.8,29.93,ESE,103,1.0,7.0,64,0.00,,---,0.00,VWS V14.01,2013-03-05 08:15:00,
2013-03-05 03:16:00,37.9,26.8,29.93,East,94,6.0,6.0,64,0.00,,---,0.00,VWS V14.01,2013-03-05 08:16:00,
2013-03-05 03:17:00,37.8,26.7,29.93,ESE,114,1.0,6.0,64,0.00,,---,0.00,VWS V14.01,2013-03-05 08:17:00,
2013-03-05 03:18:00,37.9,27.2,29.93,East,101,1.0,6.0,65,0.00,,---,0.00,VWS V14.01,2013-03-05 08:18:00,
2013-03-05 03:19:00,37.9,27.2,29.93,ESE,112,0.0,2.0,65,0.00,,---,0.00,VWS V14.01,2013-03-05 08:19:00,
2013-03-05 03:20:00,37.9,27.2,29.93,ESE,109,1.0,2.0,65,0.00,,---,0.00,VWS V14.01,2013-03-05 08:20:00,
2013-03-05 03:21:00,37.8,27.1,29.93,ESE,107,0.0,4.0,65,0.00,,---,0.00,VWS V14.01,2013-03-05 08:21:00,
2013-03-05 03:22:00,37.8,27.1,29.93,East,99,6.0,8.0,65,0.00,,---,0.00,VWS V14.01,2013-03-05 08:22:00,
2013-03-05 03:23:00,37.8,27.1,29.93,ESE,121,5.0,9.0,65,0.00,,---,0.00,VWS V14.01,2013-03-05 08:23:00,
2013-03-05 03:24:00,37.8,27.1,29.93,East,88,4.0,8.0,65,0.00,,---,0.00,VWS V14.01,2013-03-05 08:24:00,
2013-03-05 03:25:00,37.8,27.1,29.93,East,91,4.0,6.0,65,0.00,,---,0.00,VWS V14.01,2013-03-05 08:25:00,
2013-03-05 03:26:00,37.8,27.1,29.93,ESE,111,7.0,7.0,65,0.00,,---,0.00,VWS V14.01,2013-03-05 08:26:00,
2013-03-05 03:27:00,37.8,27.1,29.93,ESE,107,6.0,7.0,65,0.00,,---,0.00,VWS V14.01,2013-03-05 08:27:00,
2013-03-05 03:28:00,37.8,27.1,29.93,ESE,123,4.0,8.0,65,0.00,,---,0.00,VWS V14.01,2013-03-05 08:28:00,
2013-03-05 03:29:00,37.8,27.1,29.93,ESE,105,2.0,6.0,65,0.00,,---,0.00,VWS V14.01,2013-03-05 08:29:00,
2013-03-05 03:30:00,37.8,27.1,29.93,ESE,105,4.0,5.0,65,0.00,,---,0.00,VWS V14.01,2013-03-05 08:30:00,
2013-03-05 03:31:00,37.8,27.1,29.93,ESE,111,5.0,5.0,65,0.00,,---,0.00,VWS V14.01,2013-03-05 08:31:00,
2013-03-05 03:32:00,37.8,27.1,29.93,ENE,65,1.0,7.0,65,0.00,,---,0.00,VWS V14.01,2013-03-05 08:32:00,
2013-03-05 03:33:00,37.8,27.5,29.92,ESE,116,2.0,5.0,66,0.00,,---,0.00,VWS V14.01,2013-03-05 08:33:00,
2013-03-05 03:34:00,37.8,27.5,29.92,ESE,114,5.0,6.0,66,0.00,,---,0.00,VWS V14.01,2013-03-05 08:34:00,
2013-03-05 03:35:00,37.8,27.5,29.92,ESE,114,7.0,7.0,66,0.00,,---,0.00,VWS V14.01,2013-03-05 08:35:00,
2013-03-05 03:36:00,37.8,27.5,29.92,ESE,103,4.0,11.0,66,0.00,,---,0.00,VWS V14.01,2013-03-05 08:36:00,
2013-03-05 03:37:00,37.8,27.5,29.92,ESE,114,2.0,5.0,66,0.00,,---,0.00,VWS V14.01,2013-03-05 08:37:00,
2013-03-05 03:38:00,37.8,27.5,29.92,ESE,110,2.0,4.0,66,0.00,,---,0.00,VWS V14.01,2013-03-05 08:38:00,
2013-03-05 03:39:00,37.7,27.4,29.92,SE,126,1.0,4.0,66,0.00,,---,0.00,VWS V14.01,2013-03-05 08:39:00,
2013-03-05 03:40:00,37.8,27.5,29.92,East,101,1.0,7.0,66,0.00,,---,0.00,VWS V14.01,2013-03-05 08:40:00,
2013-03-05 03:41:00,37.7,27.4,29.92,ESE,119,6.0,8.0,66,0.00,,---,0.00,VWS V14.01,2013-03-05 08:41:00,
2013-03-05 03:42:00,37.7,27.4,29.91,ESE,112,0.0,6.0,66,0.00,,---,0.00,VWS V14.01,2013-03-05 08:42:00,
2013-03-05 03:43:00,37.7,27.4,29.91,ESE,109,1.0,6.0,66,0.00,,---,0.00,VWS V14.01,2013-03-05 08:43:00,
2013-03-05 03:44:00,37.7,27.4,29.91,North,11,0.0,1.0,66,0.00,,---,0.00,VWS V14.01,2013-03-05 08:44:00,
2013-03-05 03:45:00,37.7,27.8,29.91,SE,126,6.0,9.0,67,0.00,,---,0.00,VWS V14.01,2013-03-05 08:45:00,
2013-03-05 03:46:00,37.7,27.4,29.91,NE,44,3.0,7.0,66,0.00,,---,0.00,VWS V14.01,2013-03-05 08:46:00,
2013-03-05 03:47:00,37.7,27.8,29.91,SE,134,1.0,6.0,67,0.00,,---,0.00,VWS V14.01,2013-03-05 08:47:00,
2013-03-05 03:48:00,37.7,27.8,29.91,SE,128,9.0,9.0,67,0.00,,---,0.00,VWS V14.01,2013-03-05 08:48:00,
2013-03-05 03:49:00,37.7,27.8,29.91,East,92,4.0,9.0,67,0.00,,---,0.00,VWS V14.01,2013-03-05 08:49:00,
2013-03-05 03:50:00,37.7,27.8,29.91,ESE,113,0.0,4.0,67,0.00,,---,0.00,VWS V14.01,2013-03-05 08:50:00,
2013-03-05 03:51:00,37.7,27.8,29.91,East,95,4.0,9.0,67,0.00,,---,0.00,VWS V14.01,2013-03-05 08:51:00,
2013-03-05 03:52:00,37.6,27.6,29.91,ENE,76,2.0,7.0,67,0.00,,---,0.00,VWS V14.01,2013-03-05 08:52:00,
2013-03-05 03:53:00,37.6,27.6,29.91,ESE,113,2.0,5.0,67,0.00,,---,0.00,VWS V14.01,2013-03-05 08:53:00,
2013-03-05 03:54:00,37.6,27.6,29.91,East,95,0.0,2.0,67,0.00,,---,0.00,VWS V14.01,2013-03-05 08:54:00,
2013-03-05 03:55:00,37.6,27.6,29.91,NE,45,5.0,5.0,67,0.00,,---,0.00,VWS V14.01,2013-03-05 08:55:00,
2013-03-05 03:56:00,37.6,27.6,29.91,SE,126,2.0,5.0,67,0.00,,---,0.00,VWS V14.01,2013-03-05 08:56:00,
2013-03-05 03:57:00,37.6,28.0,29.91,East,101,2.0,8.0,68,0.00,,---,0.00,VWS V14.01,2013-03-05 08:57:00,
2013-03-05 03:58:00,37.6,28.0,29.91,East,94,4.0,5.0,68,0.00,,---,0.00,VWS V14.01,2013-03-05 08:58:00,
2013-03-05 03:59:00,37.5,27.9,29.91,East,96,0.0,4.0,68,0.00,,---,0.00,VWS V14.01,2013-03-05 08:59:00,
2013-03-05 04:00:00,37.6,28.0,29.91,SE,138,0.0,2.0,68,0.00,,---,0.00,VWS V14.01,2013-03-05 09:00:00,
2013-03-05 04:01:00,37.5,27.9,29.91,ESE,110,2.0,8.0,68,0.00,,---,0.00,VWS V14.01,2013-03-05 09:01:00,
2013-03-05 04:02:00,37.5,27.9,29.91,East,89,4.0,6.0,68,0.00,,---,0.00,VWS V14.01,2013-03-05 09:02:00,
2013-03-05 04:03:00,37.5,27.9,29.91,ESE,117,5.0,6.0,68,0.00,,---,0.00,VWS V14.01,2013-03-05 09:03:00,
2013-03-05 04:04:00,37.5,27.9,29.91,East,92,5.0,6.0,68,0.00,,---,0.00,VWS V14.01,2013-03-05 09:04:00,
2013-03-05 04:05:00,37.5,27.9,29.91,ENE,76,1.0,5.0,68,0.00,,---,0.00,VWS V14.01,2013-03-05 09:05:00,
2013-03-05 04:06:00,37.5,27.9,29.91,ESE,119,1.0,7.0,68,0.00,,---,0.00,VWS V14.01,2013-03-05 09:06:00,
2013-03-05 04:07:00,37.5,27.9,29.91,ESE,110,1.0,9.0,68,0.00,,---,0.00,VWS V14.01,2013-03-05 09:07:00,
2013-03-05 04:08:00,37.5,27.9,29.91,ESE,121,0.0,8.0,68,0.00,,---,0.00,VWS V14.01,2013-03-05 09:08:00,
2013-03-05 04:09:00,37.5,27.9,29.91,East,94,0.0,5.0,68,0.00,,---,0.00,VWS V14.01,2013-03-05 09:09:00,
2013-03-05 04:10:00,37.5,27.9,29.91,ENE,75,4.0,7.0,68,0.00,,---,0.00,VWS V14.01,2013-03-05 09:10:00,
2013-03-05 04:11:00,37.5,27.9,29.91,ESE,123,7.0,9.0,68,0.00,,---,0.00,VWS V14.01,2013-03-05 09:11:00,
2013-03-05 04:12:00,37.5,27.9,29.91,ESE,107,5.0,7.0,68,0.00,,---,0.00,VWS V14.01,2013-03-05 09:12:00,
2013-03-05 04:13:00,37.5,28.3,29.91,East,96,4.0,5.0,69,0.00,,---,0.00,VWS V14.01,2013-03-05 09:13:00,
2013-03-05 04:14:00,37.5,28.3,29.90,ESE,122,2.0,11.0,69,0.00,,---,0.00,VWS V14.01,2013-03-05 09:14:00,
2013-03-05 04:15:00,37.5,28.3,29.91,East,96,2.0,4.0,69,0.00,,---,0.00,VWS V14.01,2013-03-05 09:15:00,
2013-03-05 04:16:00,37.4,28.2,29.91,NE,53,4.0,7.0,69,0.00,,---,0.00,VWS V14.01,2013-03-05 09:16:00,
2013-03-05 04:17:00,37.4,28.2,29.90,ESE,113,4.0,5.0,69,0.00,,---,0.00,VWS V14.01,2013-03-05 09:17:00,
2013-03-05 04:18:00,37.4,28.2,29.91,ENE,66,6.0,10.0,69,0.00,,---,0.00,VWS V14.01,2013-03-05 09:18:00,
2013-03-05 04:19:00,37.4,28.2,29.91,ESE,120,4.0,6.0,69,0.00,,---,0.00,VWS V14.01,2013-03-05 09:19:00,
2013-03-05 04:20:00,37.4,28.2,29.91,ESE,117,1.0,6.0,69,0.00,,---,0.00,VWS V14.01,2013-03-05 09:20:00,
2013-03-05 04:21:00,37.4,28.2,29.91,North,360,5.0,5.0,69,0.00,,---,0.00,VWS V14.01,2013-03-05 09:21:00,
2013-03-05 04:22:00,37.4,28.2,29.90,East,86,2.0,7.0,69,0.00,,---,0.00,VWS V14.01,2013-03-05 09:22:00,
2013-03-05 04:23:00,37.4,28.2,29.91,SE,125,8.0,8.0,69,0.00,,---,0.00,VWS V14.01,2013-03-05 09:23:00,
2013-03-05 04:24:00,37.4,28.2,29.90,ESE,119,0.0,8.0,69,0.00,,---,0.00,VWS V14.01,2013-03-05 09:24:00,
2013-03-05 04:25:00,37.4,28.2,29.91,ESE,116,0.0,5.0,69,0.00,,---,0.00,VWS V14.01,2013-03-05 09:25:00,
2013-03-05 04:26:00,37.4,28.5,29.91,ENE,69,5.0,5.0,70,0.00,,---,0.00,VWS V14.01,2013-03-05 09:26:00,
2013-03-05 04:27:00,37.3,28.4,29.90,East,88,4.0,5.0,70,0.00,,---,0.00,VWS V14.01,2013-03-05 09:27:00,
2013-03-05 04:28:00,37.3,28.4,29.91,SSE,148,0.0,10.0,70,0.00,,---,0.00,VWS V14.01,2013-03-05 09:28:00,
2013-03-05 04:29:00,37.3,28.4,29.91,East,98,5.0,5.0,70,0.00,,---,0.00,VWS V14.01,2013-03-05 09:29:00,
2013-03-05 04:30:00,37.3,28.4,29.91,East,90,7.0,7.0,70,0.00,,---,0.00,VWS V14.01,2013-03-05 09:30:00,
2013-03-05 04:31:00,37.3,28.4,29.90,ESE,109,2.0,7.0,70,0.00,,---,0.00,VWS V14.01,2013-03-05 09:31:00,
2013-03-05 04:32:00,37.3,28.4,29.90,ESE,119,2.0,6.0,70,0.00,,---,0.00,VWS V14.01,2013-03-05 09:32:00,
2013-03-05 04:33:00,37.3,28.4,29.90,ESE,122,4.0,4.0,70,0.00,,---,0.00,VWS V14.01,2013-03-05 09:33:00,
2013-03-05 04:34:00,37.3,28.4,29.90,SE,142,5.0,7.0,70,0.00,,---,0.00,VWS V14.01,2013-03-05 09:34:00,
2013-03-05 04:35:00,37.3,28.4,29.90,SE,134,2.0,7.0,70,0.00,,---,0.00,VWS V14.01,2013-03-05 09:35:00,
2013-03-05 04:36:00,37.3,28.4,29.90,ESE,113,4.0,6.0,70,0.00,,---,0.00,VWS V14.01,2013-03-05 09:36:00,
2013-03-05 04:37:00,37.3,28.4,29.90,SE,142,0.0,6.0,70,0.00,,---,0.00,VWS V14.01,2013-03-05 09:37:00,
2013-03-05 04:38:00,37.3,28.4,29.90,SE,127,6.0,11.0,70,0.00,,---,0.00,VWS V14.01,2013-03-05 09:38:00,
2013-03-05 04:39:00,37.3,28.4,29.90,SE,130,5.0,9.0,70,0.00,,---,0.00,VWS V14.01,2013-03-05 09:39:00,
2013-03-05 04:40:00,37.3,28.4,29.90,ESE,121,5.0,6.0,70,0.00,,---,0.00,VWS V14.01,2013-03-05 09:40:00,
2013-03-05 04:41:00,37.3,28.4,29.90,ESE,115,0.0,6.0,70,0.00,,---,0.00,VWS V14.01,2013-03-05 09:41:00,
2013-03-05 04:42:00,37.2,28.3,29.90,SE,136,8.0,8.0,70,0.00,,---,0.00,VWS V14.01,2013-03-05 09:42:00,
2013-03-05 04:43:00,37.2,28.7,29.90,SE,138,2.0,11.0,71,0.00,,---,0.00,VWS V14.01,2013-03-05 09:43:00,
2013-03-05 04:44:00,37.2,28.7,29.90,SE,138,5.0,6.0,71,0.00,,---,0.00,VWS V14.01,2013-03-05 09:44:00,
2013-03-05 04:45:00,37.2,28.7,29.90,ESE,121,1.0,8.0,71,0.00,,---,0.00,VWS V14.01,2013-03-05 09:45:00,
2013-03-05 04:46:00,37.2,28.7,29.90,ESE,121,0.0,4.0,71,0.00,,---,0.00,VWS V14.01,2013-03-05 09:46:00,
2013-03-05 04:47:00,37.2,28.7,29.90,SE,136,2.0,9.0,71,0.00,,---,0.00,VWS V14.01,2013-03-05 09:47:00,
2013-03-05 04:48:00,37.2,28.7,29.90,ESE,117,1.0,13.0,71,0.00,,---,0.00,VWS V14.01,2013-03-05 09:48:00,
2013-03-05 04:49:00,37.2,28.7,29.90,ESE,117,1.0,13.0,71,0.00,,---,0.00,VWS V14.01,2013-03-05 09:49:00,
2013-03-05 04:50:00,37.1,28.6,29.90,SE,132,5.0,5.0,71,0.00,,---,0.00,VWS V14.01,2013-03-05 09:50:00,
2013-03-05 04:51:00,37.1,28.6,29.90,ESE,111,4.0,6.0,71,0.00,,---,0.00,VWS V14.01,2013-03-05 09:51:00,
2013-03-05 04:52:00,37.1,28.6,29.90,SE,135,4.0,8.0,71,0.00,,---,0.00,VWS V14.01,2013-03-05 09:52:00,
2013-03-05 04:53:00,37.1,28.6,29.90,SE,126,2.0,6.0,71,0.00,,---,0.00,VWS V14.01,2013-03-05 09:53:00,
2013-03-05 04:54:00,37.1,28.6,29.90,SSE,150,6.0,8.0,71,0.00,,---,0.00,VWS V14.01,2013-03-05 09:54:00,
2013-03-05 04:55:00,37.1,28.6,29.90,SSE,150,6.0,8.0,71,0.00,,---,0.00,VWS V14.01,2013-03-05 09:55:00,
2013-03-05 04:56:00,37.1,28.6,29.91,SE,128,1.0,6.0,71,0.00,,---,0.00,VWS V14.01,2013-03-05 09:56:00,
2013-03-05 04:57:00,37.1,28.6,29.91,East,93,5.0,6.0,71,0.00,,---,0.00,VWS V14.01,2013-03-05 09:57:00,
2013-03-05 04:58:00,37.2,28.7,29.91,ESE,117,2.0,5.0,71,0.00,,---,0.00,VWS V14.01,2013-03-05 09:58:00,
2013-03-05 04:59:00,37.1,28.6,29.91,SE,132,4.0,8.0,71,0.00,,---,0.00,VWS V14.01,2013-03-05 09:59:00,
2013-03-05 05:00:00,37.1,28.6,29.91,SE,132,4.0,8.0,71,0.00,,---,0.00,VWS V14.01,2013-03-05 10:00:00,
2013-03-05 05:01:00,37.1,28.6,29.91,SSE,152,5.0,8.0,71,0.00,,---,0.00,VWS V14.01,2013-03-05 10:01:00,
2013-03-05 05:02:00,37.1,28.6,29.91,ESE,119,0.0,6.0,71,0.00,,---,0.00,VWS V14.01,2013-03-05 10:02:00,
2013-03-05 05:03:00,37.1,28.6,29.91,ESE,103,5.0,5.0,71,0.00,,---,0.00,VWS V14.01,2013-03-05 10:03:00,
2013-03-05 05:04:00,37.1,28.9,29.91,ESE,113,1.0,2.0,72,0.00,,---,0.00,VWS V14.01,2013-03-05 10:04:00,
2013-03-05 05:05:00,37.1,28.9,29.91,ESE,113,1.0,2.0,72,0.00,,---,0.00,VWS V14.01,2013-03-05 10:05:00,
2013-03-05 05:06:00,37.1,28.9,29.91,ESE,119,4.0,5.0,72,0.00,,---,0.00,VWS V14.01,2013-03-05 10:06:00,
2013-03-05 05:07:00,37.1,28.9,29.91,SE,132,4.0,6.0,72,0.00,,---,0.00,VWS V14.01,2013-03-05 10:07:00,
2013-03-05 05:08:00,37.2,29.0,29.91,ESE,121,2.0,5.0,72,0.00,,---,0.00,VWS V14.01,2013-03-05 10:08:00,
2013-03-05 05:09:00,37.1,28.9,29.91,SE,132,0.0,6.0,72,0.00,,---,0.00,VWS V14.01,2013-03-05 10:09:00,
2013-03-05 05:10:00,37.1,28.9,29.91,SE,132,0.0,6.0,72,0.00,,---,0.00,VWS V14.01,2013-03-05 10:10:00,
2013-03-05 05:11:00,37.1,28.9,29.91,SE,136,2.0,6.0,72,0.00,,---,0.00,VWS V14.01,2013-03-05 10:11:00,
2013-03-05 05:12:00,37.1,28.9,29.91,SE,146,4.0,6.0,72,0.00,,---,0.00,VWS V14.01,2013-03-05 10:12:00,
2013-03-05 05:13:00,37.1,28.9,29.91,East,88,2.0,7.0,72,0.00,,---,0.00,VWS V14.01,2013-03-05 10:13:00,
2013-03-05 05:14:00,37.1,28.9,29.91,SE,135,1.0,5.0,72,0.00,,---,0.00,VWS V14.01,2013-03-05 10:14:00,
2013-03-05 05:15:00,37.1,28.9,29.91,SE,135,1.0,5.0,72,0.00,,---,0.00,VWS V14.01,2013-03-05 10:15:00,
2013-03-05 05:16:00,37.1,28.9,29.91,SE,127,4.0,6.0,72,0.00,,---,0.00,VWS V14.01,2013-03-05 10:16:00,
2013-03-05 05:17:00,37.1,28.9,29.91,SE,136,0.0,4.0,72,0.00,,---,0.00,VWS V14.01,2013-03-05 10:17:00,
2013-03-05 05:18:00,37.1,28.9,29.91,ESE,123,2.0,7.0,72,0.00,,---,0.00,VWS V14.01,2013-03-05 10:18:00,
2013-03-05 05:19:00,37.1,28.9,29.91,SE,132,2.0,9.0,72,0.00,,---,0.00,VWS V14.01,2013-03-05 10:19:00,
2013-03-05 05:20:00,37.1,28.9,29.91,SE,132,2.0,9.0,72,0.00,,---,0.00,VWS V14.01,2013-03-05 10:20:00,
2013-03-05 05:21:00,37.1,28.9,29.91,SE,134,13.0,13.0,72,0.00,,---,0.00,VWS V14.01,2013-03-05 10:21:00,
2013-03-05 05:22:00,37.1,28.9,29.91,SSE,149,5.0,13.0,72,0.00,,---,0.00,VWS V14.01,2013-03-05 10:22:00,
2013-03-05 05:23:00,37.1,28.9,29.91,ESE,121,7.0,13.0,72,0.00,,---,0.00,VWS V14.01,2013-03-05 10:23:00,
2013-03-05 05:24:00,37.1,28.9,29.91,ESE,119,5.0,7.0,72,0.00,,---,0.00,VWS V14.01,2013-03-05 10:24:00,
2013-03-05 05:25:00,37.1,28.9,29.91,ESE,119,5.0,7.0,72,0.00,,---,0.00,VWS V14.01,2013-03-05 10:25:00,
2013-03-05 05:26:00,37.1,28.9,29.91,East,79,5.0,11.0,72,0.00,,---,0.00,VWS V14.01,2013-03-05 10:26:00,
2013-03-05 05:27:00,37.1,28.9,29.91,ESE,123,4.0,8.0,72,0.00,,---,0.00,VWS V14.01,2013-03-05 10:27:00,
2013-03-05 05:28:00,37.0,29.2,29.91,SE,128,1.0,8.0,73,0.00,,---,0.00,VWS V14.01,2013-03-05 10:28:00,
2013-03-05 05:29:00,37.1,29.3,29.91,SE,124,4.0,8.0,73,0.00,,---,0.00,VWS V14.01,2013-03-05 10:29:00,
2013-03-05 05:30:00,37.1,29.3,29.91,SE,124,4.0,8.0,73,0.00,,---,0.00,VWS V14.01,2013-03-05 10:30:00,
2013-03-05 05:31:00,37.1,29.3,29.91,ESE,123,6.0,6.0,73,0.00,,---,0.00,VWS V14.01,2013-03-05 10:31:00,
2013-03-05 05:32:00,37.0,29.2,29.91,SE,136,2.0,11.0,73,0.00,,---,0.00,VWS V14.01,2013-03-05 10:32:00,
2013-03-05 05:33:00,37.1,29.3,29.91,SE,128,1.0,4.0,73,0.00,,---,0.00,VWS V14.01,2013-03-05 10:33:00,
2013-03-05 05:34:00,37.0,29.2,29.91,SE,138,1.0,7.0,73,0.00,,---,0.00,VWS V14.01,2013-03-05 10:34:00,
2013-03-05 05:35:00,37.0,29.2,29.91,SE,138,1.0,7.0,73,0.00,,---,0.00,VWS V14.01,2013-03-05 10:35:00,
2013-03-05 05:36:00,37.0,29.2,29.91,ESE,117,1.0,9.0,73,0.00,,---,0.00,VWS V14.01,2013-03-05 10:36:00,
2013-03-05 05:37:00,37.0,29.2,29.91,ESE,113,4.0,8.0,73,0.00,,---,0.00,VWS V14.01,2013-03-05 10:37:00,
2013-03-05 05:38:00,37.0,29.2,29.91,SSE,159,6.0,6.0,73,0.00,,---,0.00,VWS V14.01,2013-03-05 10:38:00,
2013-03-05 05:39:00,37.0,29.2,29.91,SE,142,2.0,4.0,73,0.00,,---,0.00,VWS V14.01,2013-03-05 10:39:00,
2013-03-05 05:40:00,37.0,29.2,29.91,SE,142,2.0,4.0,73,0.00,,---,0.00,VWS V14.01,2013-03-05 10:40:00,
2013-03-05 05:41:00,37.0,29.2,29.91,SSE,150,5.0,6.0,73,0.00,,---,0.00,VWS V14.01,2013-03-05 10:41:00,
2013-03-05 05:42:00,36.9,29.1,29.91,SSE,159,4.0,6.0,73,0.00,,---,0.00,VWS V14.01,2013-03-05 10:42:00,
2013-03-05 05:43:00,36.9,29.4,29.91,SE,134,5.0,8.0,74,0.00,,---,0.00,VWS V14.01,2013-03-05 10:43:00,
2013-03-05 05:44:00,36.9,29.1,29.91,ESE,105,1.0,8.0,73,0.00,,---,0.00,VWS V14.01,2013-03-05 10:44:00,
2013-03-05 05:45:00,36.9,29.1,29.91,ESE,105,1.0,8.0,73,0.00,,---,0.00,VWS V14.01,2013-03-05 10:45:00,
2013-03-05 05:46:00,36.9,29.4,29.90,SE,144,2.0,6.0,74,0.00,,---,0.00,VWS V14.01,2013-03-05 10:46:00,
2013-03-05 05:47:00,36.9,29.4,29.90,ESE,117,6.0,7.0,74,0.00,,---,0.00,VWS V14.01,2013-03-05 10:47:00,
2013-03-05 05:48:00,36.9,29.4,29.90,SSE,159,6.0,8.0,74,0.00,,---,0.00,VWS V14.01,2013-03-05 10:48:00,
2013-03-05 05:49:00,36.9,29.4,29.90,East,88,5.0,8.0,74,0.00,,---,0.00,VWS V14.01,2013-03-05 10:49:00,
2013-03-05 05:50:00,36.9,29.4,29.90,East,88,5.0,8.0,74,0.00,,---,0.00,VWS V14.01,2013-03-05 10:50:00,
2013-03-05 05:51:00,36.9,29.4,29.90,ESE,117,6.0,10.0,74,0.00,,---,0.00,VWS V14.01,2013-03-05 10:51:00,
2013-03-05 05:52:00,36.9,29.4,29.90,ESE,117,1.0,7.0,74,0.00,,---,0.00,VWS V14.01,2013-03-05 10:52:00,
2013-03-05 05:53:00,36.9,29.4,29.90,SSE,148,7.0,8.0,74,0.00,,---,0.00,VWS V14.01,2013-03-05 10:53:00,
2013-03-05 05:54:00,36.8,29.3,29.90,SE,141,4.0,9.0,74,0.00,,---,0.00,VWS V14.01,2013-03-05 10:54:00,
2013-03-05 05:55:00,36.8,29.3,29.90,SE,141,4.0,9.0,74,0.00,,---,0.00,VWS V14.01,2013-03-05 10:55:00,
2013-03-05 05:56:00,36.8,29.3,29.90,SE,126,9.0,12.0,74,0.00,,---,0.00,VWS V14.01,2013-03-05 10:56:00,
2013-03-05 05:57:00,36.8,29.3,29.90,SSE,147,8.0,10.0,74,0.00,,---,0.00,VWS V14.01,2013-03-05 10:57:00,
2013-03-05 05:58:00,36.8,29.3,29.90,SE,136,9.0,10.0,74,0.00,,---,0.00,VWS V14.01,2013-03-05 10:58:00,
2013-03-05 05:59:00,36.8,29.3,29.90,ESE,108,6.0,7.0,74,0.00,,---,0.00,VWS V14.01,2013-03-05 10:59:00,
2013-03-05 06:00:00,36.8,29.3,29.90,ESE,108,6.0,7.0,74,0.00,,---,0.00,VWS V14.01,2013-03-05 11:00:00,
2013-03-05 06:01:00,36.8,29.3,29.90,SE,133,5.0,9.0,74,0.00,,---,0.00,VWS V14.01,2013-03-05 11:01:00,
2013-03-05 06:02:00,36.8,29.3,29.90,SSE,166,4.0,6.0,74,0.00,,---,0.00,VWS V14.01,2013-03-05 11:02:00,
2013-03-05 06:03:00,36.8,29.6,29.90,SSE,148,6.0,9.0,75,0.00,,---,0.00,VWS V14.01,2013-03-05 11:03:00,
2013-03-05 06:04:00,36.7,29.5,29.90,ESE,123,8.0,11.0,75,0.00,,---,0.00,VWS V14.01,2013-03-05 11:04:00,
2013-03-05 06:05:00,36.7,29.5,29.90,ESE,123,8.0,11.0,75,0.00,,---,0.00,VWS V14.01,2013-03-05 11:05:00,
2013-03-05 06:06:00,36.7,29.5,29.90,SSW,197,6.0,9.0,75,0.00,,---,0.00,VWS V14.01,2013-03-05 11:06:00,
2013-03-05 06:07:00,36.7,29.5,29.90,SSE,168,4.0,11.0,75,0.00,,---,0.00,VWS V14.01,2013-03-05 11:07:00,
2013-03-05 06:08:00,36.7,29.5,29.90,SSE,151,1.0,7.0,75,0.00,,---,0.00,VWS V14.01,2013-03-05 11:08:00,
2013-03-05 06:09:00,36.7,29.5,29.90,SE,140,7.0,7.0,75,0.00,,---,0.00,VWS V14.01,2013-03-05 11:09:00,
2013-03-05 06:10:00,36.7,29.5,29.90,SE,140,7.0,7.0,75,0.00,,---,0.00,VWS V14.01,2013-03-05 11:10:00,
2013-03-05 06:11:00,36.7,29.5,29.90,ESE,117,4.0,12.0,75,0.00,,---,0.00,VWS V14.01,2013-03-05 11:11:00,
2013-03-05 06:12:00,36.7,29.5,29.90,ESE,117,7.0,8.0,75,0.00,,---,0.00,VWS V14.01,2013-03-05 11:12:00,
2013-03-05 06:13:00,36.7,29.5,29.90,SE,144,1.0,11.0,75,0.00,,---,0.00,VWS V14.01,2013-03-05 11:13:00,
2013-03-05 06:14:00,36.7,29.5,29.90,East,92,2.0,6.0,75,0.00,,---,0.00,VWS V14.01,2013-03-05 11:14:00,
2013-03-05 06:15:00,36.6,29.4,29.90,East,88,2.0,9.0,75,0.00,,---,0.00,VWS V14.01,2013-03-05 11:15:00,
2013-03-05 06:16:00,36.6,29.4,29.90,East,88,2.0,9.0,75,0.00,,---,0.00,VWS V14.01,2013-03-05 11:16:00,
2013-03-05 06:17:00,36.6,29.4,29.90,ESE,122,6.0,8.0,75,0.00,,---,0.00,VWS V14.01,2013-03-05 11:17:00,
2013-03-05 06:18:00,36.6,29.4,29.89,East,97,7.0,10.0,75,0.00,,---,0.00,VWS V14.01,2013-03-05 11:18:00,
2013-03-05 06:19:00,36.6,29.4,29.89,ESE,112,9.0,9.0,75,0.00,,---,0.00,VWS V14.01,2013-03-05 11:19:00,
2013-03-05 06:20:00,36.6,29.4,29.89,ESE,112,0.0,9.0,75,0.00,,---,0.00,VWS V14.01,2013-03-05 11:20:00,
2013-03-05 06:21:00,36.6,29.4,29.89,ESE,112,0.0,9.0,75,0.00,,---,0.00,VWS V14.01,2013-03-05 11:21:00,
2013-03-05 06:22:00,36.6,29.4,29.89,SSE,148,5.0,5.0,75,0.00,,---,0.00,VWS V14.01,2013-03-05 11:22:00,
2013-03-05 06:23:00,36.6,29.4,29.89,East,80,3.0,7.0,75,0.00,,---,0.00,VWS V14.01,2013-03-05 11:23:00,
2013-03-05 06:24:00,36.6,29.4,29.89,South,173,4.0,8.0,75,0.00,,---,0.00,VWS V14.01,2013-03-05 11:24:00,
2013-03-05 06:25:00,36.6,29.4,29.89,SE,128,2.0,2.0,75,0.00,,---,0.00,VWS V14.01,2013-03-05 11:25:00,
2013-03-05 06:26:00,36.6,29.4,29.89,SE,128,2.0,2.0,75,0.00,,---,0.00,VWS V14.01,2013-03-05 11:26:00,
2013-03-05 06:27:00,36.5,29.3,29.89,SSE,163,4.0,5.0,75,0.00,,---,0.00,VWS V14.01,2013-03-05 11:27:00,
2013-03-05 06:28:00,36.5,29.7,29.89,SE,137,1.0,5.0,76,0.00,,---,0.00,VWS V14.01,2013-03-05 11:28:00,
2013-03-05 06:29:00,36.5,29.7,29.89,ESE,111,4.0,6.0,76,0.00,,---,0.00,VWS V14.01,2013-03-05 11:29:00,
2013-03-05 06:30:00,36.5,29.7,29.89,SE,138,1.0,6.0,76,0.00,,---,0.00,VWS V14.01,2013-03-05 11:30:00,
2013-03-05 06:31:00,36.5,29.7,29.89,SE,138,1.0,6.0,76,0.00,,---,0.00,VWS V14.01,2013-03-05 11:31:00,
2013-03-05 06:32:00,36.5,29.7,29.89,SE,130,1.0,8.0,76,0.00,,---,0.00,VWS V14.01,2013-03-05 11:32:00,
2013-03-05 06:33:00,36.5,29.7,29.89,SE,146,7.0,9.0,76,0.00,,---,0.00,VWS V14.01,2013-03-05 11:33:00,
2013-03-05 06:34:00,36.5,29.7,29.89,SE,130,4.0,9.0,76,0.00,,---,0.00,VWS V14.01,2013-03-05 11:34:00,
2013-03-05 06:35:00,36.5,29.7,29.89,South,173,5.0,9.0,76,0.00,,---,0.00,VWS V14.01,2013-03-05 11:35:00,
2013-03-05 06:36:00,36.5,29.7,29.89,South,173,5.0,9.0,76,0.00,,---,0.00,VWS V14.01,2013-03-05 11:36:00,
2013-03-05 06:37:00,36.5,29.7,29.89,SSE,151,7.0,8.0,76,0.00,,---,0.00,VWS V14.01,2013-03-05 11:37:00,
2013-03-05 06:38:00,36.5,29.7,29.89,SE,128,2.0,8.0,76,0.00,,---,0.00,VWS V14.01,2013-03-05 11:38:00,
2013-03-05 06:39:00,36.5,29.7,29.89,SE,134,8.0,11.0,76,0.00,,---,0.00,VWS V14.01,2013-03-05 11:39:00,
2013-03-05 06:40:00,36.4,29.6,29.88,SE,126,7.0,11.0,76,0.00,,---,0.00,VWS V14.01,2013-03-05 11:40:00,
2013-03-05 06:41:00,36.4,29.6,29.88,SE,126,7.0,11.0,76,0.00,,---,0.00,VWS V14.01,2013-03-05 11:41:00,
2013-03-05 06:42:00,36.4,29.6,29.88,SE,142,2.0,8.0,76,0.00,,---,0.00,VWS V14.01,2013-03-05 11:42:00,
2013-03-05 06:43:00,36.4,29.6,29.88,ESE,123,6.0,8.0,76,0.00,,---,0.00,VWS V14.01,2013-03-05 11:43:00,
2013-03-05 06:44:00,36.4,29.6,29.88,ESE,106,4.0,9.0,76,0.00,,---,0.00,VWS V14.01,2013-03-05 11:44:00,
2013-03-05 06:45:00,36.4,29.6,29.88,SE,134,1.0,8.0,76,0.00,,---,0.00,VWS V14.01,2013-03-05 11:45:00,
2013-03-05 06:46:00,36.4,29.6,29.88,SE,134,1.0,8.0,76,0.00,,---,0.00,VWS V14.01,2013-03-05 11:46:00,
2013-03-05 06:47:00,36.4,29.6,29.88,SE,130,5.0,7.0,76,0.00,,---,0.00,VWS V14.01,2013-03-05 11:47:00,
2013-03-05 06:48:00,36.4,29.6,29.88,SSE,148,2.0,13.0,76,0.00,,---,0.00,VWS V14.01,2013-03-05 11:48:00,
2013-03-05 06:49:00,36.4,29.6,29.88,SSE,156,8.0,13.0,76,0.00,,---,0.00,VWS V14.01,2013-03-05 11:49:00,
2013-03-05 06:50:00,36.4,29.6,29.88,SE,130,4.0,8.0,76,0.00,,---,0.00,VWS V14.01,2013-03-05 11:50:00,
2013-03-05 06:51:00,36.4,29.6,29.87,SE,132,6.0,9.0,76,0.00,,---,0.00,VWS V14.01,2013-03-05 11:51:00,
2013-03-05 06:52:00,36.4,29.6,29.87,SE,132,6.0,9.0,76,0.00,,---,0.00,VWS V14.01,2013-03-05 11:52:00,
2013-03-05 06:53:00,36.3,29.5,29.87,SE,124,1.0,9.0,76,0.00,,---,0.00,VWS V14.01,2013-03-05 11:53:00,
2013-03-05 06:54:00,36.3,29.5,29.87,ESE,115,4.0,9.0,76,0.00,,---,0.00,VWS V14.01,2013-03-05 11:54:00,
2013-03-05 06:55:00,36.3,29.5,29.87,ESE,121,0.0,6.0,76,0.00,,---,0.00,VWS V14.01,2013-03-05 11:55:00,
2013-03-05 06:56:00,36.3,29.8,29.87,SE,140,2.0,9.0,77,0.00,,---,0.00,VWS V14.01,2013-03-05 11:56:00,
2013-03-05 06:57:00,36.3,29.8,29.87,SE,140,2.0,9.0,77,0.00,,---,0.00,VWS V14.01,2013-03-05 11:57:00,
2013-03-05 06:58:00,36.3,29.8,29.87,SSE,166,6.0,6.0,77,0.00,,---,0.00,VWS V14.01,2013-03-05 11:58:00,
2013-03-05 06:59:00,36.3,29.8,29.87,ESE,114,2.0,11.0,77,0.00,,---,0.00,VWS V14.01,2013-03-05 11:59:00,
2013-03-05 07:00:00,36.3,29.8,29.87,SE,144,7.0,7.0,77,0.00,,---,0.00,VWS V14.01,2013-03-05 12:00:00,
2013-03-05 07:01:00,36.3,29.8,29.88,SSE,168,7.0,8.0,77,0.00,,---,0.00,VWS V14.01,2013-03-05 12:01:00,
2013-03-05 07:02:00,36.3,29.8,29.88,SSE,168,7.0,8.0,77,0.00,,---,0.00,VWS V14.01,2013-03-05 12:02:00,
2013-03-05 07:03:00,36.2,29.7,29.88,SE,133,6.0,12.0,77,0.00,,---,0.00,VWS V14.01,2013-03-05 12:03:00,
2013-03-05 07:04:00,36.3,29.8,29.88,SSE,153,0.0,9.0,77,0.00,,---,0.00,VWS V14.01,2013-03-05 12:04:00,
2013-03-05 07:05:00,36.3,29.8,29.88,SE,131,5.0,7.0,77,0.00,,---,0.00,VWS V14.01,2013-03-05 12:05:00,
2013-03-05 07:06:00,36.3,29.8,29.88,ESE,107,1.0,8.0,77,0.00,,---,0.00,VWS V14.01,2013-03-05 12:06:00,
2013-03-05 07:07:00,36.3,29.8,29.89,SE,132,2.0,11.0,77,0.00,,---,0.00,VWS V14.01,2013-03-05 12:07:00,
2013-03-05 07:08:00,36.3,29.8,29.89,SE,132,2.0,11.0,77,0.00,,---,0.00,VWS V14.01,2013-03-05 12:08:00,
2013-03-05 07:09:00,36.3,29.8,29.89,SE,132,0.0,2.0,77,0.00,,---,0.00,VWS V14.01,2013-03-05 12:09:00,
2013-03-05 07:10:00,36.3,29.8,29.89,SE,144,1.0,5.0,77,0.00,,---,0.00,VWS V14.01,2013-03-05 12:10:00,
2013-03-05 07:11:00,36.3,29.8,29.89,SE,142,2.0,2.0,77,0.00,,---,0.00,VWS V14.01,2013-03-05 12:11:00,
2013-03-05 07:12:00,36.3,29.8,29.89,ESE,117,7.0,9.0,77,0.00,,---,0.00,VWS V14.01,2013-03-05 12:12:00,
2013-03-05 07:13:00,36.3,29.8,29.89,ESE,117,7.0,9.0,77,0.00,,---,0.00,VWS V14.01,2013-03-05 12:13:00,
2013-03-05 07:14:00,36.3,29.8,29.89,SSE,148,1.0,7.0,77,0.00,,---,0.00,VWS V14.01,2013-03-05 12:14:00,
2013-03-05 07:15:00,36.3,29.8,29.89,SE,140,4.0,6.0,77,0.00,,---,0.00,VWS V14.01,2013-03-05 12:15:00,
2013-03-05 07:16:00,36.3,29.8,29.89,ESE,116,4.0,6.0,77,0.00,,---,0.00,VWS V14.01,2013-03-05 12:16:00,
2013-03-05 07:17:00,36.3,29.8,29.88,SE,125,6.0,7.0,77,0.00,,---,0.00,VWS V14.01,2013-03-05 12:17:00,
2013-03-05 07:18:00,36.3,29.8,29.88,SE,125,6.0,7.0,77,0.00,,---,0.00,VWS V14.01,2013-03-05 12:18:00,
2013-03-05 07:19:00,36.3,29.8,29.88,South,169,2.0,10.0,77,0.00,,---,0.00,VWS V14.01,2013-03-05 12:19:00,
2013-03-05 07:20:00,36.3,29.8,29.88,SE,144,4.0,11.0,77,0.00,,---,0.00,VWS V14.01,2013-03-05 12:20:00,
2013-03-05 07:21:00,36.3,29.8,29.88,SE,133,9.0,9.0,77,0.00,,---,0.00,VWS V14.01,2013-03-05 12:21:00,
2013-03-05 07:22:00,36.3,29.8,29.88,SSE,152,0.0,4.0,77,0.00,,---,0.00,VWS V14.01,2013-03-05 12:22:00,
2013-03-05 07:23:00,36.3,29.8,29.88,SSE,152,0.0,4.0,77,0.00,,---,0.00,VWS V14.01,2013-03-05 12:23:00,
2013-03-05 07:24:00,36.4,29.9,29.88,SE,126,7.0,7.0,77,0.00,,---,0.00,VWS V14.01,2013-03-05 12:24:00,
2013-03-05 07:25:00,36.3,29.8,29.89,ESE,120,0.0,8.0,77,0.00,,---,0.00,VWS V14.01,2013-03-05 12:25:00,
2013-03-05 07:26:00,36.3,29.8,29.89,ESE,112,4.0,5.0,77,0.00,,---,0.00,VWS V14.01,2013-03-05 12:26:00,
2013-03-05 07:27:00,36.3,29.8,29.89,SE,142,2.0,6.0,77,0.00,,---,0.00,VWS V14.01,2013-03-05 12:27:00,
2013-03-05 07:28:00,36.3,29.8,29.89,SE,142,2.0,6.0,77,0.00,,---,0.00,VWS V14.01,2013-03-05 12:28:00,
2013-03-05 07:29:00,36.3,29.8,29.89,ENE,66,2.0,7.0,77,0.00,,---,0.00,VWS V14.01,2013-03-05 12:29:00,
2013-03-05 07:30:00,36.4,29.9,29.89,SE,135,6.0,7.0,77,0.00,,---,0.00,VWS V14.01,2013-03-05 12:30:00,
2013-03-05 07:31:00,36.3,29.8,29.89,SSE,148,0.0,7.0,77,0.00,,---,0.00,VWS V14.01,2013-03-05 12:31:00,
2013-03-05 07:32:00,36.4,29.9,29.89,SSE,154,4.0,9.0,77,0.00,,---,0.00,VWS V14.01,2013-03-05 12:32:00,
2013-03-05 07:33:00,36.4,29.9,29.89,SSE,154,4.0,9.0,77,0.00,,---,0.00,VWS V14.01,2013-03-05 12:33:00,
2013-03-05 07:34:00,36.4,29.9,29.89,East,92,6.0,7.0,77,0.00,,---,0.00,VWS V14.01,2013-03-05 12:34:00,
2013-03-05 07:35:00,36.4,29.9,29.88,SE,135,2.0,6.0,77,0.00,,---,0.00,VWS V14.01,2013-03-05 12:35:00,
2013-03-05 07:36:00,36.4,29.9,29.88,ESE,121,5.0,8.0,77,0.00,,---,0.00,VWS V14.01,2013-03-05 12:36:00,
2013-03-05 07:37:00,36.3,29.8,29.88,ESE,115,4.0,7.0,77,0.00,,---,0.00,VWS V14.01,2013-03-05 12:37:00,
2013-03-05 07:38:00,36.3,29.8,29.88,ESE,115,4.0,7.0,77,0.00,,---,0.00,VWS V14.01,2013-03-05 12:38:00,
2013-03-05 07:39:00,36.4,29.9,29.88,SE,132,6.0,7.0,77,0.00,,---,0.00,VWS V14.01,2013-03-05 12:39:00,
2013-03-05 07:40:00,36.4,29.9,29.88,SE,141,2.0,10.0,77,0.00,,---,0.00,VWS V14.01,2013-03-05 12:40:00,
2013-03-05 07:41:00,36.4,29.9,29.88,ESE,109,2.0,9.0,77,0.00,,---,0.00,VWS V14.01,2013-03-05 12:41:00,
2013-03-05 07:42:00,36.4,29.9,29.88,SE,140,1.0,6.0,77,0.00,,---,0.00,VWS V14.01,2013-03-05 12:42:00,
2013-03-05 07:43:00,36.4,29.9,29.88,SE,140,1.0,6.0,77,0.00,,---,0.00,VWS V14.01,2013-03-05 12:43:00,
2013-03-05 07:44:00,36.4,29.9,29.88,SSE,164,4.0,9.0,77,0.00,,---,0.00,VWS V14.01,2013-03-05 12:44:00,
2013-03-05 07:45:00,36.4,29.9,29.88,SE,126,5.0,8.0,77,0.00,,---,0.00,VWS V14.01,2013-03-05 12:45:00,
2013-03-05 07:46:00,36.4,29.9,29.88,SE,129,6.0,7.0,77,0.00,,---,0.00,VWS V14.01,2013-03-05 12:46:00,
2013-03-05 07:47:00,36.4,29.9,29.88,SE,141,7.0,7.0,77,0.00,,---,0.00,VWS V14.01,2013-03-05 12:47:00,
2013-03-05 07:48:00,36.4,29.9,29.88,SE,141,7.0,7.0,77,0.00,,---,0.00,VWS V14.01,2013-03-05 12:48:00,
2013-03-05 07:49:00,36.4,29.9,29.88,SE,144,5.0,9.0,77,0.00,,---,0.00,VWS V14.01,2013-03-05 12:49:00,
2013-03-05 07:50:00,36.4,29.9,29.88,SE,136,5.0,7.0,77,0.00,,---,0.00,VWS V14.01,2013-03-05 12:50:00,
2013-03-05 07:51:00,36.4,29.9,29.88,ESE,116,1.0,9.0,77,0.00,,---,0.00,VWS V14.01,2013-03-05 12:51:00,
2013-03-05 07:52:00,36.4,29.9,29.88,SSE,156,6.0,11.0,77,0.00,,---,0.00,VWS V14.01,2013-03-05 12:52:00,
2013-03-05 07:53:00,36.4,29.9,29.88,SE,126,9.0,9.0,77,0.00,,---,0.00,VWS V14.01,2013-03-05 12:53:00,
2013-03-05 07:54:00,36.4,29.9,29.88,SE,146,2.0,6.0,77,0.00,,---,0.00,VWS V14.01,2013-03-05 12:54:00,
2013-03-05 07:55:00,36.4,29.9,29.88,SE,146,2.0,6.0,77,0.00,,---,0.00,VWS V14.01,2013-03-05 12:55:00,
2013-03-05 07:56:00,36.5,30.0,29.88,SSE,159,1.0,5.0,77,0.00,,---,0.00,VWS V14.01,2013-03-05 12:56:00,
2013-03-05 07:57:00,36.4,29.9,29.88,SE,146,7.0,7.0,77,0.00,,---,0.00,VWS V14.01,2013-03-05 12:57:00,
2013-03-05 07:58:00,36.5,30.0,29.88,SE,131,4.0,9.0,77,0.00,,---,0.00,VWS V14.01,2013-03-05 12:58:00,
2013-03-05 07:59:00,36.5,30.0,29.88,SE,129,2.0,8.0,77,0.00,,---,0.00,VWS V14.01,2013-03-05 12:59:00,
2013-03-05 08:00:00,36.5,30.0,29.88,SE,129,2.0,8.0,77,0.00,,---,0.00,VWS V14.01,2013-03-05 13:00:00,
2013-03-05 08:01:00,36.5,30.0,29.88,ESE,119,0.0,7.0,77,0.00,,---,0.00,VWS V14.01,2013-03-05 13:01:00,
2013-03-05 08:02:00,36.5,30.0,29.88,SE,138,5.0,10.0,77,0.00,,---,0.00,VWS V14.01,2013-03-05 13:02:00,
2013-03-05 08:03:00,36.5,30.0,29.88,SE,130,0.0,6.0,77,0.00,,---,0.00,VWS V14.01,2013-03-05 13:03:00,
2013-03-05 08:04:00,36.5,30.0,29.88,SE,140,5.0,11.0,77,0.00,,---,0.00,VWS V14.01,2013-03-05 13:04:00,
2013-03-05 08:05:00,36.5,30.0,29.88,SE,140,5.0,11.0,77,0.00,,---,0.00,VWS V14.01,2013-03-05 13:05:00,
2013-03-05 08:06:00,36.6,30.1,29.88,SE,146,5.0,8.0,77,0.00,,---,0.00,VWS V14.01,2013-03-05 13:06:00,
2013-03-05 08:07:00,36.5,29.7,29.88,SE,136,1.0,10.0,76,0.00,,---,0.00,VWS V14.01,2013-03-05 13:07:00,
2013-03-05 08:08:00,36.6,30.1,29.88,SE,134,1.0,6.0,77,0.00,,---,0.00,VWS V14.01,2013-03-05 13:08:00,
2013-03-05 08:09:00,36.6,30.1,29.87,SE,144,7.0,9.0,77,0.00,,---,0.00,VWS V14.01,2013-03-05 13:09:00,
2013-03-05 08:10:00,36.6,30.1,29.87,SE,144,7.0,9.0,77,0.00,,---,0.00,VWS V14.01,2013-03-05 13:10:00,
2013-03-05 08:11:00,36.6,30.1,29.87,SE,130,4.0,8.0,77,0.00,,---,0.00,VWS V14.01,2013-03-05 13:11:00,
2013-03-05 08:12:00,36.6,29.8,29.87,SE,132,2.0,11.0,76,0.00,,---,0.00,VWS V14.01,2013-03-05 13:12:00,
2013-03-05 08:13:00,36.7,29.9,29.87,ESE,120,6.0,9.0,76,0.00,,---,0.00,VWS V14.01,2013-03-05 13:13:00,
2013-03-05 08:14:00,36.7,29.9,29.87,SSE,151,5.0,8.0,76,0.00,,---,0.00,VWS V14.01,2013-03-05 13:14:00,
2013-03-05 08:15:00,36.7,29.9,29.87,SSE,151,5.0,8.0,76,0.00,,---,0.00,VWS V14.01,2013-03-05 13:15:00,
2013-03-05 08:16:00,36.8,30.0,29.87,SE,131,14.0,14.0,76,0.00,,---,0.00,VWS V14.01,2013-03-05 13:16:00,
2013-03-05 08:17:00,36.8,30.0,29.87,SSE,160,10.0,14.0,76,0.00,,---,0.00,VWS V14.01,2013-03-05 13:17:00,
2013-03-05 08:18:00,36.8,30.0,29.87,East,101,1.0,10.0,76,0.00,,---,0.00,VWS V14.01,2013-03-05 13:18:00,
2013-03-05 08:19:00,36.8,30.3,29.87,ESE,116,6.0,8.0,77,0.00,,---,0.00,VWS V14.01,2013-03-05 13:19:00,
2013-03-05 08:20:00,36.8,30.3,29.87,ESE,116,6.0,8.0,77,0.00,,---,0.00,VWS V14.01,2013-03-05 13:20:00,
2013-03-05 08:21:00,36.8,30.0,29.87,East,84,11.0,11.0,76,0.00,,---,0.00,VWS V14.01,2013-03-05 13:21:00,
2013-03-05 08:22:00,36.8,30.0,29.87,ESE,118,2.0,11.0,76,0.00,,---,0.00,VWS V14.01,2013-03-05 13:22:00,
2013-03-05 08:23:00,36.8,30.0,29.87,SSE,158,4.0,7.0,76,0.00,,---,0.00,VWS V14.01,2013-03-05 13:23:00,
2013-03-05 08:24:00,36.8,30.0,29.87,ESE,121,6.0,8.0,76,0.00,,---,0.00,VWS V14.01,2013-03-05 13:24:00,
2013-03-05 08:25:00,36.8,30.0,29.87,ESE,121,6.0,8.0,76,0.00,,---,0.00,VWS V14.01,2013-03-05 13:25:00,
2013-03-05 08:26:00,36.9,30.0,29.87,ESE,121,2.0,8.0,76,0.00,,---,0.00,VWS V14.01,2013-03-05 13:26:00,
2013-03-05 08:27:00,36.9,30.0,29.87,SE,126,6.0,11.0,76,0.00,,---,0.00,VWS V14.01,2013-03-05 13:27:00,
2013-03-05 08:28:00,36.9,30.0,29.87,ESE,120,7.0,12.0,76,0.00,,---,0.00,VWS V14.01,2013-03-05 13:28:00,
2013-03-05 08:29:00,36.9,30.0,29.87,SSE,163,4.0,4.0,76,0.00,,---,0.00,VWS V14.01,2013-03-05 13:29:00,
2013-03-05 08:30:00,36.9,30.0,29.87,SSE,163,4.0,4.0,76,0.00,,---,0.00,VWS V14.01,2013-03-05 13:30:00,
2013-03-05 08:31:00,36.9,30.0,29.87,SSE,156,2.0,5.0,76,0.00,,---,0.00,VWS V14.01,2013-03-05 13:31:00,
2013-03-05 08:32:00,36.9,30.0,29.87,ESE,123,1.0,9.0,76,0.00,,---,0.00,VWS V14.01,2013-03-05 13:32:00,
2013-03-05 08:33:00,37.0,30.1,29.87,SSE,155,4.0,6.0,76,0.00,,---,0.00,VWS V14.01,2013-03-05 13:33:00,
2013-03-05 08:34:00,37.0,30.5,29.87,SSE,154,6.0,9.0,77,0.00,,---,0.00,VWS V14.01,2013-03-05 13:34:00,
2013-03-05 08:35:00,37.0,30.5,29.87,SSE,154,6.0,9.0,77,0.00,,---,0.00,VWS V14.01,2013-03-05 13:35:00,
2013-03-05 08:36:00,37.0,30.1,29.87,SSE,156,2.0,10.0,76,0.00,,---,0.00,VWS V14.01,2013-03-05 13:36:00,
2013-03-05 08:37:00,37.0,30.1,29.87,SE,125,2.0,6.0,76,0.00,,---,0.00,VWS V14.01,2013-03-05 13:37:00,
2013-03-05 08:38:00,37.0,30.1,29.87,SE,128,2.0,4.0,76,0.00,,---,0.00,VWS V14.01,2013-03-05 13:38:00,
2013-03-05 08:39:00,37.0,30.1,29.87,SE,134,2.0,6.0,76,0.00,,---,0.00,VWS V14.01,2013-03-05 13:39:00,
2013-03-05 08:40:00,37.0,30.1,29.87,SE,134,2.0,6.0,76,0.00,,---,0.00,VWS V14.01,2013-03-05 13:40:00,
2013-03-05 08:41:00,37.1,30.2,29.87,SSE,155,1.0,6.0,76,0.00,,---,0.00,VWS V14.01,2013-03-05 13:41:00,
2013-03-05 08:42:00,37.1,30.2,29.87,SE,143,4.0,7.0,76,0.00,,---,0.00,VWS V14.01,2013-03-05 13:42:00,
2013-03-05 08:43:00,37.1,30.2,29.87,SE,141,4.0,4.0,76,0.00,,---,0.00,VWS V14.01,2013-03-05 13:43:00,
2013-03-05 08:44:00,37.1,30.2,29.87,SE,140,6.0,8.0,76,0.00,,---,0.00,VWS V14.01,2013-03-05 13:44:00,
2013-03-05 08:45:00,37.1,30.2,29.87,SE,140,6.0,8.0,76,0.00,,---,0.00,VWS V14.01,2013-03-05 13:45:00,
2013-03-05 08:46:00,37.1,30.2,29.87,SSE,150,8.0,11.0,76,0.00,,---,0.00,VWS V14.01,2013-03-05 13:46:00,
2013-03-05 08:47:00,37.1,30.2,29.87,SSE,165,2.0,9.0,76,0.00,,---,0.00,VWS V14.01,2013-03-05 13:47:00,
2013-03-05 08:48:00,37.2,30.3,29.87,SSE,159,4.0,7.0,76,0.00,,---,0.00,VWS V14.01,2013-03-05 13:48:00,
2013-03-05 08:49:00,37.2,30.4,29.87,SSE,149,1.0,6.0,76,0.00,,---,0.00,VWS V14.01,2013-03-05 13:49:00,
2013-03-05 08:50:00,37.2,30.3,29.87,SSE,149,1.0,6.0,76,0.00,,---,0.00,VWS V14.01,2013-03-05 13:50:00,
2013-03-05 08:51:00,37.2,30.3,29.87,SSE,156,7.0,11.0,76,0.00,,---,0.00,VWS V14.01,2013-03-05 13:51:00,
2013-03-05 08:52:00,37.2,30.3,29.87,SE,134,9.0,9.0,76,0.00,,---,0.00,VWS V14.01,2013-03-05 13:52:00,
2013-03-05 08:53:00,37.3,30.4,29.86,ESE,111,4.0,9.0,76,0.00,,---,0.00,VWS V14.01,2013-03-05 13:53:00,
2013-03-05 08:54:00,37.3,30.4,29.86,SE,126,4.0,8.0,76,0.00,,---,0.00,VWS V14.01,2013-03-05 13:54:00,
2013-03-05 08:55:00,37.3,30.4,29.86,SE,126,4.0,8.0,76,0.00,,---,0.00,VWS V14.01,2013-03-05 13:55:00,
2013-03-05 08:56:00,37.3,30.4,29.86,SE,129,5.0,11.0,76,0.00,,---,0.00,VWS V14.01,2013-03-05 13:56:00,
2013-03-05 08:57:00,37.3,30.1,29.86,SE,143,9.0,11.0,75,0.00,,---,0.00,VWS V14.01,2013-03-05 13:57:00,
2013-03-05 08:58:00,37.3,30.1,29.86,SE,132,4.0,11.0,75,0.00,,---,0.00,VWS V14.01,2013-03-05 13:58:00,
2013-03-05 08:59:00,37.4,30.2,29.86,ESE,117,7.0,11.0,75,0.00,,---,0.00,VWS V14.01,2013-03-05 13:59:00,
2013-03-05 09:00:00,37.4,30.2,29.86,ESE,117,7.0,11.0,75,0.00,,---,0.00,VWS V14.01,2013-03-05 14:00:00,
2013-03-05 09:01:00,37.4,30.2,29.86,ESE,117,6.0,12.0,75,0.00,,---,0.00,VWS V14.01,2013-03-05 14:01:00,
2013-03-05 09:02:00,37.4,30.2,29.86,SSE,155,1.0,7.0,75,0.00,,---,0.00,VWS V14.01,2013-03-05 14:02:00,
2013-03-05 09:03:00,37.4,30.2,29.86,SE,133,7.0,7.0,75,0.00,,---,0.00,VWS V14.01,2013-03-05 14:03:00,
2013-03-05 09:04:00,37.4,30.2,29.86,SSE,165,2.0,9.0,75,0.00,,---,0.00,VWS V14.01,2013-03-05 14:04:00,
2013-03-05 09:05:00,37.4,30.2,29.86,SSE,165,2.0,9.0,75,0.00,,---,0.00,VWS V14.01,2013-03-05 14:05:00,
2013-03-05 09:06:00,37.5,30.3,29.85,SE,126,6.0,11.0,75,0.00,,---,0.00,VWS V14.01,2013-03-05 14:06:00,
2013-03-05 09:07:00,37.5,30.3,29.85,SE,145,2.0,9.0,75,0.00,,---,0.00,VWS V14.01,2013-03-05 14:07:00,
2013-03-05 09:08:00,37.5,30.3,29.85,SE,126,6.0,10.0,75,0.00,,---,0.00,VWS V14.01,2013-03-05 14:08:00,
2013-03-05 09:09:00,37.6,30.4,29.85,SE,142,7.0,11.0,75,0.00,,---,0.00,VWS V14.01,2013-03-05 14:09:00,
2013-03-05 09:10:00,37.6,30.4,29.85,SE,142,7.0,11.0,75,0.00,,---,0.00,VWS V14.01,2013-03-05 14:10:00,
2013-03-05 09:11:00,37.6,30.4,29.85,SE,130,5.0,11.0,75,0.00,,---,0.00,VWS V14.01,2013-03-05 14:11:00,
2013-03-05 09:12:00,37.6,30.4,29.85,ESE,107,7.0,13.0,75,0.00,,---,0.00,VWS V14.01,2013-03-05 14:12:00,
2013-03-05 09:13:00,37.6,30.4,29.85,SE,137,2.0,9.0,75,0.00,,---,0.00,VWS V14.01,2013-03-05 14:13:00,
2013-03-05 09:14:00,37.6,30.4,29.85,SSE,151,4.0,11.0,75,0.00,,---,0.00,VWS V14.01,2013-03-05 14:14:00,
2013-03-05 09:15:00,37.6,30.4,29.85,SSE,151,4.0,11.0,75,0.00,,---,0.00,VWS V14.01,2013-03-05 14:15:00,
2013-03-05 09:16:00,37.7,30.5,29.85,SE,137,4.0,7.0,75,0.00,,---,0.00,VWS V14.01,2013-03-05 14:16:00,
2013-03-05 09:17:00,37.6,30.4,29.85,SE,126,5.0,8.0,75,0.00,,---,0.00,VWS V14.01,2013-03-05 14:17:00,
2013-03-05 09:18:00,37.7,30.5,29.85,SSE,149,5.0,7.0,75,0.00,,---,0.00,VWS V14.01,2013-03-05 14:18:00,
2013-03-05 09:19:00,37.7,30.5,29.84,SSE,155,5.0,8.0,75,0.00,,---,0.00,VWS V14.01,2013-03-05 14:19:00,
2013-03-05 09:20:00,37.7,30.5,29.84,SSE,155,5.0,8.0,75,0.00,,---,0.00,VWS V14.01,2013-03-05 14:20:00,
2013-03-05 09:21:00,37.7,30.5,29.84,East,101,6.0,7.0,75,0.00,,---,0.00,VWS V14.01,2013-03-05 14:21:00,
2013-03-05 09:22:00,37.7,30.5,29.84,SE,142,1.0,6.0,75,0.00,,---,0.00,VWS V14.01,2013-03-05 14:22:00,
2013-03-05 09:23:00,37.7,30.5,29.85,SSE,150,1.0,7.0,75,0.00,,---,0.00,VWS V14.01,2013-03-05 14:23:00,
2013-03-05 09:24:00,37.7,30.5,29.84,ESE,121,2.0,6.0,75,0.00,,---,0.00,VWS V14.01,2013-03-05 14:24:00,
2013-03-05 09:25:00,37.7,30.5,29.84,ESE,121,2.0,6.0,75,0.00,,---,0.00,VWS V14.01,2013-03-05 14:25:00,
2013-03-05 09:26:00,37.7,30.5,29.84,ESE,116,4.0,5.0,75,0.00,,---,0.00,VWS V14.01,2013-03-05 14:26:00,
2013-03-05 09:27:00,37.7,30.5,29.84,South,174,2.0,7.0,75,0.00,,---,0.00,VWS V14.01,2013-03-05 14:27:00,
2013-03-05 09:28:00,37.7,30.5,29.84,SE,126,8.0,11.0,75,0.00,,---,0.00,VWS V14.01,2013-03-05 14:28:00,
2013-03-05 09:29:00,37.8,30.6,29.84,ESE,114,2.0,11.0,75,0.00,,---,0.00,VWS V14.01,2013-03-05 14:29:00,
2013-03-05 09:30:00,37.8,30.6,29.84,ESE,114,2.0,11.0,75,0.00,,---,0.00,VWS V14.01,2013-03-05 14:30:00,
2013-03-05 09:31:00,37.8,30.6,29.84,ESE,120,5.0,5.0,75,0.00,,---,0.00,VWS V14.01,2013-03-05 14:31:00,
2013-03-05 09:32:00,37.8,30.6,29.84,ESE,113,2.0,5.0,75,0.00,,---,0.00,VWS V14.01,2013-03-05 14:32:00,
2013-03-05 09:33:00,37.8,30.6,29.84,ESE,120,6.0,12.0,75,0.00,,---,0.00,VWS V14.01,2013-03-05 14:33:00,
2013-03-05 09:34:00,37.8,30.6,29.84,SE,136,6.0,6.0,75,0.00,,---,0.00,VWS V14.01,2013-03-05 14:34:00,
2013-03-05 09:35:00,37.8,30.6,29.84,SE,136,6.0,6.0,75,0.00,,---,0.00,VWS V14.01,2013-03-05 14:35:00,
2013-03-05 09:36:00,37.8,30.6,29.84,SE,128,0.0,9.0,75,0.00,,---,0.00,VWS V14.01,2013-03-05 14:36:00,
2013-03-05 09:37:00,37.8,30.9,29.84,SSE,147,6.0,11.0,76,0.00,,---,0.00,VWS V14.01,2013-03-05 14:37:00,
2013-03-05 09:38:00,37.8,30.6,29.84,SE,144,6.0,11.0,75,0.00,,---,0.00,VWS V14.01,2013-03-05 14:38:00,
2013-03-05 09:39:00,37.8,30.9,29.84,East,89,1.0,6.0,76,0.00,,---,0.00,VWS V14.01,2013-03-05 14:39:00,
2013-03-05 09:40:00,37.8,30.9,29.84,East,89,1.0,6.0,76,0.00,,---,0.00,VWS V14.01,2013-03-05 14:40:00,
2013-03-05 09:41:00,37.8,30.9,29.84,SE,128,4.0,4.0,76,0.00,,---,0.00,VWS V14.01,2013-03-05 14:41:00,
2013-03-05 09:42:00,37.8,31.2,29.84,SE,136,4.0,9.0,77,0.00,,---,0.00,VWS V14.01,2013-03-05 14:42:00,
2013-03-05 09:43:00,37.8,30.9,29.84,ESE,112,2.0,7.0,76,0.00,,---,0.00,VWS V14.01,2013-03-05 14:43:00,
2013-03-05 09:44:00,37.7,31.1,29.84,SE,143,2.0,10.0,77,0.00,,---,0.00,VWS V14.01,2013-03-05 14:44:00,
2013-03-05 09:45:00,37.7,31.1,29.84,SE,143,2.0,10.0,77,0.00,,---,0.00,VWS V14.01,2013-03-05 14:45:00,
2013-03-05 09:46:00,37.7,31.1,29.84,SE,138,6.0,8.0,77,0.00,,---,0.00,VWS V14.01,2013-03-05 14:46:00,
2013-03-05 09:47:00,37.7,31.1,29.84,SE,136,0.0,6.0,77,0.00,,---,0.00,VWS V14.01,2013-03-05 14:47:00,
2013-03-05 09:48:00,37.7,31.1,29.84,SSE,148,4.0,9.0,77,0.00,,---,0.00,VWS V14.01,2013-03-05 14:48:00,
2013-03-05 09:49:00,37.6,31.1,29.84,SSE,159,5.0,9.0,77,0.00,,---,0.00,VWS V14.01,2013-03-05 14:49:00,
2013-03-05 09:50:00,37.6,31.1,29.84,SSE,159,5.0,9.0,77,0.00,,---,0.00,VWS V14.01,2013-03-05 14:50:00,
2013-03-05 09:51:00,37.6,31.1,29.84,ESE,119,4.0,9.0,77,0.00,,---,0.00,VWS V14.01,2013-03-05 14:51:00,
2013-03-05 09:52:00,37.6,31.1,29.84,SE,126,8.0,9.0,77,0.00,,---,0.00,VWS V14.01,2013-03-05 14:52:00,
2013-03-05 09:53:00,37.6,31.4,29.84,SE,141,4.0,8.0,78,0.00,,---,0.00,VWS V14.01,2013-03-05 14:53:00,
2013-03-05 09:54:00,37.6,31.4,29.84,SE,126,7.0,8.0,78,0.00,,---,0.00,VWS V14.01,2013-03-05 14:54:00,
2013-03-05 09:55:00,37.6,31.4,29.84,SE,126,7.0,8.0,78,0.00,,---,0.00,VWS V14.01,2013-03-05 14:55:00,
2013-03-05 09:56:00,37.6,31.4,29.84,SE,133,5.0,7.0,78,0.00,,---,0.00,VWS V14.01,2013-03-05 14:56:00,
2013-03-05 09:57:00,37.6,31.4,29.84,SSE,163,7.0,8.0,78,0.00,,---,0.00,VWS V14.01,2013-03-05 14:57:00,
2013-03-05 09:58:00,37.6,31.4,29.84,SSE,158,6.0,8.0,78,0.00,,---,0.00,VWS V14.01,2013-03-05 14:58:00,
2013-03-05 09:59:00,37.5,31.3,29.84,SSE,148,2.0,5.0,78,0.00,,---,0.00,VWS V14.01,2013-03-05 14:59:00,
2013-03-05 10:00:00,37.5,31.3,29.84,SSE,148,2.0,5.0,78,0.00,,---,0.00,VWS V14.01,2013-03-05 15:00:00,
2013-03-05 10:01:00,37.5,31.3,29.84,ESE,117,2.0,6.0,78,0.00,,---,0.00,VWS V14.01,2013-03-05 15:01:00,
2013-03-05 10:02:00,37.5,31.3,29.84,SE,134,2.0,4.0,78,0.00,,---,0.00,VWS V14.01,2013-03-05 15:02:00,
2013-03-05 10:03:00,37.5,31.3,29.84,ESE,121,2.0,4.0,78,0.00,,---,0.00,VWS V14.01,2013-03-05 15:03:00,
2013-03-05 10:04:00,37.6,31.4,29.84,SE,130,4.0,5.0,78,0.00,,---,0.00,VWS V14.01,2013-03-05 15:04:00,
2013-03-05 10:05:00,37.6,31.4,29.84,SE,130,4.0,5.0,78,0.00,,---,0.00,VWS V14.01,2013-03-05 15:05:00,
2013-03-05 10:06:00,37.6,31.4,29.84,SE,131,4.0,6.0,78,0.00,,---,0.00,VWS V14.01,2013-03-05 15:06:00,
2013-03-05 10:07:00,37.6,31.4,29.84,SE,133,4.0,4.0,78,0.00,,---,0.00,VWS V14.01,2013-03-05 15:07:00,
2013-03-05 10:08:00,37.6,31.7,29.84,ESE,107,4.0,4.0,79,0.00,,---,0.00,VWS V14.01,2013-03-05 15:08:00,
2013-03-05 10:09:00,37.6,31.4,29.84,SE,133,2.0,7.0,78,0.00,,---,0.00,VWS V14.01,2013-03-05 15:09:00,
2013-03-05 10:10:00,37.6,31.4,29.84,SE,133,2.0,7.0,78,0.00,,---,0.00,VWS V14.01,2013-03-05 15:10:00,
2013-03-05 10:11:00,37.6,31.4,29.84,ESE,121,4.0,7.0,78,0.00,,---,0.00,VWS V14.01,2013-03-05 15:11:00,
2013-03-05 10:12:00,37.7,31.5,29.84,ESE,108,2.0,6.0,78,0.00,,---,0.00,VWS V14.01,2013-03-05 15:12:00,
2013-03-05 10:13:00,37.7,31.5,29.83,SSE,150,0.0,9.0,78,0.00,,---,0.00,VWS V14.01,2013-03-05 15:13:00,
2013-03-05 10:14:00,37.7,31.5,29.83,SSE,152,7.0,7.0,78,0.00,,---,0.00,VWS V14.01,2013-03-05 15:14:00,
2013-03-05 10:15:00,37.7,31.5,29.83,SSE,152,7.0,7.0,78,0.00,,---,0.00,VWS V14.01,2013-03-05 15:15:00,
2013-03-05 10:16:00,37.7,31.5,29.83,ESE,107,0.0,7.0,78,0.00,,---,0.00,VWS V14.01,2013-03-05 15:16:00,
2013-03-05 10:17:00,37.8,31.6,29.83,ESE,116,0.0,2.0,78,0.00,,---,0.00,VWS V14.01,2013-03-05 15:17:00,
2013-03-05 10:18:00,37.8,31.6,29.83,ESE,115,4.0,7.0,78,0.00,,---,0.00,VWS V14.01,2013-03-05 15:18:00,
2013-03-05 10:19:00,37.8,31.2,29.83,East,99,1.0,7.0,77,0.00,,---,0.00,VWS V14.01,2013-03-05 15:19:00,
2013-03-05 10:20:00,37.8,31.2,29.83,East,99,1.0,7.0,77,0.00,,---,0.00,VWS V14.01,2013-03-05 15:20:00,
2013-03-05 10:21:00,37.8,31.6,29.83,SE,134,5.0,5.0,78,0.00,,---,0.00,VWS V14.01,2013-03-05 15:21:00,
2013-03-05 10:22:00,37.8,31.6,29.83,SE,126,0.0,5.0,78,0.00,,---,0.00,VWS V14.01,2013-03-05 15:22:00,
2013-03-05 10:23:00,37.8,31.6,29.83,SE,146,2.0,7.0,78,0.00,,---,0.00,VWS V14.01,2013-03-05 15:23:00,
2013-03-05 10:24:00,37.9,31.4,29.83,ESE,123,2.0,7.0,77,0.00,,---,0.00,VWS V14.01,2013-03-05 15:24:00,
2013-03-05 10:25:00,37.9,31.4,29.83,ESE,123,2.0,7.0,77,0.00,,---,0.00,VWS V14.01,2013-03-05 15:25:00,
2013-03-05 10:26:00,37.9,31.4,29.83,SE,137,1.0,2.0,77,0.00,,---,0.00,VWS V14.01,2013-03-05 15:26:00,
2013-03-05 10:27:00,37.9,31.4,29.83,ESE,111,5.0,6.0,77,0.00,,---,0.00,VWS V14.01,2013-03-05 15:27:00,
2013-03-05 10:28:00,37.9,31.4,29.83,East,101,2.0,8.0,77,0.00,,---,0.00,VWS V14.01,2013-03-05 15:28:00,
2013-03-05 10:29:00,37.9,31.4,29.83,SE,141,5.0,8.0,77,0.00,,---,0.00,VWS V14.01,2013-03-05 15:29:00,
2013-03-05 10:30:00,37.9,31.4,29.83,SE,141,5.0,8.0,77,0.00,,---,0.00,VWS V14.01,2013-03-05 15:30:00,
2013-03-05 10:31:00,37.9,31.4,29.83,SE,132,5.0,8.0,77,0.00,,---,0.00,VWS V14.01,2013-03-05 15:31:00,
2013-03-05 10:32:00,37.9,31.4,29.83,ESE,109,2.0,7.0,77,0.00,,---,0.00,VWS V14.01,2013-03-05 15:32:00,
2013-03-05 10:33:00,37.9,31.4,29.83,East,83,4.0,7.0,77,0.00,,---,0.00,VWS V14.01,2013-03-05 15:33:00,
2013-03-05 10:34:00,38.0,31.4,29.83,ESE,121,0.0,4.0,77,0.00,,---,0.00,VWS V14.01,2013-03-05 15:34:00,
2013-03-05 10:35:00,38.0,31.4,29.83,ESE,121,0.0,4.0,77,0.00,,---,0.00,VWS V14.01,2013-03-05 15:35:00,
2013-03-05 10:36:00,38.0,31.4,29.83,ESE,112,2.0,8.0,77,0.00,,---,0.00,VWS V14.01,2013-03-05 15:36:00,
2013-03-05 10:37:00,38.0,31.4,29.82,SE,142,0.0,5.0,77,0.00,,---,0.00,VWS V14.01,2013-03-05 15:37:00,
2013-03-05 10:38:00,38.0,31.4,29.82,SE,142,0.0,0.0,77,0.00,,---,0.00,VWS V14.01,2013-03-05 15:38:00,
2013-03-05 10:39:00,38.0,31.4,29.82,SSE,147,5.0,7.0,77,0.00,,---,0.00,VWS V14.01,2013-03-05 15:39:00,
2013-03-05 10:40:00,38.0,31.4,29.82,SSE,147,5.0,7.0,77,0.00,,---,0.00,VWS V14.01,2013-03-05 15:40:00,
2013-03-05 10:41:00,38.0,31.4,29.82,ESE,103,2.0,5.0,77,0.00,,---,0.00,VWS V14.01,2013-03-05 15:41:00,
2013-03-05 10:42:00,38.0,31.4,29.82,ESE,114,0.0,4.0,77,0.00,,---,0.00,VWS V14.01,2013-03-05 15:42:00,
2013-03-05 10:43:00,38.0,31.4,29.82,SE,132,0.0,7.0,77,0.00,,---,0.00,VWS V14.01,2013-03-05 15:43:00,
2013-03-05 10:44:00,38.1,31.5,29.82,SE,130,2.0,8.0,77,0.00,,---,0.00,VWS V14.01,2013-03-05 15:44:00,
2013-03-05 10:45:00,38.1,31.5,29.82,SE,130,2.0,8.0,77,0.00,,---,0.00,VWS V14.01,2013-03-05 15:45:00,
2013-03-05 10:46:00,38.1,31.5,29.82,SE,133,5.0,9.0,77,0.00,,---,0.00,VWS V14.01,2013-03-05 15:46:00,
2013-03-05 10:47:00,38.1,31.5,29.81,ESE,111,0.0,7.0,77,0.00,,---,0.00,VWS V14.01,2013-03-05 15:47:00,
2013-03-05 10:48:00,38.1,31.5,29.81,SE,132,7.0,7.0,77,0.00,,---,0.00,VWS V14.01,2013-03-05 15:48:00,
2013-03-05 10:49:00,38.2,31.6,29.81,SE,134,0.0,4.0,77,0.00,,---,0.00,VWS V14.01,2013-03-05 15:49:00,
2013-03-05 10:50:00,38.2,31.6,29.81,SE,134,0.0,4.0,77,0.00,,---,0.00,VWS V14.01,2013-03-05 15:50:00,
2013-03-05 10:51:00,38.1,31.5,29.81,East,91,4.0,10.0,77,0.00,,---,0.00,VWS V14.01,2013-03-05 15:51:00,
2013-03-05 10:52:00,38.2,31.6,29.81,SE,136,7.0,11.0,77,0.00,,---,0.00,VWS V14.01,2013-03-05 15:52:00,
2013-03-05 10:53:00,38.1,31.5,29.81,SE,134,4.0,7.0,77,0.00,,---,0.00,VWS V14.01,2013-03-05 15:53:00,
2013-03-05 10:54:00,38.1,31.5,29.81,ESE,117,5.0,7.0,77,0.00,,---,0.00,VWS V14.01,2013-03-05 15:54:00,
2013-03-05 10:55:00,38.1,31.5,29.81,ESE,117,5.0,7.0,77,0.00,,---,0.00,VWS V14.01,2013-03-05 15:55:00,
2013-03-05 10:56:00,38.2,32.0,29.81,ESE,120,7.0,11.0,78,0.00,,---,0.00,VWS V14.01,2013-03-05 15:56:00,
2013-03-05 10:57:00,38.2,32.0,29.81,East,82,1.0,7.0,78,0.00,,---,0.00,VWS V14.01,2013-03-05 15:57:00,
2013-03-05 10:58:00,38.2,32.0,29.81,East,84,0.0,3.0,78,0.00,,---,0.00,VWS V14.01,2013-03-05 15:58:00,
2013-03-05 10:59:00,38.2,32.3,29.81,SSE,161,4.0,4.0,79,0.00,,---,0.00,VWS V14.01,2013-03-05 15:59:00,
2013-03-05 11:00:00,38.2,32.3,29.81,SSE,161,4.0,4.0,79,0.00,,---,0.00,VWS V14.01,2013-03-05 16:00:00,
2013-03-05 11:01:00,38.2,32.3,29.81,ESE,104,1.0,9.0,79,0.00,,---,0.00,VWS V14.01,2013-03-05 16:01:00,
2013-03-05 11:02:00,38.1,32.2,29.81,SE,126,0.0,9.0,79,0.00,,---,0.00,VWS V14.01,2013-03-05 16:02:00,
2013-03-05 11:03:00,38.1,32.5,29.81,East,94,1.0,5.0,80,0.00,,---,0.00,VWS V14.01,2013-03-05 16:03:00,
2013-03-05 11:04:00,38.0,32.4,29.81,SSE,150,5.0,6.0,80,0.00,,---,0.00,VWS V14.01,2013-03-05 16:04:00,
2013-03-05 11:05:00,38.0,32.4,29.81,SSE,150,5.0,6.0,80,0.00,,---,0.00,VWS V14.01,2013-03-05 16:05:00,
2013-03-05 11:06:00,38.0,32.7,29.81,ESE,103,2.0,6.0,81,0.00,,---,0.00,VWS V14.01,2013-03-05 16:06:00,
2013-03-05 11:07:00,37.9,32.6,29.81,East,95,4.0,5.0,81,0.00,,---,0.00,VWS V14.01,2013-03-05 16:07:00,
2013-03-05 11:08:00,37.9,32.6,29.80,East,84,1.0,8.0,81,0.00,,---,0.00,VWS V14.01,2013-03-05 16:08:00,
2013-03-05 11:09:00,37.8,32.5,29.80,ENE,74,0.0,11.0,81,0.00,,---,0.00,VWS V14.01,2013-03-05 16:09:00,
2013-03-05 11:10:00,37.8,32.5,29.80,ENE,74,0.0,11.0,81,0.00,,---,0.00,VWS V14.01,2013-03-05 16:10:00,
2013-03-05 11:11:00,37.8,32.8,29.80,South,171,7.0,7.0,82,0.00,,---,0.00,VWS V14.01,2013-03-05 16:11:00,
2013-03-05 11:12:00,37.7,32.7,29.80,SE,135,2.0,10.0,82,0.00,,---,0.00,VWS V14.01,2013-03-05 16:12:00,
2013-03-05 11:13:00,37.7,32.7,29.80,ENE,65,1.0,7.0,82,0.00,,---,0.00,VWS V14.01,2013-03-05 16:13:00,
2013-03-05 11:14:00,37.7,32.7,29.80,East,98,2.0,5.0,82,0.00,,---,0.00,VWS V14.01,2013-03-05 16:14:00,
2013-03-05 11:15:00,37.7,32.7,29.80,East,98,2.0,5.0,82,0.00,,---,0.00,VWS V14.01,2013-03-05 16:15:00,
2013-03-05 11:16:00,37.7,32.7,29.80,ENE,68,0.0,5.0,82,0.00,,---,0.00,VWS V14.01,2013-03-05 16:16:00,
2013-03-05 11:17:00,37.7,32.7,29.79,ESE,103,5.0,7.0,82,0.00,,---,0.00,VWS V14.01,2013-03-05 16:17:00,
2013-03-05 11:18:00,37.7,32.4,29.80,SE,126,4.0,11.0,81,0.00,,---,0.00,VWS V14.01,2013-03-05 16:18:00,
2013-03-05 11:19:00,37.8,32.5,29.79,East,92,5.0,5.0,81,0.00,,---,0.00,VWS V14.01,2013-03-05 16:19:00,
2013-03-05 11:20:00,37.8,32.5,29.79,East,92,5.0,5.0,81,0.00,,---,0.00,VWS V14.01,2013-03-05 16:20:00,
2013-03-05 11:21:00,37.8,32.5,29.79,SE,126,4.0,9.0,81,0.00,,---,0.00,VWS V14.01,2013-03-05 16:21:00,
2013-03-05 11:22:00,37.9,32.3,29.79,East,99,2.0,6.0,80,0.00,,---,0.00,VWS V14.01,2013-03-05 16:22:00,
2013-03-05 11:23:00,37.9,32.3,29.79,ENE,72,3.0,7.0,80,0.00,,---,0.00,VWS V14.01,2013-03-05 16:23:00,
2013-03-05 11:24:00,38.0,32.4,29.79,NE,44,3.0,11.0,80,0.00,,---,0.00,VWS V14.01,2013-03-05 16:24:00,
2013-03-05 11:25:00,38.0,32.4,29.79,NE,44,3.0,11.0,80,0.00,,---,0.00,VWS V14.01,2013-03-05 16:25:00,
2013-03-05 11:26:00,38.0,32.4,29.79,SE,131,2.0,9.0,80,0.00,,---,0.00,VWS V14.01,2013-03-05 16:26:00,
2013-03-05 11:27:00,38.1,32.5,29.79,SE,129,8.0,8.0,80,0.00,,---,0.00,VWS V14.01,2013-03-05 16:27:00,
2013-03-05 11:28:00,38.1,32.2,29.79,ESE,109,1.0,8.0,79,0.00,,---,0.00,VWS V14.01,2013-03-05 16:28:00,
2013-03-05 11:29:00,38.2,32.3,29.79,ESE,119,0.0,8.0,79,0.00,,---,0.00,VWS V14.01,2013-03-05 16:29:00,
2013-03-05 11:30:00,38.2,32.3,29.79,ESE,119,0.0,8.0,79,0.00,,---,0.00,VWS V14.01,2013-03-05 16:30:00,
2013-03-05 11:31:00,38.2,32.3,29.79,ESE,115,0.0,6.0,79,0.00,,---,0.00,VWS V14.01,2013-03-05 16:31:00,
2013-03-05 11:32:00,38.3,32.4,29.79,ESE,112,0.0,6.0,79,0.00,,---,0.00,VWS V14.01,2013-03-05 16:32:00,
2013-03-05 11:33:00,38.3,32.4,29.78,East,96,4.0,7.0,79,0.00,,---,0.00,VWS V14.01,2013-03-05 16:33:00,
2013-03-05 11:34:00,38.4,32.5,29.78,ESE,104,8.0,9.0,79,0.00,,---,0.00,VWS V14.01,2013-03-05 16:34:00,
2013-03-05 11:35:00,38.4,32.5,29.78,ESE,104,8.0,9.0,79,0.00,,---,0.00,VWS V14.01,2013-03-05 16:35:00,
2013-03-05 11:36:00,38.5,32.6,29.78,ESE,121,7.0,12.0,79,0.00,,---,0.00,VWS V14.01,2013-03-05 16:36:00,
2013-03-05 11:37:00,38.5,32.2,29.78,SE,132,6.0,8.0,78,0.00,,---,0.00,VWS V14.01,2013-03-05 16:37:00,
2013-03-05 11:38:00,38.6,32.3,29.78,SSE,147,4.0,8.0,78,0.00,,---,0.00,VWS V14.01,2013-03-05 16:38:00,
2013-03-05 11:39:00,38.7,32.4,29.78,SSE,161,1.0,7.0,78,0.00,,---,0.00,VWS V14.01,2013-03-05 16:39:00,
2013-03-05 11:40:00,38.7,32.4,29.78,SSE,161,1.0,7.0,78,0.00,,---,0.00,VWS V14.01,2013-03-05 16:40:00,
2013-03-05 11:41:00,38.7,32.4,29.78,ESE,121,4.0,5.0,78,0.00,,---,0.00,VWS V14.01,2013-03-05 16:41:00,
2013-03-05 11:42:00,38.7,32.4,29.78,SE,130,12.0,12.0,78,0.00,,---,0.00,VWS V14.01,2013-03-05 16:42:00,
2013-03-05 11:43:00,38.8,32.5,29.78,SSE,164,5.0,12.0,78,0.00,,---,0.00,VWS V14.01,2013-03-05 16:43:00,
2013-03-05 11:44:00,38.8,32.5,29.78,ESE,122,1.0,6.0,78,0.00,,---,0.00,VWS V14.01,2013-03-05 16:44:00,
2013-03-05 11:45:00,38.8,32.5,29.78,ESE,122,1.0,6.0,78,0.00,,---,0.00,VWS V14.01,2013-03-05 16:45:00,
2013-03-05 11:46:00,38.8,32.5,29.77,ESE,103,7.0,7.0,78,0.00,,---,0.00,VWS V14.01,2013-03-05 16:46:00,
2013-03-05 11:47:00,38.9,32.6,29.78,SE,130,5.0,9.0,78,0.00,,---,0.00,VWS V14.01,2013-03-05 16:47:00,
2013-03-05 11:48:00,38.9,32.3,29.77,ESE,111,5.0,8.0,77,0.00,,---,0.00,VWS V14.01,2013-03-05 16:48:00,
2013-03-05 11:49:00,38.9,32.6,29.77,ESE,105,7.0,12.0,78,0.00,,---,0.00,VWS V14.01,2013-03-05 16:49:00,
2013-03-05 11:50:00,38.9,32.6,29.77,ESE,105,7.0,12.0,78,0.00,,---,0.00,VWS V14.01,2013-03-05 16:50:00,
2013-03-05 11:51:00,39.0,32.7,29.77,SE,144,2.0,7.0,78,0.00,,---,0.00,VWS V14.01,2013-03-05 16:51:00,
2013-03-05 11:52:00,39.0,32.7,29.77,East,92,1.0,4.0,78,0.00,,---,0.00,VWS V14.01,2013-03-05 16:52:00,
2013-03-05 11:53:00,39.1,32.8,29.77,SSE,164,4.0,6.0,78,0.00,,---,0.00,VWS V14.01,2013-03-05 16:53:00,
2013-03-05 11:54:00,39.1,32.5,29.77,ESE,107,5.0,12.0,77,0.00,,---,0.00,VWS V14.01,2013-03-05 16:54:00,
2013-03-05 11:55:00,39.1,32.5,29.77,ESE,107,5.0,12.0,77,0.00,,---,0.00,VWS V14.01,2013-03-05 16:55:00,
2013-03-05 11:56:00,39.1,32.5,29.77,ESE,121,2.0,12.0,77,0.00,,---,0.00,VWS V14.01,2013-03-05 16:56:00,
2013-03-05 11:57:00,39.1,32.5,29.76,East,92,6.0,8.0,77,0.00,,---,0.00,VWS V14.01,2013-03-05 16:57:00,
2013-03-05 11:58:00,39.1,32.5,29.76,ESE,105,2.0,11.0,77,0.00,,---,0.00,VWS V14.01,2013-03-05 16:58:00,
2013-03-05 11:59:00,39.2,32.6,29.76,ESE,109,2.0,6.0,77,0.00,,---,0.00,VWS V14.01,2013-03-05 16:59:00,
2013-03-05 12:00:00,39.2,32.6,29.76,ESE,109,2.0,6.0,77,0.00,,---,0.00,VWS V14.01,2013-03-05 17:00:00,
2013-03-05 12:01:00,39.3,32.7,29.76,ESE,119,7.0,9.0,77,0.00,,---,0.00,VWS V14.01,2013-03-05 17:01:00,
2013-03-05 12:02:00,39.3,32.7,29.76,SSE,165,6.0,9.0,77,0.00,,---,0.00,VWS V14.01,2013-03-05 17:02:00,
2013-03-05 12:03:00,39.3,32.7,29.76,ESE,120,5.0,8.0,77,0.00,,---,0.00,VWS V14.01,2013-03-05 17:03:00,
2013-03-05 12:04:00,39.4,32.8,29.76,SE,143,6.0,7.0,77,0.00,,---,0.00,VWS V14.01,2013-03-05 17:04:00,
2013-03-05 12:05:00,39.4,32.8,29.76,SE,143,6.0,7.0,77,0.00,,---,0.00,VWS V14.01,2013-03-05 17:05:00,
2013-03-05 12:06:00,39.4,32.8,29.75,East,99,4.0,9.0,77,0.00,,---,0.00,VWS V14.01,2013-03-05 17:06:00,
2013-03-05 12:07:00,39.4,32.8,29.76,ESE,108,1.0,6.0,77,0.00,,---,0.00,VWS V14.01,2013-03-05 17:07:00,
2013-03-05 12:08:00,39.5,32.9,29.76,SE,142,5.0,9.0,77,0.00,,---,0.00,VWS V14.01,2013-03-05 17:08:00,
2013-03-05 12:09:00,39.5,32.9,29.76,ESE,119,5.0,6.0,77,0.00,,---,0.00,VWS V14.01,2013-03-05 17:09:00,
2013-03-05 12:10:00,39.5,32.9,29.76,ESE,119,5.0,6.0,77,0.00,,---,0.00,VWS V14.01,2013-03-05 17:10:00,
2013-03-05 12:11:00,39.5,32.9,29.75,ESE,110,6.0,11.0,77,0.00,,---,0.00,VWS V14.01,2013-03-05 17:11:00,
2013-03-05 12:12:00,39.5,32.9,29.75,ESE,123,6.0,9.0,77,0.00,,---,0.00,VWS V14.01,2013-03-05 17:12:00,
2013-03-05 12:13:00,39.5,32.9,29.75,SE,136,7.0,7.0,77,0.00,,---,0.00,VWS V14.01,2013-03-05 17:13:00,
2013-03-05 12:14:00,39.6,33.0,29.75,East,83,1.0,2.0,77,0.00,,---,0.00,VWS V14.01,2013-03-05 17:14:00,
2013-03-05 12:15:00,39.6,33.0,29.75,East,83,1.0,2.0,77,0.00,,---,0.00,VWS V14.01,2013-03-05 17:15:00,
2013-03-05 12:16:00,39.6,33.0,29.75,SSE,161,8.0,10.0,77,0.00,,---,0.00,VWS V14.01,2013-03-05 17:16:00,
2013-03-05 12:17:00,39.7,33.1,29.75,SE,136,7.0,11.0,77,0.00,,---,0.00,VWS V14.01,2013-03-05 17:17:00,
2013-03-05 12:18:00,39.7,33.1,29.75,SE,125,5.0,8.0,77,0.00,,---,0.00,VWS V14.01,2013-03-05 17:18:00,
2013-03-05 12:19:00,39.7,33.1,29.75,ESE,123,2.0,10.0,77,0.00,,---,0.00,VWS V14.01,2013-03-05 17:19:00,
2013-03-05 12:20:00,39.7,33.1,29.75,ESE,123,2.0,10.0,77,0.00,,---,0.00,VWS V14.01,2013-03-05 17:20:00,
2013-03-05 12:21:00,39.7,33.1,29.75,SE,145,5.0,8.0,77,0.00,,---,0.00,VWS V14.01,2013-03-05 17:21:00,
2013-03-05 12:22:00,39.7,33.1,29.75,SSE,147,4.0,6.0,77,0.00,,---,0.00,VWS V14.01,2013-03-05 17:22:00,
2013-03-05 12:23:00,39.7,33.1,29.75,ESE,122,6.0,6.0,77,0.00,,---,0.00,VWS V14.01,2013-03-05 17:23:00,
2013-03-05 12:24:00,39.8,33.2,29.75,SE,128,5.0,14.0,77,0.00,,---,0.00,VWS V14.01,2013-03-05 17:24:00,
2013-03-05 12:25:00,39.8,33.2,29.75,SE,128,5.0,14.0,77,0.00,,---,0.00,VWS V14.01,2013-03-05 17:25:00,
2013-03-05 12:26:00,39.8,33.2,29.75,SSE,153,4.0,7.0,77,0.00,,---,0.00,VWS V14.01,2013-03-05 17:26:00,
2013-03-05 12:27:00,39.8,33.2,29.75,SSE,150,4.0,10.0,77,0.00,,---,0.00,VWS V14.01,2013-03-05 17:27:00,
2013-03-05 12:28:00,39.8,33.2,29.75,SE,141,6.0,8.0,77,0.00,,---,0.00,VWS V14.01,2013-03-05 17:28:00,
2013-03-05 12:29:00,39.8,33.2,29.75,SE,128,1.0,9.0,77,0.00,,---,0.00,VWS V14.01,2013-03-05 17:29:00,
2013-03-05 12:30:00,39.8,33.2,29.75,SE,128,1.0,9.0,77,0.00,,---,0.00,VWS V14.01,2013-03-05 17:30:00,
2013-03-05 12:31:00,39.8,33.2,29.74,East,84,7.0,11.0,77,0.00,,---,0.00,VWS V14.01,2013-03-05 17:31:00,
2013-03-05 12:32:00,39.8,33.2,29.74,ESE,116,6.0,11.0,77,0.00,,---,0.00,VWS V14.01,2013-03-05 17:32:00,
2013-03-05 12:33:00,39.8,33.2,29.74,ESE,115,5.0,9.0,77,0.00,,---,0.00,VWS V14.01,2013-03-05 17:33:00,
2013-03-05 12:34:00,39.9,33.3,29.74,SSE,148,5.0,5.0,77,0.00,,---,0.00,VWS V14.01,2013-03-05 17:34:00,
2013-03-05 12:35:00,39.9,33.3,29.74,SSE,148,5.0,5.0,77,0.00,,---,0.00,VWS V14.01,2013-03-05 17:35:00,
2013-03-05 12:36:00,39.9,33.6,29.74,SE,125,5.0,7.0,78,0.00,,---,0.00,VWS V14.01,2013-03-05 17:36:00,
2013-03-05 12:37:00,39.9,33.3,29.74,SSE,164,2.0,12.0,77,0.00,,---,0.00,VWS V14.01,2013-03-05 17:37:00,
2013-03-05 12:38:00,40.0,33.4,29.74,SE,128,5.0,12.0,77,0.00,,---,0.00,VWS V14.01,2013-03-05 17:38:00,
2013-03-05 12:39:00,40.0,33.4,29.74,ESE,109,0.0,8.0,77,0.00,,---,0.00,VWS V14.01,2013-03-05 17:39:00,
2013-03-05 12:40:00,40.0,33.4,29.74,SE,128,5.0,7.0,77,0.00,,---,0.00,VWS V14.01,2013-03-05 17:40:00,
2013-03-05 12:41:00,40.0,33.4,29.74,SE,128,5.0,7.0,77,0.00,,---,0.00,VWS V14.01,2013-03-05 17:41:00,
2013-03-05 12:42:00,40.0,33.4,29.74,SSE,148,5.0,7.0,77,0.00,,---,0.00,VWS V14.01,2013-03-05 17:42:00,
2013-03-05 12:43:00,40.0,33.4,29.74,SE,131,2.0,7.0,77,0.00,,---,0.00,VWS V14.01,2013-03-05 17:43:00,
2013-03-05 12:44:00,40.1,33.8,29.74,SE,124,1.0,7.0,78,0.00,,---,0.00,VWS V14.01,2013-03-05 17:44:00,
2013-03-05 12:45:00,40.1,33.8,29.74,SE,145,5.0,8.0,78,0.00,,---,0.00,VWS V14.01,2013-03-05 17:45:00,
2013-03-05 12:46:00,40.1,33.8,29.74,SE,145,5.0,8.0,78,0.00,,---,0.00,VWS V14.01,2013-03-05 17:46:00,
2013-03-05 12:47:00,40.1,33.5,29.74,South,171,7.0,12.0,77,0.00,,---,0.00,VWS V14.01,2013-03-05 17:47:00,
2013-03-05 12:48:00,40.1,33.5,29.74,SE,144,8.0,14.0,77,0.00,,---,0.00,VWS V14.01,2013-03-05 17:48:00,
2013-03-05 12:49:00,40.1,33.5,29.74,SE,130,5.0,9.0,77,0.00,,---,0.00,VWS V14.01,2013-03-05 17:49:00,
2013-03-05 12:50:00,40.1,33.8,29.74,SE,143,4.0,7.0,78,0.00,,---,0.00,VWS V14.01,2013-03-05 17:50:00,
2013-03-05 12:51:00,40.1,33.8,29.74,SE,143,4.0,7.0,78,0.00,,---,0.00,VWS V14.01,2013-03-05 17:51:00,
2013-03-05 12:52:00,40.1,33.8,29.73,SE,140,9.0,9.0,78,0.00,,---,0.00,VWS V14.01,2013-03-05 17:52:00,
2013-03-05 12:53:00,40.1,33.8,29.74,SSE,155,10.0,10.0,78,0.00,,---,0.00,VWS V14.01,2013-03-05 17:53:00,
2013-03-05 12:54:00,40.1,33.8,29.73,SE,126,5.0,10.0,78,0.00,,---,0.00,VWS V14.01,2013-03-05 17:54:00,
2013-03-05 12:55:00,40.1,33.8,29.73,SSE,157,4.0,11.0,78,0.00,,---,0.00,VWS V14.01,2013-03-05 17:55:00,
2013-03-05 12:56:00,40.1,33.8,29.73,SSE,157,4.0,11.0,78,0.00,,---,0.00,VWS V14.01,2013-03-05 17:56:00,
2013-03-05 12:57:00,40.1,33.8,29.73,SE,142,7.0,9.0,78,0.00,,---,0.00,VWS V14.01,2013-03-05 17:57:00,
2013-03-05 12:58:00,40.1,33.8,29.73,ESE,107,4.0,7.0,78,0.00,,---,0.00,VWS V14.01,2013-03-05 17:58:00,
2013-03-05 12:59:00,40.1,34.1,29.73,SSE,165,5.0,7.0,79,0.00,,---,0.00,VWS V14.01,2013-03-05 17:59:00,
2013-03-05 13:00:00,40.0,34.0,29.73,SSE,163,2.0,7.0,79,0.00,,---,0.00,VWS V14.01,2013-03-05 18:00:00,
2013-03-05 13:01:00,40.0,34.0,29.73,SSE,163,2.0,7.0,79,0.00,,---,0.00,VWS V14.01,2013-03-05 18:01:00,
2013-03-05 13:02:00,40.0,34.0,29.73,SSE,150,5.0,8.0,79,0.00,,---,0.00,VWS V14.01,2013-03-05 18:02:00,
2013-03-05 13:03:00,40.0,34.0,29.73,SE,141,1.0,5.0,79,0.00,,---,0.00,VWS V14.01,2013-03-05 18:03:00,
2013-03-05 13:04:00,40.0,34.0,29.73,SSE,155,5.0,5.0,79,0.00,,---,0.00,VWS V14.01,2013-03-05 18:04:00,
2013-03-05 13:05:00,40.0,34.3,29.73,SSE,149,4.0,9.0,80,0.00,,---,0.00,VWS V14.01,2013-03-05 18:05:00,
2013-03-05 13:06:00,40.0,34.3,29.73,SSE,149,4.0,9.0,80,0.00,,---,0.00,VWS V14.01,2013-03-05 18:06:00,
2013-03-05 13:07:00,40.0,34.3,29.73,SE,127,1.0,8.0,80,0.00,,---,0.00,VWS V14.01,2013-03-05 18:07:00,
2013-03-05 13:08:00,40.0,34.3,29.73,SSE,153,6.0,8.0,80,0.00,,---,0.00,VWS V14.01,2013-03-05 18:08:00,
2013-03-05 13:09:00,39.9,34.2,29.73,SE,125,7.0,9.0,80,0.00,,---,0.00,VWS V14.01,2013-03-05 18:09:00,
2013-03-05 13:10:00,39.8,34.5,29.72,ESE,123,4.0,12.0,81,0.00,,---,0.00,VWS V14.01,2013-03-05 18:10:00,
2013-03-05 13:11:00,39.8,34.5,29.72,ESE,123,4.0,12.0,81,0.00,,---,0.00,VWS V14.01,2013-03-05 18:11:00,
2013-03-05 13:12:00,39.8,34.5,29.72,East,100,2.0,7.0,81,0.00,,---,0.00,VWS V14.01,2013-03-05 18:12:00,
2013-03-05 13:13:00,39.8,34.5,29.72,ESE,122,12.0,12.0,81,0.00,,---,0.00,VWS V14.01,2013-03-05 18:13:00,
2013-03-05 13:14:00,39.8,34.8,29.72,SE,135,7.0,14.0,82,0.00,,---,0.00,VWS V14.01,2013-03-05 18:14:00,
2013-03-05 13:15:00,39.7,34.7,29.72,SSE,162,8.0,16.0,82,0.00,,---,0.00,VWS V14.01,2013-03-05 18:15:00,
2013-03-05 13:16:00,39.7,34.7,29.72,SSE,162,8.0,16.0,82,0.00,,---,0.00,VWS V14.01,2013-03-05 18:16:00,
2013-03-05 13:17:00,39.7,35.0,29.72,ESE,111,4.0,8.0,83,0.00,,---,0.00,VWS V14.01,2013-03-05 18:17:00,
2013-03-05 13:18:00,39.6,35.2,29.71,SSE,152,8.0,14.0,84,0.00,,---,0.00,VWS V14.01,2013-03-05 18:18:00,
2013-03-05 13:19:00,39.6,35.2,29.71,SSE,153,6.0,10.0,84,0.00,,---,0.00,VWS V14.01,2013-03-05 18:19:00,
2013-03-05 13:20:00,39.5,35.4,29.71,ESE,121,7.0,12.0,85,0.00,,---,0.00,VWS V14.01,2013-03-05 18:20:00,
2013-03-05 13:21:00,39.5,35.4,29.71,ESE,121,7.0,12.0,85,0.00,,---,0.00,VWS V14.01,2013-03-05 18:21:00,
2013-03-05 13:22:00,39.4,35.3,29.71,South,173,7.0,9.0,85,0.00,,---,0.00,VWS V14.01,2013-03-05 18:22:00,
2013-03-05 13:23:00,39.3,35.2,29.71,SE,135,5.0,9.0,85,0.00,,---,0.00,VWS V14.01,2013-03-05 18:23:00,
2013-03-05 13:24:00,39.2,35.4,29.71,SE,135,5.0,8.0,86,0.00,,---,0.00,VWS V14.01,2013-03-05 18:24:00,
2013-03-05 13:25:00,39.1,35.3,29.71,SE,136,6.0,6.0,86,0.00,,---,0.00,VWS V14.01,2013-03-05 18:25:00,
2013-03-05 13:26:00,39.1,35.3,29.71,SE,136,6.0,6.0,86,0.00,,---,0.00,VWS V14.01,2013-03-05 18:26:00,
2013-03-05 13:27:00,39.1,35.6,29.71,SE,140,2.0,6.0,87,0.00,,---,0.00,VWS V14.01,2013-03-05 18:27:00,
2013-03-05 13:28:00,39.1,35.6,29.71,SE,144,6.0,8.0,87,0.00,,---,0.00,VWS V14.01,2013-03-05 18:28:00,
2013-03-05 13:29:00,39.0,35.5,29.71,SSE,150,6.0,9.0,87,0.00,,---,0.00,VWS V14.01,2013-03-05 18:29:00,
2013-03-05 13:30:00,38.9,35.7,29.70,SE,140,0.0,8.0,88,0.00,,---,0.00,VWS V14.01,2013-03-05 18:30:00,
2013-03-05 13:31:00,38.9,35.7,29.70,SE,140,0.0,8.0,88,0.00,,---,0.00,VWS V14.01,2013-03-05 18:31:00,
2013-03-05 13:32:00,38.9,35.7,29.70,SE,142,5.0,8.0,88,0.00,,---,0.00,VWS V14.01,2013-03-05 18:32:00,
2013-03-05 13:33:00,38.9,35.7,29.70,SE,128,6.0,8.0,88,0.00,,---,0.00,VWS V14.01,2013-03-05 18:33:00,
2013-03-05 13:34:00,38.9,35.7,29.70,SE,135,7.0,9.0,88,0.00,,---,0.00,VWS V14.01,2013-03-05 18:34:00,
2013-03-05 13:35:00,38.8,35.6,29.70,SSE,152,7.0,11.0,88,0.00,,---,0.00,VWS V14.01,2013-03-05 18:35:00,
2013-03-05 13:36:00,38.8,35.6,29.70,SSE,152,7.0,11.0,88,0.00,,---,0.00,VWS V14.01,2013-03-05 18:36:00,
2013-03-05 13:37:00,38.8,35.8,29.70,SE,130,6.0,9.0,89,0.00,,---,0.00,VWS V14.01,2013-03-05 18:37:00,
2013-03-05 13:38:00,38.8,35.8,29.70,SSE,148,2.0,7.0,89,0.00,,---,0.00,VWS V14.01,2013-03-05 18:38:00,
2013-03-05 13:39:00,38.8,35.8,29.70,SE,140,0.0,2.0,89,0.00,,---,0.00,VWS V14.01,2013-03-05 18:39:00,
2013-03-05 13:40:00,38.7,35.7,29.70,SE,126,5.0,11.0,89,0.00,,---,0.00,VWS V14.01,2013-03-05 18:40:00,
2013-03-05 13:41:00,38.7,35.7,29.70,SE,126,5.0,11.0,89,0.00,,---,0.00,VWS V14.01,2013-03-05 18:41:00,
2013-03-05 13:42:00,38.7,35.7,29.70,SSE,153,5.0,6.0,89,0.00,,---,0.00,VWS V14.01,2013-03-05 18:42:00,
2013-03-05 13:43:00,38.6,35.7,29.70,SSE,155,4.0,8.0,89,0.00,,---,0.00,VWS V14.01,2013-03-05 18:43:00,
2013-03-05 13:44:00,38.6,35.7,29.70,South,171,4.0,5.0,89,0.00,,---,0.00,VWS V14.01,2013-03-05 18:44:00,
2013-03-05 13:45:00,38.5,35.5,29.69,SE,127,1.0,4.0,89,0.00,,---,0.00,VWS V14.01,2013-03-05 18:45:00,
2013-03-05 13:46:00,38.5,35.5,29.69,SE,127,1.0,4.0,89,0.00,,---,0.00,VWS V14.01,2013-03-05 18:46:00,
2013-03-05 13:47:00,38.5,35.8,29.69,SSE,148,4.0,8.0,90,0.00,,---,0.00,VWS V14.01,2013-03-05 18:47:00,
2013-03-05 13:48:00,38.5,35.8,29.69,ESE,119,4.0,8.0,90,0.00,,---,0.00,VWS V14.01,2013-03-05 18:48:00,
2013-03-05 13:49:00,38.5,35.8,29.69,SSE,157,4.0,7.0,90,0.00,,---,0.00,VWS V14.01,2013-03-05 18:49:00,
2013-03-05 13:50:00,38.4,35.7,29.69,SE,137,1.0,5.0,90,0.00,,---,0.00,VWS V14.01,2013-03-05 18:50:00,
2013-03-05 13:51:00,38.4,35.7,29.69,SE,137,1.0,5.0,90,0.00,,---,0.00,VWS V14.01,2013-03-05 18:51:00,
2013-03-05 13:52:00,38.4,36.0,29.69,ESE,117,2.0,5.0,91,0.00,,---,0.00,VWS V14.01,2013-03-05 18:52:00,
2013-03-05 13:53:00,38.4,36.0,29.69,SSE,150,2.0,6.0,91,0.00,,---,0.00,VWS V14.01,2013-03-05 18:53:00,
2013-03-05 13:54:00,38.4,36.0,29.69,SE,140,0.0,5.0,91,0.00,,---,0.00,VWS V14.01,2013-03-05 18:54:00,
2013-03-05 13:55:00,38.4,36.0,29.69,SE,135,6.0,7.0,91,0.00,,---,0.00,VWS V14.01,2013-03-05 18:55:00,
2013-03-05 13:56:00,38.4,36.0,29.69,SE,135,6.0,7.0,91,0.00,,---,0.00,VWS V14.01,2013-03-05 18:56:00,
2013-03-05 13:57:00,38.3,35.9,29.69,SE,128,4.0,6.0,91,0.00,,---,0.00,VWS V14.01,2013-03-05 18:57:00,
2013-03-05 13:58:00,38.3,35.9,29.69,SE,136,2.0,13.0,91,0.00,,---,0.00,VWS V14.01,2013-03-05 18:58:00,
2013-03-05 13:59:00,38.3,35.9,29.68,South,177,2.0,7.0,91,0.01,,---,0.01,VWS V14.01,2013-03-05 18:59:00,
2013-03-05 14:00:00,38.2,36.1,29.68,SSE,150,6.0,11.0,92,0.01,,---,0.01,VWS V14.01,2013-03-05 19:00:00,
2013-03-05 14:01:00,38.2,36.1,29.68,SSE,150,6.0,11.0,92,0.01,,---,0.01,VWS V14.01,2013-03-05 19:01:00,
2013-03-05 14:02:00,38.2,36.1,29.68,SE,136,4.0,9.0,92,0.01,,---,0.01,VWS V14.01,2013-03-05 19:02:00,
2013-03-05 14:03:00,38.2,36.1,29.68,SSE,163,2.0,4.0,92,0.01,,---,0.01,VWS V14.01,2013-03-05 19:03:00,
2013-03-05 14:04:00,38.1,36.0,29.68,SSE,161,7.0,8.0,92,0.01,,---,0.01,VWS V14.01,2013-03-05 19:04:00,
2013-03-05 14:05:00,38.0,35.9,29.68,ESE,123,4.0,8.0,92,0.01,,---,0.01,VWS V14.01,2013-03-05 19:05:00,
2013-03-05 14:06:00,38.0,35.9,29.68,ESE,123,4.0,8.0,92,0.01,,---,0.01,VWS V14.01,2013-03-05 19:06:00,
2013-03-05 14:07:00,38.0,35.9,29.68,SE,132,8.0,8.0,92,0.01,,---,0.01,VWS V14.01,2013-03-05 19:07:00,
2013-03-05 14:08:00,38.0,35.9,29.68,SSE,155,5.0,8.0,92,0.01,,---,0.01,VWS V14.01,2013-03-05 19:08:00,
2013-03-05 14:09:00,38.0,35.9,29.68,ESE,123,4.0,8.0,92,0.01,,---,0.01,VWS V14.01,2013-03-05 19:09:00,
2013-03-05 14:10:00,37.9,35.8,29.68,ESE,116,0.0,1.0,92,0.01,,---,0.01,VWS V14.01,2013-03-05 19:10:00,
2013-03-05 14:11:00,37.9,35.8,29.68,ESE,116,0.0,1.0,92,0.01,,---,0.01,VWS V14.01,2013-03-05 19:11:00,
2013-03-05 14:12:00,38.0,35.9,29.67,SE,134,6.0,6.0,92,0.01,,---,0.01,VWS V14.01,2013-03-05 19:12:00,
2013-03-05 14:13:00,37.9,35.8,29.68,SE,130,5.0,6.0,92,0.01,,---,0.01,VWS V14.01,2013-03-05 19:13:00,
2013-03-05 14:14:00,37.9,36.1,29.68,SE,134,2.0,7.0,93,0.01,,---,0.01,VWS V14.01,2013-03-05 19:14:00,
2013-03-05 14:15:00,37.9,36.1,29.68,SE,138,5.0,6.0,93,0.01,,---,0.01,VWS V14.01,2013-03-05 19:15:00,
2013-03-05 14:16:00,37.9,36.1,29.68,SE,138,5.0,6.0,93,0.01,,---,0.01,VWS V14.01,2013-03-05 19:16:00,
2013-03-05 14:17:00,37.9,36.1,29.68,ESE,121,2.0,5.0,93,0.01,,---,0.01,VWS V14.01,2013-03-05 19:17:00,
2013-03-05 14:18:00,37.9,36.1,29.67,SE,134,0.0,2.0,93,0.01,,---,0.01,VWS V14.01,2013-03-05 19:18:00,
2013-03-05 14:19:00,37.9,36.1,29.67,SE,130,1.0,6.0,93,0.01,,---,0.01,VWS V14.01,2013-03-05 19:19:00,
2013-03-05 14:20:00,37.8,36.0,29.67,ESE,113,7.0,8.0,93,0.01,,---,0.01,VWS V14.01,2013-03-05 19:20:00,
2013-03-05 14:21:00,37.8,36.0,29.67,ESE,113,7.0,8.0,93,0.01,,---,0.01,VWS V14.01,2013-03-05 19:21:00,
2013-03-05 14:22:00,37.8,36.0,29.67,SE,138,4.0,7.0,93,0.01,,---,0.01,VWS V14.01,2013-03-05 19:22:00,
2013-03-05 14:23:00,37.8,36.0,29.67,ESE,123,5.0,5.0,93,0.01,,---,0.01,VWS V14.01,2013-03-05 19:23:00,
2013-03-05 14:24:00,37.8,36.0,29.67,SE,125,1.0,5.0,93,0.01,,---,0.01,VWS V14.01,2013-03-05 19:24:00,
2013-03-05 14:25:00,37.8,36.0,29.67,SE,127,0.0,4.0,93,0.01,,---,0.01,VWS V14.01,2013-03-05 19:25:00,
2013-03-05 14:26:00,37.8,36.0,29.67,SE,127,0.0,4.0,93,0.01,,---,0.01,VWS V14.01,2013-03-05 19:26:00,
2013-03-05 14:27:00,37.8,36.0,29.67,ENE,68,2.0,4.0,93,0.01,,---,0.01,VWS V14.01,2013-03-05 19:27:00,
2013-03-05 14:28:00,37.8,36.0,29.67,SE,124,0.0,3.0,93,0.01,,---,0.01,VWS V14.01,2013-03-05 19:28:00,
2013-03-05 14:29:00,37.8,36.0,29.67,ESE,104,0.0,1.0,93,0.01,,---,0.01,VWS V14.01,2013-03-05 19:29:00,
2013-03-05 14:30:00,37.8,36.0,29.67,ESE,108,1.0,2.0,93,0.01,,---,0.01,VWS V14.01,2013-03-05 19:30:00,
2013-03-05 14:31:00,37.8,36.0,29.67,ESE,108,1.0,2.0,93,0.01,,---,0.01,VWS V14.01,2013-03-05 19:31:00,
2013-03-05 14:32:00,37.8,36.2,29.67,East,94,0.0,2.0,94,0.01,,---,0.01,VWS V14.01,2013-03-05 19:32:00,
2013-03-05 14:33:00,37.9,36.3,29.67,ESE,118,5.0,6.0,94,0.01,,---,0.01,VWS V14.01,2013-03-05 19:33:00,
2013-03-05 14:34:00,37.8,36.2,29.67,SE,139,4.0,7.0,94,0.01,,---,0.01,VWS V14.01,2013-03-05 19:34:00,
2013-03-05 14:35:00,37.8,36.2,29.67,East,99,2.0,2.0,94,0.01,,---,0.01,VWS V14.01,2013-03-05 19:35:00,
2013-03-05 14:36:00,37.8,36.2,29.67,East,99,2.0,2.0,94,0.01,,---,0.01,VWS V14.01,2013-03-05 19:36:00,
2013-03-05 14:37:00,37.8,36.2,29.67,East,88,3.0,7.0,94,0.01,,---,0.01,VWS V14.01,2013-03-05 19:37:00,
2013-03-05 14:38:00,37.8,36.2,29.67,SSE,157,1.0,7.0,94,0.01,,---,0.01,VWS V14.01,2013-03-05 19:38:00,
2013-03-05 14:39:00,37.8,36.2,29.66,SE,128,4.0,6.0,94,0.01,,---,0.01,VWS V14.01,2013-03-05 19:39:00,
2013-03-05 14:40:00,37.8,36.2,29.66,ESE,121,0.0,2.0,94,0.01,,---,0.01,VWS V14.01,2013-03-05 19:40:00,
2013-03-05 14:41:00,37.8,36.2,29.66,ESE,121,0.0,2.0,94,0.01,,---,0.01,VWS V14.01,2013-03-05 19:41:00,
2013-03-05 14:42:00,37.8,36.2,29.66,ESE,113,1.0,4.0,94,0.01,,---,0.01,VWS V14.01,2013-03-05 19:42:00,
2013-03-05 14:43:00,37.8,36.2,29.66,ESE,113,0.0,1.0,94,0.01,,---,0.01,VWS V14.01,2013-03-05 19:43:00,
2013-03-05 14:44:00,37.8,36.2,29.66,NE,54,1.0,1.0,94,0.01,,---,0.01,VWS V14.01,2013-03-05 19:44:00,
2013-03-05 14:45:00,37.9,36.3,29.66,ESE,112,1.0,7.0,94,0.02,,---,0.02,VWS V14.01,2013-03-05 19:45:00,
2013-03-05 14:46:00,37.9,36.3,29.66,ESE,112,1.0,7.0,94,0.02,,---,0.02,VWS V14.01,2013-03-05 19:46:00,
2013-03-05 14:47:00,37.9,36.3,29.66,ESE,107,2.0,2.0,94,0.02,,---,0.02,VWS V14.01,2013-03-05 19:47:00,
2013-03-05 14:48:00,37.9,36.3,29.66,SE,128,1.0,4.0,94,0.02,,---,0.02,VWS V14.01,2013-03-05 19:48:00,
2013-03-05 14:49:00,37.9,36.3,29.66,East,94,1.0,4.0,94,0.02,,---,0.02,VWS V14.01,2013-03-05 19:49:00,
2013-03-05 14:50:00,37.9,36.3,29.66,ESE,122,4.0,4.0,94,0.02,,---,0.02,VWS V14.01,2013-03-05 19:50:00,
2013-03-05 14:51:00,37.9,36.3,29.66,ESE,122,4.0,4.0,94,0.02,,---,0.02,VWS V14.01,2013-03-05 19:51:00,
2013-03-05 14:52:00,37.9,36.3,29.66,ESE,119,0.0,5.0,94,0.02,,---,0.02,VWS V14.01,2013-03-05 19:52:00,
2013-03-05 14:53:00,37.9,36.3,29.66,ESE,116,0.0,2.0,94,0.02,,---,0.02,VWS V14.01,2013-03-05 19:53:00,
2013-03-05 14:54:00,37.9,36.3,29.66,SE,140,1.0,2.0,94,0.02,,---,0.02,VWS V14.01,2013-03-05 19:54:00,
2013-03-05 14:55:00,37.9,36.3,29.65,SE,140,0.0,1.0,94,0.02,,---,0.02,VWS V14.01,2013-03-05 19:55:00,
2013-03-05 14:56:00,37.9,36.3,29.65,SE,140,0.0,1.0,94,0.02,,---,0.02,VWS V14.01,2013-03-05 19:56:00,
2013-03-05 14:57:00,37.9,36.3,29.65,NE,48,3.0,5.0,94,0.02,,---,0.02,VWS V14.01,2013-03-05 19:57:00,
2013-03-05 14:58:00,37.9,36.3,29.65,SE,140,2.0,3.0,94,0.02,,---,0.02,VWS V14.01,2013-03-05 19:58:00,
2013-03-05 14:59:00,37.9,36.6,29.65,East,96,4.0,6.0,95,0.02,,---,0.02,VWS V14.01,2013-03-05 19:59:00,
2013-03-05 15:00:00,37.9,36.3,29.65,SE,134,1.0,4.0,94,0.01,,---,0.02,VWS V14.01,2013-03-05 20:00:00,
2013-03-05 15:01:00,37.9,36.3,29.65,SE,134,1.0,4.0,94,0.01,,---,0.02,VWS V14.01,2013-03-05 20:01:00,
2013-03-05 15:02:00,37.9,36.3,29.65,ESE,111,1.0,4.0,94,0.01,,---,0.02,VWS V14.01,2013-03-05 20:02:00,
2013-03-05 15:03:00,38.0,36.4,29.64,ESE,114,0.0,1.0,94,0.01,,---,0.02,VWS V14.01,2013-03-05 20:03:00,
2013-03-05 15:04:00,38.0,36.7,29.64,SE,136,4.0,4.0,95,0.01,,---,0.02,VWS V14.01,2013-03-05 20:04:00,
2013-03-05 15:05:00,38.0,36.7,29.64,SE,130,4.0,6.0,95,0.01,,---,0.02,VWS V14.01,2013-03-05 20:05:00,
2013-03-05 15:06:00,38.0,36.7,29.64,SE,130,4.0,6.0,95,0.01,,---,0.02,VWS V14.01,2013-03-05 20:06:00,
2013-03-05 15:07:00,38.0,36.7,29.64,SE,131,7.0,7.0,95,0.01,,---,0.02,VWS V14.01,2013-03-05 20:07:00,
2013-03-05 15:08:00,38.0,36.7,29.64,SE,134,4.0,7.0,95,0.01,,---,0.02,VWS V14.01,2013-03-05 20:08:00,
2013-03-05 15:09:00,38.0,36.7,29.64,ESE,120,0.0,4.0,95,0.01,,---,0.02,VWS V14.01,2013-03-05 20:09:00,
2013-03-05 15:10:00,38.0,36.7,29.64,SE,134,2.0,6.0,95,0.01,,---,0.02,VWS V14.01,2013-03-05 20:10:00,
2013-03-05 15:11:00,38.0,36.7,29.64,SE,134,2.0,6.0,95,0.01,,---,0.02,VWS V14.01,2013-03-05 20:11:00,
2013-03-05 15:12:00,38.0,36.7,29.64,ESE,115,1.0,5.0,95,0.01,,---,0.02,VWS V14.01,2013-03-05 20:12:00,
2013-03-05 15:13:00,38.0,36.7,29.64,SE,134,1.0,4.0,95,0.01,,---,0.02,VWS V14.01,2013-03-05 20:13:00,
2013-03-05 15:14:00,38.0,36.7,29.64,SE,136,4.0,6.0,95,0.01,,---,0.02,VWS V14.01,2013-03-05 20:14:00,
2013-03-05 15:15:00,38.0,36.7,29.64,ESE,109,2.0,4.0,95,0.01,,---,0.02,VWS V14.01,2013-03-05 20:15:00,
2013-03-05 15:16:00,38.0,36.7,29.64,ESE,109,2.0,4.0,95,0.01,,---,0.02,VWS V14.01,2013-03-05 20:16:00,
2013-03-05 15:17:00,38.0,36.7,29.64,ESE,114,0.0,2.0,95,0.01,,---,0.02,VWS V14.01,2013-03-05 20:17:00,
2013-03-05 15:18:00,38.0,36.7,29.63,East,88,0.0,4.0,95,0.01,,---,0.02,VWS V14.01,2013-03-05 20:18:00,
2013-03-05 15:19:00,38.0,36.7,29.64,East,92,1.0,5.0,95,0.01,,---,0.02,VWS V14.01,2013-03-05 20:19:00,
2013-03-05 15:20:00,38.1,36.8,29.64,East,98,0.0,2.0,95,0.01,,---,0.02,VWS V14.01,2013-03-05 20:20:00,
2013-03-05 15:21:00,38.1,36.8,29.64,East,98,0.0,2.0,95,0.01,,---,0.02,VWS V14.01,2013-03-05 20:21:00,
2013-03-05 15:22:00,38.1,36.8,29.63,East,82,0.0,4.0,95,0.01,,---,0.02,VWS V14.01,2013-03-05 20:22:00,
2013-03-05 15:23:00,38.1,36.8,29.63,East,82,0.0,2.0,95,0.01,,---,0.02,VWS V14.01,2013-03-05 20:23:00,
2013-03-05 15:24:00,38.1,36.8,29.63,East,82,0.0,0.0,95,0.01,,---,0.02,VWS V14.01,2013-03-05 20:24:00,
2013-03-05 15:25:00,38.1,36.8,29.63,ENE,75,1.0,3.0,95,0.01,,---,0.02,VWS V14.01,2013-03-05 20:25:00,
2013-03-05 15:26:00,38.1,36.8,29.63,ENE,75,1.0,3.0,95,0.01,,---,0.02,VWS V14.01,2013-03-05 20:26:00,
2013-03-05 15:27:00,38.1,36.8,29.63,East,84,1.0,6.0,95,0.01,,---,0.02,VWS V14.01,2013-03-05 20:27:00,
2013-03-05 15:28:00,38.1,36.8,29.63,East,101,1.0,3.0,95,0.01,,---,0.02,VWS V14.01,2013-03-05 20:28:00,
2013-03-05 15:29:00,38.1,36.8,29.63,ESE,118,0.0,4.0,95,0.01,,---,0.02,VWS V14.01,2013-03-05 20:29:00,
2013-03-05 15:30:00,38.1,36.8,29.63,ESE,116,0.0,1.0,95,0.01,,---,0.02,VWS V14.01,2013-03-05 20:30:00,
2013-03-05 15:31:00,38.1,36.8,29.63,ESE,116,0.0,1.0,95,0.01,,---,0.02,VWS V14.01,2013-03-05 20:31:00,
2013-03-05 15:32:00,38.1,36.8,29.63,ESE,112,1.0,6.0,95,0.01,,---,0.02,VWS V14.01,2013-03-05 20:32:00,
2013-03-05 15:33:00,38.1,36.8,29.62,ESE,121,1.0,3.0,95,0.01,,---,0.02,VWS V14.01,2013-03-05 20:33:00,
2013-03-05 15:34:00,38.1,36.8,29.62,ENE,57,1.0,4.0,95,0.01,,---,0.02,VWS V14.01,2013-03-05 20:34:00,
2013-03-05 15:35:00,38.1,36.8,29.62,SE,138,4.0,5.0,95,0.01,,---,0.02,VWS V14.01,2013-03-05 20:35:00,
2013-03-05 15:36:00,38.1,36.8,29.62,SE,138,4.0,5.0,95,0.01,,---,0.02,VWS V14.01,2013-03-05 20:36:00,
2013-03-05 15:37:00,38.1,36.8,29.62,SE,138,0.0,4.0,95,0.01,,---,0.02,VWS V14.01,2013-03-05 20:37:00,
2013-03-05 15:38:00,38.1,36.8,29.62,East,94,0.0,4.0,95,0.01,,---,0.02,VWS V14.01,2013-03-05 20:38:00,
2013-03-05 15:39:00,38.1,36.8,29.62,SE,136,0.0,5.0,95,0.01,,---,0.02,VWS V14.01,2013-03-05 20:39:00,
2013-03-05 15:40:00,38.1,36.8,29.62,East,90,0.0,1.0,95,0.02,,---,0.03,VWS V14.01,2013-03-05 20:40:00,
2013-03-05 15:41:00,38.1,36.8,29.62,East,90,0.0,1.0,95,0.02,,---,0.03,VWS V14.01,2013-03-05 20:41:00,
2013-03-05 15:42:00,38.1,36.8,29.62,ESE,121,2.0,2.0,95,0.02,,---,0.03,VWS V14.01,2013-03-05 20:42:00,
2013-03-05 15:43:00,38.2,36.9,29.62,SE,145,2.0,5.0,95,0.02,,---,0.03,VWS V14.01,2013-03-05 20:43:00,
2013-03-05 15:44:00,38.2,36.9,29.62,ESE,105,1.0,6.0,95,0.02,,---,0.03,VWS V14.01,2013-03-05 20:44:00,
2013-03-05 15:45:00,38.2,36.9,29.62,SE,132,0.0,7.0,95,0.01,,---,0.03,VWS V14.01,2013-03-05 20:45:00,
2013-03-05 15:46:00,38.2,36.9,29.62,SE,132,0.0,7.0,95,0.01,,---,0.03,VWS V14.01,2013-03-05 20:46:00,
2013-03-05 15:47:00,38.2,36.9,29.62,SE,142,2.0,5.0,95,0.01,,---,0.03,VWS V14.01,2013-03-05 20:47:00,
2013-03-05 15:48:00,38.2,36.9,29.62,SE,126,0.0,6.0,95,0.02,,---,0.04,VWS V14.01,2013-03-05 20:48:00,
2013-03-05 15:49:00,38.2,36.9,29.62,South,177,2.0,6.0,95,0.02,,---,0.04,VWS V14.01,2013-03-05 20:49:00,
2013-03-05 15:50:00,38.2,37.2,29.61,SE,128,4.0,4.0,96,0.02,,---,0.04,VWS V14.01,2013-03-05 20:50:00,
2013-03-05 15:51:00,38.2,37.2,29.61,SE,128,4.0,4.0,96,0.02,,---,0.04,VWS V14.01,2013-03-05 20:51:00,
2013-03-05 15:52:00,38.2,37.2,29.61,SSE,152,4.0,9.0,96,0.02,,---,0.04,VWS V14.01,2013-03-05 20:52:00,
2013-03-05 15:53:00,38.2,37.2,29.61,SSE,154,5.0,5.0,96,0.02,,---,0.04,VWS V14.01,2013-03-05 20:53:00,
2013-03-05 15:54:00,38.2,37.2,29.61,SE,131,4.0,7.0,96,0.02,,---,0.04,VWS V14.01,2013-03-05 20:54:00,
2013-03-05 15:55:00,38.2,37.2,29.61,SE,135,4.0,6.0,96,0.02,,---,0.04,VWS V14.01,2013-03-05 20:55:00,
2013-03-05 15:56:00,38.2,37.2,29.61,SE,135,4.0,6.0,96,0.02,,---,0.04,VWS V14.01,2013-03-05 20:56:00,
2013-03-05 15:57:00,38.2,37.2,29.61,SE,128,4.0,4.0,96,0.02,,---,0.04,VWS V14.01,2013-03-05 20:57:00,
2013-03-05 15:58:00,38.2,37.2,29.61,SE,134,0.0,5.0,96,0.02,,---,0.04,VWS V14.01,2013-03-05 20:58:00,
2013-03-05 15:59:00,38.2,37.2,29.61,ESE,108,1.0,4.0,96,0.03,,---,0.05,VWS V14.01,2013-03-05 20:59:00,
2013-03-05 16:00:00,38.2,37.2,29.61,ESE,112,0.0,1.0,96,0.03,,---,0.05,VWS V14.01,2013-03-05 21:00:00,
2013-03-05 16:01:00,38.2,37.2,29.61,ESE,112,0.0,1.0,96,0.03,,---,0.05,VWS V14.01,2013-03-05 21:01:00,
2013-03-05 16:02:00,38.2,37.2,29.61,East,91,2.0,5.0,96,0.03,,---,0.05,VWS V14.01,2013-03-05 21:02:00,
2013-03-05 16:03:00,38.2,37.2,29.61,ESE,104,4.0,4.0,96,0.03,,---,0.05,VWS V14.01,2013-03-05 21:03:00,
2013-03-05 16:04:00,38.2,36.9,29.61,SE,127,4.0,6.0,95,0.03,,---,0.05,VWS V14.01,2013-03-05 21:04:00,
2013-03-05 16:05:00,38.2,36.9,29.60,ESE,121,2.0,5.0,95,0.03,,---,0.05,VWS V14.01,2013-03-05 21:05:00,
2013-03-05 16:06:00,38.2,36.9,29.60,ESE,121,2.0,5.0,95,0.03,,---,0.05,VWS V14.01,2013-03-05 21:06:00,
2013-03-05 16:07:00,38.3,37.0,29.60,ESE,122,1.0,4.0,95,0.03,,---,0.05,VWS V14.01,2013-03-05 21:07:00,
2013-03-05 16:08:00,38.2,37.2,29.60,ESE,122,0.0,1.0,96,0.03,,---,0.05,VWS V14.01,2013-03-05 21:08:00,
2013-03-05 16:09:00,38.2,37.2,29.60,SE,132,2.0,9.0,96,0.03,,---,0.05,VWS V14.01,2013-03-05 21:09:00,
2013-03-05 16:10:00,38.2,37.2,29.60,SSE,160,6.0,6.0,96,0.03,,---,0.05,VWS V14.01,2013-03-05 21:10:00,
2013-03-05 16:11:00,38.2,37.2,29.60,SSE,160,6.0,6.0,96,0.03,,---,0.05,VWS V14.01,2013-03-05 21:11:00,
2013-03-05 16:12:00,38.3,37.3,29.60,SSE,150,0.0,8.0,96,0.04,,---,0.06,VWS V14.01,2013-03-05 21:12:00,
2013-03-05 16:13:00,38.2,37.2,29.60,ESE,119,1.0,4.0,96,0.04,,---,0.06,VWS V14.01,2013-03-05 21:13:00,
2013-03-05 16:14:00,38.2,37.2,29.60,ESE,119,1.0,1.0,96,0.04,,---,0.06,VWS V14.01,2013-03-05 21:14:00,
2013-03-05 16:15:00,38.3,37.3,29.60,East,98,4.0,6.0,96,0.04,,---,0.06,VWS V14.01,2013-03-05 21:15:00,
2013-03-05 16:16:00,38.3,37.3,29.60,East,98,4.0,6.0,96,0.04,,---,0.06,VWS V14.01,2013-03-05 21:16:00,
2013-03-05 16:17:00,38.3,37.3,29.60,SE,129,4.0,6.0,96,0.05,,---,0.07,VWS V14.01,2013-03-05 21:17:00,
2013-03-05 16:18:00,38.3,37.3,29.60,ESE,106,4.0,4.0,96,0.05,,---,0.07,VWS V14.01,2013-03-05 21:18:00,
2013-03-05 16:19:00,38.3,37.3,29.60,SE,126,0.0,4.0,96,0.05,,---,0.07,VWS V14.01,2013-03-05 21:19:00,
2013-03-05 16:20:00,38.3,37.3,29.60,SE,127,8.0,9.0,96,0.05,,---,0.07,VWS V14.01,2013-03-05 21:20:00,
2013-03-05 16:21:00,38.3,37.3,29.60,SE,127,8.0,9.0,96,0.05,,---,0.07,VWS V14.01,2013-03-05 21:21:00,
2013-03-05 16:22:00,38.3,37.3,29.60,ESE,117,5.0,8.0,96,0.05,,---,0.07,VWS V14.01,2013-03-05 21:22:00,
2013-03-05 16:23:00,38.3,37.3,29.60,ESE,121,0.0,5.0,96,0.06,,---,0.08,VWS V14.01,2013-03-05 21:23:00,
2013-03-05 16:24:00,38.3,37.3,29.59,SSE,163,2.0,8.0,96,0.06,,---,0.08,VWS V14.01,2013-03-05 21:24:00,
2013-03-05 16:25:00,38.3,37.3,29.59,SE,131,6.0,6.0,96,0.06,,---,0.08,VWS V14.01,2013-03-05 21:25:00,
2013-03-05 16:26:00,38.3,37.3,29.59,ESE,115,4.0,6.0,96,0.06,,---,0.08,VWS V14.01,2013-03-05 21:26:00,
2013-03-05 16:27:00,38.3,37.3,29.59,ESE,115,4.0,6.0,96,0.06,,---,0.08,VWS V14.01,2013-03-05 21:27:00,
2013-03-05 16:28:00,38.3,37.3,29.59,ESE,121,0.0,5.0,96,0.06,,---,0.08,VWS V14.01,2013-03-05 21:28:00,
2013-03-05 16:29:00,38.3,37.3,29.59,East,91,2.0,5.0,96,0.07,,---,0.09,VWS V14.01,2013-03-05 21:29:00,
2013-03-05 16:30:00,38.3,37.3,29.60,ESE,111,0.0,4.0,96,0.07,,---,0.09,VWS V14.01,2013-03-05 21:30:00,
2013-03-05 16:31:00,38.3,37.3,29.60,ESE,102,1.0,5.0,96,0.07,,---,0.09,VWS V14.01,2013-03-05 21:31:00,
2013-03-05 16:32:00,38.3,37.3,29.60,ESE,102,1.0,5.0,96,0.07,,---,0.09,VWS V14.01,2013-03-05 21:32:00,
2013-03-05 16:33:00,38.3,37.3,29.59,ESE,103,0.0,2.0,96,0.07,,---,0.09,VWS V14.01,2013-03-05 21:33:00,
2013-03-05 16:34:00,38.3,37.3,29.59,ESE,117,2.0,4.0,96,0.07,,---,0.09,VWS V14.01,2013-03-05 21:34:00,
2013-03-05 16:35:00,38.3,37.3,29.59,SE,126,0.0,5.0,96,0.07,,---,0.09,VWS V14.01,2013-03-05 21:35:00,
2013-03-05 16:36:00,38.3,37.3,29.59,ENE,65,0.0,1.0,96,0.07,,---,0.09,VWS V14.01,2013-03-05 21:36:00,
2013-03-05 16:37:00,38.3,37.3,29.59,ENE,65,0.0,1.0,96,0.07,,---,0.09,VWS V14.01,2013-03-05 21:37:00,
2013-03-05 16:38:00,38.4,37.4,29.59,East,90,4.0,4.0,96,0.08,,---,0.10,VWS V14.01,2013-03-05 21:38:00,
2013-03-05 16:39:00,38.4,37.4,29.59,SE,126,1.0,4.0,96,0.08,,---,0.10,VWS V14.01,2013-03-05 21:39:00,
2013-03-05 16:40:00,38.4,37.4,29.59,ENE,70,1.0,2.0,96,0.08,,---,0.10,VWS V14.01,2013-03-05 21:40:00,
2013-03-05 16:41:00,38.4,37.4,29.59,ENE,63,0.0,6.0,96,0.07,,---,0.10,VWS V14.01,2013-03-05 21:41:00,
2013-03-05 16:42:00,38.4,37.4,29.59,ENE,63,0.0,6.0,96,0.07,,---,0.10,VWS V14.01,2013-03-05 21:42:00,
2013-03-05 16:43:00,38.4,37.4,29.59,East,93,2.0,2.0,96,0.07,,---,0.10,VWS V14.01,2013-03-05 21:43:00,
2013-03-05 16:44:00,38.4,37.4,29.59,ESE,123,0.0,2.0,96,0.07,,---,0.10,VWS V14.01,2013-03-05 21:44:00,
2013-03-05 16:45:00,38.4,37.4,29.59,ESE,123,0.0,0.0,96,0.07,,---,0.10,VWS V14.01,2013-03-05 21:45:00,
2013-03-05 16:46:00,38.4,37.4,29.59,SE,142,0.0,4.0,96,0.08,,---,0.11,VWS V14.01,2013-03-05 21:46:00,
2013-03-05 16:47:00,38.4,37.4,29.59,SE,142,0.0,4.0,96,0.08,,---,0.11,VWS V14.01,2013-03-05 21:47:00,
2013-03-05 16:48:00,38.4,37.4,29.59,SE,142,0.0,1.0,96,0.08,,---,0.11,VWS V14.01,2013-03-05 21:48:00,
2013-03-05 16:49:00,38.4,37.4,29.59,East,98,0.0,5.0,96,0.07,,---,0.11,VWS V14.01,2013-03-05 21:49:00,
2013-03-05 16:50:00,38.4,37.4,29.59,ESE,102,0.0,2.0,96,0.07,,---,0.11,VWS V14.01,2013-03-05 21:50:00,
2013-03-05 16:51:00,38.4,37.4,29.59,East,92,0.0,1.0,96,0.07,,---,0.11,VWS V14.01,2013-03-05 21:51:00,
2013-03-05 16:52:00,38.4,37.4,29.59,East,92,0.0,1.0,96,0.07,,---,0.11,VWS V14.01,2013-03-05 21:52:00,
2013-03-05 16:53:00,38.5,37.5,29.59,ENE,78,0.0,1.0,96,0.07,,---,0.11,VWS V14.01,2013-03-05 21:53:00,
2013-03-05 16:54:00,38.5,37.5,29.59,ESE,123,1.0,2.0,96,0.07,,---,0.11,VWS V14.01,2013-03-05 21:54:00,
2013-03-05 16:55:00,38.4,37.4,29.59,ESE,109,0.0,2.0,96,0.07,,---,0.11,VWS V14.01,2013-03-05 21:55:00,
2013-03-05 16:56:00,38.5,37.5,29.59,East,95,0.0,1.0,96,0.08,,---,0.12,VWS V14.01,2013-03-05 21:56:00,
2013-03-05 16:57:00,38.5,37.5,29.59,East,95,0.0,1.0,96,0.08,,---,0.12,VWS V14.01,2013-03-05 21:57:00,
2013-03-05 16:58:00,38.5,37.5,29.59,East,96,0.0,0.0,96,0.08,,---,0.12,VWS V14.01,2013-03-05 21:58:00,
2013-03-05 16:59:00,38.5,37.5,29.59,East,100,1.0,1.0,96,0.08,,---,0.12,VWS V14.01,2013-03-05 21:59:00,
2013-03-05 17:00:00,38.5,37.5,29.59,ESE,110,4.0,4.0,96,0.07,,---,0.12,VWS V14.01,2013-03-05 22:00:00,
2013-03-05 17:01:00,38.5,37.5,29.59,East,86,1.0,1.0,96,0.08,,---,0.13,VWS V14.01,2013-03-05 22:01:00,
2013-03-05 17:02:00,38.5,37.5,29.59,East,86,1.0,1.0,96,0.08,,---,0.13,VWS V14.01,2013-03-05 22:02:00,
2013-03-05 17:03:00,38.5,37.5,29.59,East,86,0.0,1.0,96,0.08,,---,0.13,VWS V14.01,2013-03-05 22:03:00,
2013-03-05 17:04:00,38.5,37.5,29.59,East,86,0.0,0.0,96,0.08,,---,0.13,VWS V14.01,2013-03-05 22:04:00,
2013-03-05 17:05:00,38.5,37.5,29.59,East,86,0.0,0.0,96,0.08,,---,0.13,VWS V14.01,2013-03-05 22:05:00,
2013-03-05 17:06:00,38.5,37.5,29.59,East,86,0.0,0.0,96,0.09,,---,0.14,VWS V14.01,2013-03-05 22:06:00,
2013-03-05 17:07:00,38.5,37.5,29.59,East,86,0.0,0.0,96,0.09,,---,0.14,VWS V14.01,2013-03-05 22:07:00,
2013-03-05 17:08:00,38.5,37.5,29.59,East,86,0.0,0.0,96,0.09,,---,0.14,VWS V14.01,2013-03-05 22:08:00,
2013-03-05 17:09:00,38.5,37.5,29.59,East,86,0.0,0.0,96,0.09,,---,0.14,VWS V14.01,2013-03-05 22:09:00,
2013-03-05 17:10:00,38.6,37.6,29.59,East,86,0.0,0.0,96,0.09,,---,0.14,VWS V14.01,2013-03-05 22:10:00,
2013-03-05 17:11:00,38.5,37.5,29.59,East,86,0.0,0.0,96,0.10,,---,0.15,VWS V14.01,2013-03-05 22:11:00,
2013-03-05 17:12:00,38.5,37.5,29.59,East,86,0.0,0.0,96,0.10,,---,0.15,VWS V14.01,2013-03-05 22:12:00,
2013-03-05 17:13:00,38.5,37.5,29.59,East,86,0.0,0.0,96,0.09,,---,0.15,VWS V14.01,2013-03-05 22:13:00,
2013-03-05 17:14:00,38.5,37.5,29.59,East,86,0.0,0.0,96,0.09,,---,0.15,VWS V14.01,2013-03-05 22:14:00,
2013-03-05 17:15:00,38.6,37.6,29.59,East,86,0.0,0.0,96,0.09,,---,0.15,VWS V14.01,2013-03-05 22:15:00,
2013-03-05 17:16:00,38.6,37.6,29.59,East,86,0.0,0.0,96,0.10,,---,0.16,VWS V14.01,2013-03-05 22:16:00,
2013-03-05 17:17:00,38.6,37.6,29.59,East,86,0.0,0.0,96,0.10,,---,0.16,VWS V14.01,2013-03-05 22:17:00,
2013-03-05 17:18:00,38.6,37.6,29.59,East,86,0.0,0.0,96,0.09,,---,0.16,VWS V14.01,2013-03-05 22:18:00,
2013-03-05 17:19:00,38.6,37.6,29.59,East,86,0.0,0.0,96,0.09,,---,0.16,VWS V14.01,2013-03-05 22:19:00,
2013-03-05 17:20:00,38.6,37.6,29.59,East,86,0.0,0.0,96,0.09,,---,0.16,VWS V14.01,2013-03-05 22:20:00,
2013-03-05 17:21:00,38.6,37.6,29.59,East,86,0.0,0.0,96,0.10,,---,0.17,VWS V14.01,2013-03-05 22:21:00,
2013-03-05 17:22:00,38.6,37.6,29.59,East,86,0.0,0.0,96,0.10,,---,0.17,VWS V14.01,2013-03-05 22:22:00,
2013-03-05 17:23:00,38.6,37.6,29.59,East,86,0.0,0.0,96,0.10,,---,0.17,VWS V14.01,2013-03-05 22:23:00,
2013-03-05 17:24:00,38.6,37.6,29.59,East,86,0.0,0.0,96,0.09,,---,0.17,VWS V14.01,2013-03-05 22:24:00,
2013-03-05 17:25:00,38.6,37.6,29.59,East,86,0.0,0.0,96,0.09,,---,0.17,VWS V14.01,2013-03-05 22:25:00,
2013-03-05 17:26:00,38.6,37.6,29.59,North,360,0.0,0.0,96,0.09,,---,0.17,VWS V14.01,2013-03-05 22:26:00,
2013-03-05 17:27:00,38.6,37.6,29.59,North,360,0.0,0.0,96,0.09,,---,0.17,VWS V14.01,2013-03-05 22:27:00,
2013-03-05 17:28:00,38.6,37.6,29.59,North,360,0.0,0.0,96,0.09,,---,0.17,VWS V14.01,2013-03-05 22:28:00,
2013-03-05 17:29:00,38.6,37.6,29.59,North,360,0.0,0.0,96,0.09,,---,0.17,VWS V14.01,2013-03-05 22:29:00,
2013-03-05 17:30:00,38.6,37.6,29.59,North,360,0.0,0.0,96,0.08,,---,0.17,VWS V14.01,2013-03-05 22:30:00,
2013-03-05 17:31:00,38.6,37.6,29.59,North,360,0.0,0.0,96,0.08,,---,0.17,VWS V14.01,2013-03-05 22:31:00,
2013-03-05 17:32:00,38.5,37.5,29.59,North,360,0.0,0.0,96,0.09,,---,0.18,VWS V14.01,2013-03-05 22:32:00,
2013-03-05 17:33:00,38.5,37.5,29.59,North,360,0.0,0.0,96,0.09,,---,0.18,VWS V14.01,2013-03-05 22:33:00,
2013-03-05 17:34:00,38.5,37.5,29.59,North,360,0.0,0.0,96,0.09,,---,0.18,VWS V14.01,2013-03-05 22:34:00,
2013-03-05 17:35:00,38.5,37.5,29.59,North,360,0.0,0.0,96,0.09,,---,0.18,VWS V14.01,2013-03-05 22:35:00,
2013-03-05 17:36:00,38.5,37.5,29.59,North,360,0.0,0.0,96,0.09,,---,0.18,VWS V14.01,2013-03-05 22:36:00,
2013-03-05 17:37:00,38.5,37.5,29.59,North,360,0.0,0.0,96,0.09,,---,0.18,VWS V14.01,2013-03-05 22:37:00,
2013-03-05 17:38:00,38.5,37.5,29.59,North,360,0.0,0.0,96,0.09,,---,0.18,VWS V14.01,2013-03-05 22:38:00,
2013-03-05 17:39:00,38.5,37.5,29.59,North,360,0.0,0.0,96,0.08,,---,0.18,VWS V14.01,2013-03-05 22:39:00,
2013-03-05 17:40:00,38.5,37.5,29.59,North,360,0.0,0.0,96,0.09,,---,0.19,VWS V14.01,2013-03-05 22:40:00,
2013-03-05 17:41:00,38.5,37.5,29.59,North,360,0.0,0.0,96,0.09,,---,0.19,VWS V14.01,2013-03-05 22:41:00,
2013-03-05 17:42:00,38.5,37.5,29.59,North,360,0.0,0.0,96,0.09,,---,0.19,VWS V14.01,2013-03-05 22:42:00,
2013-03-05 17:43:00,38.5,37.5,29.59,North,360,0.0,0.0,96,0.09,,---,0.19,VWS V14.01,2013-03-05 22:43:00,
2013-03-05 17:44:00,38.5,37.5,29.59,North,360,0.0,1.0,96,0.09,,---,0.19,VWS V14.01,2013-03-05 22:44:00,
2013-03-05 17:45:00,38.5,37.5,29.59,North,360,0.0,0.0,96,0.09,,---,0.19,VWS V14.01,2013-03-05 22:45:00,
2013-03-05 17:46:00,38.5,37.5,29.59,North,360,0.0,0.0,96,0.09,,---,0.19,VWS V14.01,2013-03-05 22:46:00,
2013-03-05 17:47:00,38.5,37.5,29.59,North,360,0.0,0.0,96,0.08,,---,0.19,VWS V14.01,2013-03-05 22:47:00,
2013-03-05 17:48:00,38.5,37.5,29.59,North,360,0.0,0.0,96,0.08,,---,0.19,VWS V14.01,2013-03-05 22:48:00,
2013-03-05 17:49:00,38.5,37.5,29.59,North,360,0.0,0.0,96,0.09,,---,0.20,VWS V14.01,2013-03-05 22:49:00,
2013-03-05 17:50:00,38.5,37.5,29.59,North,360,0.0,0.0,96,0.09,,---,0.20,VWS V14.01,2013-03-05 22:50:00,
2013-03-05 17:51:00,38.5,37.5,29.59,North,360,0.0,0.0,96,0.09,,---,0.20,VWS V14.01,2013-03-05 22:51:00,
2013-03-05 17:52:00,38.5,37.5,29.59,North,360,1.0,2.0,96,0.09,,---,0.20,VWS V14.01,2013-03-05 22:52:00,
2013-03-05 17:53:00,38.5,37.5,29.59,North,360,1.0,2.0,96,0.09,,---,0.20,VWS V14.01,2013-03-05 22:53:00,
2013-03-05 17:54:00,38.5,37.5,29.60,North,360,0.0,1.0,96,0.09,,---,0.20,VWS V14.01,2013-03-05 22:54:00,
2013-03-05 17:55:00,38.6,37.6,29.60,North,360,0.0,0.0,96,0.09,,---,0.20,VWS V14.01,2013-03-05 22:55:00,
2013-03-05 17:56:00,38.5,37.5,29.60,North,360,0.0,1.0,96,0.10,,---,0.21,VWS V14.01,2013-03-05 22:56:00,
2013-03-05 17:57:00,38.6,37.6,29.60,North,360,0.0,0.0,96,0.09,,---,0.21,VWS V14.01,2013-03-05 22:57:00,
2013-03-05 17:58:00,38.6,37.6,29.60,North,360,0.0,0.0,96,0.09,,---,0.21,VWS V14.01,2013-03-05 22:58:00,
2013-03-05 17:59:00,38.6,37.6,29.60,North,360,0.0,0.0,96,0.09,,---,0.21,VWS V14.01,2013-03-05 22:59:00,
2013-03-05 18:00:00,38.6,37.6,29.60,WNW,300,0.0,3.0,96,0.09,,---,0.21,VWS V14.01,2013-03-05 23:00:00,
2013-03-05 18:01:00,38.6,37.6,29.60,WNW,300,0.0,0.0,96,0.09,,---,0.21,VWS V14.01,2013-03-05 23:01:00,
2013-03-05 18:02:00,38.6,37.6,29.60,WNW,300,0.0,0.0,96,0.09,,---,0.21,VWS V14.01,2013-03-05 23:02:00,
2013-03-05 18:03:00,38.6,37.6,29.60,WNW,300,0.0,0.0,96,0.09,,---,0.22,VWS V14.01,2013-03-05 23:03:00,
2013-03-05 18:04:00,38.6,37.6,29.60,WNW,300,0.0,0.0,96,0.09,,---,0.22,VWS V14.01,2013-03-05 23:04:00,
2013-03-05 18:05:00,38.5,37.5,29.60,WNW,300,0.0,0.0,96,0.09,,---,0.22,VWS V14.01,2013-03-05 23:05:00,
2013-03-05 18:06:00,38.5,37.5,29.60,WNW,300,0.0,0.0,96,0.09,,---,0.22,VWS V14.01,2013-03-05 23:06:00,
2013-03-05 18:07:00,38.5,37.5,29.60,WNW,300,0.0,1.0,96,0.09,,---,0.22,VWS V14.01,2013-03-05 23:07:00,
2013-03-05 18:08:00,38.5,37.5,29.60,WNW,300,0.0,2.0,96,0.09,,---,0.23,VWS V14.01,2013-03-05 23:08:00,
2013-03-05 18:09:00,38.5,37.5,29.60,WNW,300,0.0,2.0,96,0.09,,---,0.23,VWS V14.01,2013-03-05 23:09:00,
2013-03-05 18:10:00,38.5,37.5,29.60,WNW,300,0.0,0.0,96,0.09,,---,0.23,VWS V14.01,2013-03-05 23:10:00,
2013-03-05 18:11:00,38.5,37.5,29.60,NW,324,1.0,2.0,96,0.09,,---,0.23,VWS V14.01,2013-03-05 23:11:00,
2013-03-05 18:12:00,38.4,37.4,29.60,NW,324,0.0,2.0,96,0.08,,---,0.23,VWS V14.01,2013-03-05 23:12:00,
2013-03-05 18:13:00,38.4,37.4,29.60,NW,324,0.0,0.0,96,0.08,,---,0.23,VWS V14.01,2013-03-05 23:13:00,
2013-03-05 18:14:00,38.4,37.4,29.60,NW,324,0.0,0.0,96,0.08,,---,0.23,VWS V14.01,2013-03-05 23:14:00,
2013-03-05 18:15:00,38.4,37.4,29.60,NW,324,0.0,0.0,96,0.08,,---,0.23,VWS V14.01,2013-03-05 23:15:00,
2013-03-05 18:16:00,38.4,37.4,29.60,NW,324,0.0,2.0,96,0.08,,---,0.23,VWS V14.01,2013-03-05 23:16:00,
2013-03-05 18:17:00,38.4,37.4,29.60,West,274,2.0,3.0,96,0.09,,---,0.24,VWS V14.01,2013-03-05 23:17:00,
2013-03-05 18:18:00,38.4,37.4,29.60,West,276,0.0,2.0,96,0.08,,---,0.24,VWS V14.01,2013-03-05 23:18:00,
2013-03-05 18:19:00,38.4,37.4,29.60,West,276,0.0,2.0,96,0.08,,---,0.24,VWS V14.01,2013-03-05 23:19:00,
2013-03-05 18:20:00,38.3,37.3,29.60,West,276,0.0,0.0,96,0.08,,---,0.24,VWS V14.01,2013-03-05 23:20:00,
2013-03-05 18:21:00,38.3,37.3,29.61,West,276,0.0,0.0,96,0.09,,---,0.25,VWS V14.01,2013-03-05 23:21:00,
2013-03-05 18:22:00,38.3,37.3,29.61,West,276,0.0,0.0,96,0.08,,---,0.25,VWS V14.01,2013-03-05 23:22:00,
2013-03-05 18:23:00,38.3,37.3,29.60,NW,311,0.0,2.0,96,0.08,,---,0.25,VWS V14.01,2013-03-05 23:23:00,
2013-03-05 18:24:00,38.3,37.3,29.60,NW,311,0.0,2.0,96,0.08,,---,0.25,VWS V14.01,2013-03-05 23:24:00,
2013-03-05 18:25:00,38.3,37.3,29.61,NW,311,0.0,1.0,96,0.08,,---,0.25,VWS V14.01,2013-03-05 23:25:00,
2013-03-05 18:26:00,38.3,37.3,29.61,NW,311,0.0,0.0,96,0.08,,---,0.25,VWS V14.01,2013-03-05 23:26:00,
2013-03-05 18:27:00,38.3,37.3,29.61,NW,311,0.0,0.0,96,0.08,,---,0.25,VWS V14.01,2013-03-05 23:27:00,
2013-03-05 18:28:00,38.3,37.3,29.61,NW,311,0.0,0.0,96,0.09,,---,0.26,VWS V14.01,2013-03-05 23:28:00,
2013-03-05 18:29:00,38.3,37.3,29.61,NW,311,0.0,0.0,96,0.09,,---,0.26,VWS V14.01,2013-03-05 23:29:00,
2013-03-05 18:30:00,38.3,37.3,29.61,NW,311,0.0,0.0,96,0.09,,---,0.26,VWS V14.01,2013-03-05 23:30:00,
2013-03-05 18:31:00,38.2,37.2,29.61,North,5,3.0,3.0,96,0.09,,---,0.26,VWS V14.01,2013-03-05 23:31:00,
2013-03-05 18:32:00,38.2,37.2,29.61,NNW,340,0.0,3.0,96,0.09,,---,0.26,VWS V14.01,2013-03-05 23:32:00,
2013-03-05 18:33:00,38.2,37.2,29.61,NNW,340,0.0,0.0,96,0.09,,---,0.27,VWS V14.01,2013-03-05 23:33:00,
2013-03-05 18:34:00,38.2,37.2,29.61,NNW,340,0.0,0.0,96,0.09,,---,0.27,VWS V14.01,2013-03-05 23:34:00,
2013-03-05 18:35:00,38.2,37.2,29.61,NNW,344,0.0,1.0,96,0.09,,---,0.27,VWS V14.01,2013-03-05 23:35:00,
2013-03-05 18:36:00,38.2,37.2,29.61,NNW,344,0.0,0.0,96,0.09,,---,0.27,VWS V14.01,2013-03-05 23:36:00,
2013-03-05 18:37:00,38.2,37.2,29.61,NNW,343,1.0,1.0,96,0.09,,---,0.27,VWS V14.01,2013-03-05 23:37:00,
2013-03-05 18:38:00,38.1,37.1,29.61,NNW,343,0.0,0.0,96,0.09,,---,0.27,VWS V14.01,2013-03-05 23:38:00,
2013-03-05 18:39:00,38.1,37.1,29.61,NNW,343,0.0,0.0,96,0.09,,---,0.27,VWS V14.01,2013-03-05 23:39:00,
2013-03-05 18:40:00,38.1,37.1,29.61,NNW,342,0.0,1.0,96,0.09,,---,0.27,VWS V14.01,2013-03-05 23:40:00,
2013-03-05 18:41:00,38.1,37.1,29.61,NNW,342,0.0,0.0,96,0.09,,---,0.28,VWS V14.01,2013-03-05 23:41:00,
2013-03-05 18:42:00,38.1,37.1,29.61,NNW,342,0.0,1.0,96,0.09,,---,0.28,VWS V14.01,2013-03-05 23:42:00,
2013-03-05 18:43:00,38.0,37.0,29.61,NNW,342,0.0,2.0,96,0.09,,---,0.28,VWS V14.01,2013-03-05 23:43:00,
2013-03-05 18:44:00,38.0,37.0,29.61,NNW,342,0.0,2.0,96,0.09,,---,0.28,VWS V14.01,2013-03-05 23:44:00,
2013-03-05 18:45:00,38.0,37.0,29.61,NNW,342,0.0,1.0,96,0.09,,---,0.28,VWS V14.01,2013-03-05 23:45:00,
2013-03-05 18:46:00,38.0,37.0,29.62,NNW,342,0.0,0.0,96,0.09,,---,0.28,VWS V14.01,2013-03-05 23:46:00,
2013-03-05 18:47:00,38.0,37.0,29.61,NNW,331,2.0,3.0,96,0.09,,---,0.28,VWS V14.01,2013-03-05 23:47:00,
2013-03-05 18:48:00,37.9,36.9,29.62,West,275,2.0,3.0,96,0.10,,---,0.29,VWS V14.01,2013-03-05 23:48:00,
2013-03-05 18:49:00,37.9,36.9,29.62,West,275,2.0,3.0,96,0.10,,---,0.29,VWS V14.01,2013-03-05 23:49:00,
2013-03-05 18:50:00,37.9,36.9,29.62,WNW,294,0.0,3.0,96,0.09,,---,0.29,VWS V14.01,2013-03-05 23:50:00,
2013-03-05 18:51:00,37.9,36.9,29.62,WNW,287,0.0,2.0,96,0.09,,---,0.29,VWS V14.01,2013-03-05 23:51:00,
2013-03-05 18:52:00,37.9,36.9,29.62,WNW,294,0.0,2.0,96,0.09,,---,0.29,VWS V14.01,2013-03-05 23:52:00,
2013-03-05 18:53:00,37.8,36.8,29.62,NW,304,2.0,4.0,96,0.10,,---,0.30,VWS V14.01,2013-03-05 23:53:00,
2013-03-05 18:54:00,37.8,36.8,29.62,NW,304,2.0,4.0,96,0.10,,---,0.30,VWS V14.01,2013-03-05 23:54:00,
2013-03-05 18:55:00,37.8,36.8,29.62,NNW,338,3.0,4.0,96,0.10,,---,0.30,VWS V14.01,2013-03-05 23:55:00,
2013-03-05 18:56:00,37.8,36.8,29.62,WSW,258,2.0,4.0,96,0.11,,---,0.31,VWS V14.01,2013-03-05 23:56:00,
2013-03-05 18:57:00,37.7,36.7,29.62,WNW,296,3.0,4.0,96,0.10,,---,0.31,VWS V14.01,2013-03-05 23:57:00,
2013-03-05 18:58:00,37.7,36.7,29.62,WNW,289,1.0,3.0,96,0.10,,---,0.31,VWS V14.01,2013-03-05 23:58:00,
2013-03-05 18:59:00,37.7,36.7,29.62,WNW,289,1.0,3.0,96,0.10,,---,0.31,VWS V14.01,2013-03-05 23:59:00,
2013-03-05 19:00:00,37.7,36.7,29.63,NW,319,4.0,4.0,96,0.10,,---,0.31,VWS V14.01,2013-03-06 00:00:00,
2013-03-05 19:01:00,37.6,36.6,29.62,West,260,4.0,6.0,96,0.11,,---,0.32,VWS V14.01,2013-03-06 00:01:00,
2013-03-05 19:02:00,37.5,36.5,29.63,WNW,282,4.0,5.0,96,0.11,,---,0.32,VWS V14.01,2013-03-06 00:02:00,
2013-03-05 19:03:00,37.3,36.3,29.63,WSW,258,2.0,6.0,96,0.12,,---,0.33,VWS V14.01,2013-03-06 00:03:00,
2013-03-05 19:04:00,37.3,36.3,29.63,WSW,258,2.0,6.0,96,0.12,,---,0.33,VWS V14.01,2013-03-06 00:04:00,
2013-03-05 19:05:00,37.1,36.1,29.63,WSW,256,0.0,3.0,96,0.11,,---,0.33,VWS V14.01,2013-03-06 00:05:00,
2013-03-05 19:06:00,37.0,36.0,29.63,NNW,345,4.0,8.0,96,0.11,,---,0.33,VWS V14.01,2013-03-06 00:06:00,
2013-03-05 19:07:00,36.9,35.9,29.63,WNW,287,0.0,8.0,96,0.12,,---,0.34,VWS V14.01,2013-03-06 00:07:00,
2013-03-05 19:08:00,36.6,35.6,29.63,NW,306,5.0,5.0,96,0.12,,---,0.34,VWS V14.01,2013-03-06 00:08:00,
2013-03-05 19:09:00,36.6,35.6,29.63,NW,306,5.0,5.0,96,0.12,,---,0.34,VWS V14.01,2013-03-06 00:09:00,
2013-03-05 19:10:00,36.4,35.4,29.63,WNW,284,2.0,5.0,96,0.12,,---,0.35,VWS V14.01,2013-03-06 00:10:00,
2013-03-05 19:11:00,36.2,35.2,29.63,WSW,253,3.0,4.0,96,0.12,,---,0.35,VWS V14.01,2013-03-06 00:11:00,
2013-03-05 19:12:00,36.1,35.1,29.63,WNW,285,5.0,5.0,96,0.12,,---,0.35,VWS V14.01,2013-03-06 00:12:00,
2013-03-05 19:13:00,35.7,34.7,29.63,West,275,4.0,6.0,96,0.12,,---,0.35,VWS V14.01,2013-03-06 00:13:00,
2013-03-05 19:14:00,35.7,34.7,29.63,West,275,4.0,6.0,96,0.12,,---,0.35,VWS V14.01,2013-03-06 00:14:00,
2013-03-05 19:15:00,35.6,34.3,29.64,NW,304,3.0,7.0,95,0.13,,---,0.36,VWS V14.01,2013-03-06 00:15:00,
2013-03-05 19:16:00,35.4,34.1,29.64,West,270,2.0,4.0,95,0.13,,---,0.36,VWS V14.01,2013-03-06 00:16:00,
2013-03-05 19:17:00,35.2,33.9,29.64,West,273,0.0,3.0,95,0.13,,---,0.36,VWS V14.01,2013-03-06 00:17:00,
2013-03-05 19:18:00,34.8,33.5,29.64,NW,313,6.0,6.0,95,0.12,,---,0.36,VWS V14.01,2013-03-06 00:18:00,
2013-03-05 19:19:00,34.8,33.5,29.64,NW,313,6.0,6.0,95,0.12,,---,0.36,VWS V14.01,2013-03-06 00:19:00,
2013-03-05 19:20:00,34.7,33.4,29.64,WNW,288,4.0,9.0,95,0.12,,---,0.36,VWS V14.01,2013-03-06 00:20:00,
2013-03-05 19:21:00,34.5,33.2,29.64,West,272,2.0,5.0,95,0.12,,---,0.36,VWS V14.01,2013-03-06 00:21:00,
2013-03-05 19:22:00,34.3,33.0,29.64,West,281,3.0,6.0,95,0.11,,---,0.36,VWS V14.01,2013-03-06 00:22:00,
2013-03-05 19:23:00,33.9,32.6,29.64,NW,316,1.0,3.0,95,0.11,,---,0.36,VWS V14.01,2013-03-06 00:23:00,
2013-03-05 19:24:00,33.9,32.6,29.64,NW,316,1.0,3.0,95,0.11,,---,0.36,VWS V14.01,2013-03-06 00:24:00,
2013-03-05 19:25:00,33.8,32.5,29.64,NW,309,3.0,4.0,95,0.11,,---,0.36,VWS V14.01,2013-03-06 00:25:00,
2013-03-05 19:26:00,33.6,32.3,29.64,NW,316,1.0,3.0,95,0.11,,---,0.36,VWS V14.01,2013-03-06 00:26:00,
2013-03-05 19:27:00,33.5,32.2,29.64,NW,321,0.0,1.0,95,0.11,,---,0.36,VWS V14.01,2013-03-06 00:27:00,
2013-03-05 19:28:00,33.5,32.2,29.64,WNW,303,0.0,0.0,95,0.11,,---,0.36,VWS V14.01,2013-03-06 00:28:00,
2013-03-05 19:29:00,33.4,32.1,29.64,NW,304,0.0,1.0,95,0.11,,---,0.36,VWS V14.01,2013-03-06 00:29:00,
2013-03-05 19:30:00,33.3,32.0,29.64,WNW,296,3.0,4.0,95,0.10,,---,0.36,VWS V14.01,2013-03-06 00:30:00,
2013-03-05 19:31:00,33.2,31.9,29.64,NW,309,0.0,3.0,95,0.10,,---,0.36,VWS V14.01,2013-03-06 00:31:00,
2013-03-05 19:32:00,33.1,31.8,29.64,WNW,301,0.0,2.0,95,0.10,,---,0.36,VWS V14.01,2013-03-06 00:32:00,
2013-03-05 19:33:00,33.1,31.8,29.64,WNW,301,0.0,2.0,95,0.10,,---,0.36,VWS V14.01,2013-03-06 00:33:00,
2013-03-05 19:34:00,33.1,31.8,29.64,WNW,301,0.0,0.0,95,0.10,,---,0.36,VWS V14.01,2013-03-06 00:34:00,
2013-03-05 19:35:00,33.0,31.7,29.64,WNW,301,0.0,1.0,95,0.09,,---,0.36,VWS V14.01,2013-03-06 00:35:00,
2013-03-05 19:36:00,33.0,31.7,29.64,WNW,292,1.0,1.0,95,0.09,,---,0.36,VWS V14.01,2013-03-06 00:36:00,
2013-03-05 19:37:00,33.0,32.0,29.64,WNW,300,0.0,3.0,96,0.09,,---,0.36,VWS V14.01,2013-03-06 00:37:00,
2013-03-05 19:38:00,33.0,32.0,29.64,WNW,300,0.0,3.0,96,0.09,,---,0.36,VWS V14.01,2013-03-06 00:38:00,
2013-03-05 19:39:00,33.0,31.7,29.64,WNW,300,0.0,1.0,95,0.09,,---,0.36,VWS V14.01,2013-03-06 00:39:00,
2013-03-05 19:40:00,32.9,31.6,29.64,WNW,300,0.0,2.0,95,0.09,,---,0.36,VWS V14.01,2013-03-06 00:40:00,
2013-03-05 19:41:00,32.9,31.9,29.64,WNW,290,1.0,2.0,96,0.09,,---,0.36,VWS V14.01,2013-03-06 00:41:00,
2013-03-05 19:42:00,32.9,31.9,29.64,WNW,290,0.0,2.0,96,0.08,,---,0.36,VWS V14.01,2013-03-06 00:42:00,
2013-03-05 19:43:00,32.9,31.9,29.64,WNW,290,0.0,1.0,96,0.08,,---,0.36,VWS V14.01,2013-03-06 00:43:00,
2013-03-05 19:44:00,32.9,31.9,29.64,WNW,286,0.0,2.0,96,0.08,,---,0.36,VWS V14.01,2013-03-06 00:44:00,
2013-03-05 19:45:00,32.9,31.9,29.64,West,270,4.0,4.0,96,0.08,,---,0.36,VWS V14.01,2013-03-06 00:45:00,
2013-03-05 19:46:00,32.8,31.8,29.64,West,270,1.0,4.0,96,0.08,,---,0.36,VWS V14.01,2013-03-06 00:46:00,
2013-03-05 19:47:00,32.8,31.8,29.64,West,273,2.0,2.0,96,0.08,,---,0.36,VWS V14.01,2013-03-06 00:47:00,
2013-03-05 19:48:00,32.8,31.8,29.64,West,273,0.0,2.0,96,0.07,,---,0.36,VWS V14.01,2013-03-06 00:48:00,
2013-03-05 19:49:00,32.8,31.8,29.64,West,273,0.0,2.0,96,0.07,,---,0.36,VWS V14.01,2013-03-06 00:49:00,
2013-03-05 19:50:00,32.8,31.8,29.64,NW,320,2.0,2.0,96,0.07,,---,0.36,VWS V14.01,2013-03-06 00:50:00,
2013-03-05 19:51:00,32.8,31.8,29.64,NNW,336,0.0,2.0,96,0.07,,---,0.36,VWS V14.01,2013-03-06 00:51:00,
2013-03-05 19:52:00,32.8,31.8,29.64,WNW,294,0.0,3.0,96,0.07,,---,0.36,VWS V14.01,2013-03-06 00:52:00,
2013-03-05 19:53:00,32.8,31.8,29.64,WNW,290,0.0,2.0,96,0.06,,---,0.36,VWS V14.01,2013-03-06 00:53:00,
2013-03-05 19:54:00,32.8,31.8,29.64,WNW,290,0.0,2.0,96,0.06,,---,0.36,VWS V14.01,2013-03-06 00:54:00,
2013-03-05 19:55:00,32.8,31.8,29.64,NW,320,2.0,2.0,96,0.06,,---,0.36,VWS V14.01,2013-03-06 00:55:00,
2013-03-05 19:56:00,32.8,31.8,29.64,NW,318,1.0,5.0,96,0.06,,---,0.36,VWS V14.01,2013-03-06 00:56:00,
2013-03-05 19:57:00,32.8,31.8,29.64,WNW,298,1.0,3.0,96,0.05,,---,0.36,VWS V14.01,2013-03-06 00:57:00,
2013-03-05 19:58:00,32.7,31.7,29.64,NW,321,4.0,4.0,96,0.05,,---,0.36,VWS V14.01,2013-03-06 00:58:00,
2013-03-05 19:59:00,32.7,31.7,29.64,NW,321,4.0,4.0,96,0.05,,---,0.36,VWS V14.01,2013-03-06 00:59:00,
2013-03-05 20:00:00,32.7,31.7,29.64,NW,311,0.0,4.0,96,0.05,,---,0.36,VWS V14.01,2013-03-06 01:00:00,
2013-03-05 20:01:00,32.7,31.7,29.64,NW,320,3.0,4.0,96,0.05,,---,0.36,VWS V14.01,2013-03-06 01:01:00,
2013-03-05 20:02:00,32.7,31.7,29.64,NW,319,0.0,3.0,96,0.04,,---,0.36,VWS V14.01,2013-03-06 01:02:00,
2013-03-05 20:03:00,32.7,31.7,29.64,NW,319,0.0,0.0,96,0.04,,---,0.36,VWS V14.01,2013-03-06 01:03:00,
2013-03-05 20:04:00,32.6,31.6,29.64,WSW,255,1.0,4.0,96,0.03,,---,0.36,VWS V14.01,2013-03-06 01:04:00,
2013-03-05 20:05:00,32.6,31.6,29.64,WSW,255,1.0,4.0,96,0.03,,---,0.36,VWS V14.01,2013-03-06 01:05:00,
2013-03-05 20:06:00,32.6,31.6,29.64,West,281,3.0,4.0,96,0.03,,---,0.36,VWS V14.01,2013-03-06 01:06:00,
2013-03-05 20:07:00,32.6,31.6,29.64,WNW,295,3.0,5.0,96,0.03,,---,0.36,VWS V14.01,2013-03-06 01:07:00,
2013-03-05 20:08:00,32.6,31.6,29.64,WNW,303,3.0,6.0,96,0.02,,---,0.36,VWS V14.01,2013-03-06 01:08:00,
2013-03-05 20:09:00,32.6,31.6,29.64,West,265,0.0,4.0,96,0.02,,---,0.36,VWS V14.01,2013-03-06 01:09:00,
2013-03-05 20:10:00,32.6,31.6,29.64,West,264,0.0,1.0,96,0.01,,---,0.36,VWS V14.01,2013-03-06 01:10:00,
2013-03-05 20:11:00,32.6,31.6,29.64,West,264,0.0,1.0,96,0.01,,---,0.36,VWS V14.01,2013-03-06 01:11:00,
2013-03-05 20:12:00,32.6,31.6,29.64,NNW,329,3.0,3.0,96,0.01,,---,0.36,VWS V14.01,2013-03-06 01:12:00,
2013-03-05 20:13:00,32.6,31.6,29.64,WNW,290,2.0,3.0,96,0.01,,---,0.36,VWS V14.01,2013-03-06 01:13:00,
2013-03-05 20:14:00,32.6,31.6,29.64,NW,321,1.0,4.0,96,0.01,,---,0.36,VWS V14.01,2013-03-06 01:14:00,
2013-03-05 20:15:00,32.6,31.6,29.64,NNW,328,3.0,6.0,96,0.00,,---,0.36,VWS V14.01,2013-03-06 01:15:00,
2013-03-05 20:16:00,32.6,31.6,29.64,NNW,328,3.0,6.0,96,0.00,,---,0.36,VWS V14.01,2013-03-06 01:16:00,
2013-03-05 20:17:00,32.6,31.6,29.64,NW,308,0.0,4.0,96,0.00,,---,0.36,VWS V14.01,2013-03-06 01:17:00,
2013-03-05 20:18:00,32.6,31.6,29.64,WNW,298,1.0,3.0,96,0.00,,---,0.36,VWS V14.01,2013-03-06 01:18:00,
2013-03-05 20:19:00,32.5,31.5,29.64,WNW,302,1.0,4.0,96,0.00,,---,0.36,VWS V14.01,2013-03-06 01:19:00,
2013-03-05 20:20:00,32.5,31.5,29.64,WNW,283,0.0,3.0,96,0.00,,---,0.36,VWS V14.01,2013-03-06 01:20:00,
2013-03-05 20:21:00,32.5,31.5,29.64,WNW,283,0.0,3.0,96,0.00,,---,0.36,VWS V14.01,2013-03-06 01:21:00,
2013-03-05 20:22:00,32.5,31.5,29.65,WNW,289,2.0,2.0,96,0.00,,---,0.36,VWS V14.01,2013-03-06 01:22:00,
2013-03-05 20:23:00,32.5,31.5,29.65,WNW,283,3.0,3.0,96,0.00,,---,0.36,VWS V14.01,2013-03-06 01:23:00,
2013-03-05 20:24:00,32.5,31.5,29.65,NW,304,2.0,4.0,96,0.00,,---,0.36,VWS V14.01,2013-03-06 01:24:00,
2013-03-05 20:25:00,32.5,31.5,29.65,WNW,301,0.0,2.0,96,0.00,,---,0.36,VWS V14.01,2013-03-06 01:25:00,
2013-03-05 20:26:00,32.5,31.5,29.65,WNW,301,0.0,2.0,96,0.00,,---,0.36,VWS V14.01,2013-03-06 01:26:00,
2013-03-05 20:27:00,32.5,31.5,29.65,WNW,302,0.0,0.0,96,0.00,,---,0.36,VWS V14.01,2013-03-06 01:27:00,
2013-03-05 20:28:00,32.5,31.5,29.64,WNW,303,0.0,0.0,96,0.00,,---,0.36,VWS V14.01,2013-03-06 01:28:00,
2013-03-05 20:29:00,32.5,31.5,29.64,NW,318,0.0,0.0,96,0.00,,---,0.36,VWS V14.01,2013-03-06 01:29:00,
2013-03-05 20:30:00,32.5,31.5,29.64,West,278,1.0,4.0,96,0.00,,---,0.36,VWS V14.01,2013-03-06 01:30:00,
2013-03-05 20:31:00,32.5,31.5,29.64,West,278,1.0,4.0,96,0.00,,---,0.36,VWS V14.01,2013-03-06 01:31:00,
2013-03-05 20:32:00,32.5,31.5,29.64,West,281,0.0,2.0,96,0.00,,---,0.36,VWS V14.01,2013-03-06 01:32:00,
2013-03-05 20:33:00,32.5,31.5,29.64,NW,311,2.0,4.0,96,0.00,,---,0.36,VWS V14.01,2013-03-06 01:33:00,
2013-03-05 20:34:00,32.5,31.5,29.64,NW,323,2.0,2.0,96,0.00,,---,0.36,VWS V14.01,2013-03-06 01:34:00,
2013-03-05 20:35:00,32.5,31.7,29.64,West,280,0.0,4.0,97,0.00,,---,0.36,VWS V14.01,2013-03-06 01:35:00,
2013-03-05 20:36:00,32.5,31.8,29.64,West,280,0.0,4.0,97,0.00,,---,0.36,VWS V14.01,2013-03-06 01:36:00,
2013-03-05 20:37:00,32.4,31.6,29.64,WNW,303,1.0,5.0,97,0.00,,---,0.36,VWS V14.01,2013-03-06 01:37:00,
2013-03-05 20:38:00,32.4,31.6,29.65,NW,311,2.0,3.0,97,0.00,,---,0.36,VWS V14.01,2013-03-06 01:38:00,
2013-03-05 20:39:00,32.4,31.4,29.64,West,281,4.0,4.0,96,0.00,,---,0.36,VWS V14.01,2013-03-06 01:39:00,
2013-03-05 20:40:00,32.4,31.4,29.64,NW,304,0.0,2.0,96,0.00,,---,0.36,VWS V14.01,2013-03-06 01:40:00,
2013-03-05 20:41:00,32.4,31.4,29.64,NW,304,0.0,2.0,96,0.00,,---,0.36,VWS V14.01,2013-03-06 01:41:00,
2013-03-05 20:42:00,32.4,31.4,29.64,NW,308,1.0,3.0,96,0.00,,---,0.36,VWS V14.01,2013-03-06 01:42:00,
2013-03-05 20:43:00,32.4,31.4,29.65,WNW,286,2.0,6.0,96,0.00,,---,0.36,VWS V14.01,2013-03-06 01:43:00,
2013-03-05 20:44:00,32.4,31.4,29.65,NW,308,0.0,4.0,96,0.00,,---,0.36,VWS V14.01,2013-03-06 01:44:00,
2013-03-05 20:45:00,32.4,31.4,29.65,NW,306,0.0,0.0,96,0.00,,---,0.36,VWS V14.01,2013-03-06 01:45:00,
2013-03-05 20:46:00,32.4,31.4,29.65,NW,306,0.0,0.0,96,0.00,,---,0.36,VWS V14.01,2013-03-06 01:46:00,
2013-03-05 20:47:00,32.4,31.4,29.65,NW,306,0.0,0.0,96,0.00,,---,0.36,VWS V14.01,2013-03-06 01:47:00,
2013-03-05 20:48:00,32.4,31.4,29.65,WNW,289,5.0,6.0,96,0.00,,---,0.36,VWS V14.01,2013-03-06 01:48:00,
2013-03-05 20:49:00,32.4,31.4,29.65,NW,311,3.0,5.0,96,0.00,,---,0.36,VWS V14.01,2013-03-06 01:49:00,
2013-03-05 20:50:00,32.4,31.4,29.65,NW,305,1.0,6.0,96,0.00,,---,0.36,VWS V14.01,2013-03-06 01:50:00,
2013-03-05 20:51:00,32.4,31.4,29.65,West,272,0.0,2.0,96,0.00,,---,0.36,VWS V14.01,2013-03-06 01:51:00,
2013-03-05 20:52:00,32.4,31.4,29.65,West,272,0.0,2.0,96,0.00,,---,0.36,VWS V14.01,2013-03-06 01:52:00,
2013-03-05 20:53:00,32.4,31.4,29.64,NW,313,2.0,7.0,96,0.00,,---,0.36,VWS V14.01,2013-03-06 01:53:00,
2013-03-05 20:54:00,32.4,31.4,29.65,WNW,289,2.0,6.0,96,0.00,,---,0.36,VWS V14.01,2013-03-06 01:54:00,
2013-03-05 20:55:00,32.3,31.3,29.64,WNW,286,1.0,3.0,96,0.00,,---,0.36,VWS V14.01,2013-03-06 01:55:00,
2013-03-05 20:56:00,32.3,31.3,29.65,WNW,294,0.0,3.0,96,0.00,,---,0.36,VWS V14.01,2013-03-06 01:56:00,
2013-03-05 20:57:00,32.3,31.3,29.65,WNW,294,0.0,3.0,96,0.00,,---,0.36,VWS V14.01,2013-03-06 01:57:00,
2013-03-05 20:58:00,32.4,31.4,29.65,West,276,2.0,4.0,96,0.00,,---,0.36,VWS V14.01,2013-03-06 01:58:00,
2013-03-05 20:59:00,32.3,31.5,29.65,West,264,1.0,4.0,97,0.00,,---,0.36,VWS V14.01,2013-03-06 01:59:00,
2013-03-05 21:00:00,32.3,31.5,29.65,West,271,0.0,2.0,97,0.00,,---,0.36,VWS V14.01,2013-03-06 02:00:00,
2013-03-05 21:01:00,32.3,31.5,29.65,NW,304,2.0,3.0,97,0.00,,---,0.36,VWS V14.01,2013-03-06 02:01:00,
2013-03-05 21:02:00,32.3,31.5,29.65,NW,304,2.0,3.0,97,0.00,,---,0.36,VWS V14.01,2013-03-06 02:02:00,
2013-03-05 21:03:00,32.3,31.5,29.65,WNW,286,3.0,3.0,97,0.00,,---,0.36,VWS V14.01,2013-03-06 02:03:00,
2013-03-05 21:04:00,32.3,31.5,29.65,North,355,7.0,7.0,97,0.00,,---,0.36,VWS V14.01,2013-03-06 02:04:00,
2013-03-05 21:05:00,32.3,31.5,29.65,WNW,290,2.0,7.0,97,0.00,,---,0.36,VWS V14.01,2013-03-06 02:05:00,
2013-03-05 21:06:00,32.3,31.5,29.65,WNW,298,3.0,5.0,97,0.00,,---,0.36,VWS V14.01,2013-03-06 02:06:00,
2013-03-05 21:07:00,32.3,31.5,29.65,WNW,298,3.0,5.0,97,0.00,,---,0.36,VWS V14.01,2013-03-06 02:07:00,
2013-03-05 21:08:00,32.3,31.5,29.65,WNW,296,0.0,3.0,97,0.00,,---,0.36,VWS V14.01,2013-03-06 02:08:00,
2013-03-05 21:09:00,32.3,31.5,29.65,WNW,290,2.0,2.0,97,0.00,,---,0.36,VWS V14.01,2013-03-06 02:09:00,
2013-03-05 21:10:00,32.3,31.5,29.65,West,278,1.0,9.0,97,0.00,,---,0.36,VWS V14.01,2013-03-06 02:10:00,
2013-03-05 21:11:00,32.3,31.5,29.65,West,277,1.0,4.0,97,0.00,,---,0.36,VWS V14.01,2013-03-06 02:11:00,
2013-03-05 21:12:00,32.3,31.5,29.65,West,277,1.0,4.0,97,0.00,,---,0.36,VWS V14.01,2013-03-06 02:12:00,
2013-03-05 21:13:00,32.3,31.5,29.65,West,279,0.0,2.0,97,0.00,,---,0.36,VWS V14.01,2013-03-06 02:13:00,
2013-03-05 21:14:00,32.3,31.5,29.65,NNW,332,0.0,0.0,97,0.00,,---,0.36,VWS V14.01,2013-03-06 02:14:00,
2013-03-05 21:15:00,32.3,31.5,29.65,NNW,330,0.0,0.0,97,0.00,,---,0.36,VWS V14.01,2013-03-06 02:15:00,
2013-03-05 21:16:00,32.3,31.5,29.65,WNW,298,0.0,0.0,97,0.00,,---,0.36,VWS V14.01,2013-03-06 02:16:00,
2013-03-05 21:17:00,32.3,31.5,29.65,WNW,298,0.0,0.0,97,0.00,,---,0.36,VWS V14.01,2013-03-06 02:17:00,
2013-03-05 21:18:00,32.2,31.5,29.65,West,273,0.0,0.0,97,0.00,,---,0.36,VWS V14.01,2013-03-06 02:18:00,
2013-03-05 21:19:00,32.2,31.5,29.65,West,269,0.0,0.0,97,0.00,,---,0.36,VWS V14.01,2013-03-06 02:19:00,
2013-03-05 21:20:00,32.2,31.5,29.65,NW,304,3.0,7.0,97,0.00,,---,0.36,VWS V14.01,2013-03-06 02:20:00,
2013-03-05 21:21:00,32.2,31.5,29.65,WNW,294,0.0,4.0,97,0.00,,---,0.36,VWS V14.01,2013-03-06 02:21:00,
2013-03-05 21:22:00,32.2,31.5,29.65,WNW,294,0.0,4.0,97,0.00,,---,0.36,VWS V14.01,2013-03-06 02:22:00,
2013-03-05 21:23:00,32.2,31.5,29.65,WNW,294,2.0,3.0,97,0.00,,---,0.36,VWS V14.01,2013-03-06 02:23:00,
2013-03-05 21:24:00,32.2,31.5,29.65,WNW,292,1.0,2.0,97,0.00,,---,0.36,VWS V14.01,2013-03-06 02:24:00,
2013-03-05 21:25:00,32.2,31.5,29.65,West,270,2.0,5.0,97,0.00,,---,0.36,VWS V14.01,2013-03-06 02:25:00,
2013-03-05 21:26:00,32.1,31.4,29.65,WNW,292,1.0,3.0,97,0.00,,---,0.36,VWS V14.01,2013-03-06 02:26:00,
2013-03-05 21:27:00,32.1,31.4,29.65,WNW,292,1.0,3.0,97,0.00,,---,0.36,VWS V14.01,2013-03-06 02:27:00,
2013-03-05 21:28:00,32.1,31.4,29.65,WNW,292,0.0,1.0,97,0.00,,---,0.36,VWS V14.01,2013-03-06 02:28:00,
2013-03-05 21:29:00,32.1,31.4,29.65,WNW,292,0.0,0.0,97,0.00,,---,0.36,VWS V14.01,2013-03-06 02:29:00,
2013-03-05 21:30:00,32.1,31.4,29.65,WNW,292,0.0,0.0,97,0.00,,---,0.36,VWS V14.01,2013-03-06 02:30:00,
2013-03-05 21:31:00,32.1,31.4,29.65,WNW,292,0.0,0.0,97,0.00,,---,0.36,VWS V14.01,2013-03-06 02:31:00,
2013-03-05 21:32:00,32.1,31.4,29.65,WNW,292,0.0,0.0,97,0.00,,---,0.36,VWS V14.01,2013-03-06 02:32:00,
2013-03-05 21:33:00,32.1,31.4,29.65,WNW,292,0.0,0.0,97,0.00,,---,0.36,VWS V14.01,2013-03-06 02:33:00,
2013-03-05 21:34:00,32.1,31.4,29.65,WNW,298,3.0,3.0,97,0.00,,---,0.36,VWS V14.01,2013-03-06 02:34:00,
2013-03-05 21:35:00,32.1,31.4,29.65,NW,305,3.0,4.0,97,0.00,,---,0.36,VWS V14.01,2013-03-06 02:35:00,
2013-03-05 21:36:00,32.1,31.4,29.65,NW,321,4.0,4.0,97,0.00,,---,0.36,VWS V14.01,2013-03-06 02:36:00,
2013-03-05 21:37:00,32.1,31.4,29.66,NW,321,0.0,5.0,97,0.00,,---,0.36,VWS V14.01,2013-03-06 02:37:00,
2013-03-05 21:38:00,32.0,31.2,29.66,West,268,3.0,4.0,97,0.00,,---,0.36,VWS V14.01,2013-03-06 02:38:00,
2013-03-05 21:39:00,32.0,31.2,29.66,West,280,3.0,6.0,97,0.00,,---,0.36,VWS V14.01,2013-03-06 02:39:00,
2013-03-05 21:40:00,32.0,31.2,29.66,West,279,0.0,4.0,97,0.00,,---,0.36,VWS V14.01,2013-03-06 02:40:00,
2013-03-05 21:41:00,32.0,31.2,29.66,West,279,3.0,4.0,97,0.00,,---,0.36,VWS V14.01,2013-03-06 02:41:00,
2013-03-05 21:42:00,31.9,31.1,29.66,NW,308,2.0,5.0,97,0.00,,---,0.36,VWS V14.01,2013-03-06 02:42:00,
2013-03-05 21:43:00,31.9,31.1,29.66,NNW,347,6.0,6.0,97,0.00,,---,0.36,VWS V14.01,2013-03-06 02:43:00,
2013-03-05 21:44:00,31.9,31.1,29.65,West,270,4.0,9.0,97,0.00,,---,0.36,VWS V14.01,2013-03-06 02:44:00,
2013-03-05 21:45:00,31.9,31.1,29.66,NW,315,3.0,8.0,97,0.00,,---,0.36,VWS V14.01,2013-03-06 02:45:00,
2013-03-05 21:46:00,31.9,31.1,29.66,NW,315,2.0,7.0,97,0.00,,---,0.36,VWS V14.01,2013-03-06 02:46:00,
2013-03-05 21:47:00,31.8,31.0,29.66,WNW,292,2.0,6.0,97,0.00,,---,0.36,VWS V14.01,2013-03-06 02:47:00,
2013-03-05 21:48:00,31.8,31.0,29.66,NW,315,3.0,7.0,97,0.00,,---,0.36,VWS V14.01,2013-03-06 02:48:00,
2013-03-05 21:49:00,31.7,31.0,29.66,NW,315,3.0,5.0,97,0.00,,---,0.36,VWS V14.01,2013-03-06 02:49:00,
2013-03-05 21:50:00,31.7,31.0,29.66,NW,315,1.0,5.0,97,0.00,,---,0.36,VWS V14.01,2013-03-06 02:50:00,
2013-03-05 21:51:00,31.7,31.0,29.66,NW,315,0.0,0.0,97,0.00,,---,0.36,VWS V14.01,2013-03-06 02:51:00,
2013-03-05 21:52:00,31.7,31.0,29.66,NW,315,0.0,0.0,97,0.00,,---,0.36,VWS V14.01,2013-03-06 02:52:00,
2013-03-05 21:53:00,31.6,30.9,29.66,NW,315,0.0,0.0,97,0.00,,---,0.36,VWS V14.01,2013-03-06 02:53:00,
2013-03-05 21:54:00,31.6,30.9,29.66,NW,315,0.0,0.0,97,0.00,,---,0.36,VWS V14.01,2013-03-06 02:54:00,
2013-03-05 21:55:00,31.6,30.9,29.66,NW,315,0.0,0.0,97,0.00,,---,0.36,VWS V14.01,2013-03-06 02:55:00,
2013-03-05 21:56:00,31.6,30.9,29.66,NW,315,0.0,0.0,97,0.00,,---,0.36,VWS V14.01,2013-03-06 02:56:00,
2013-03-05 21:57:00,31.6,30.9,29.66,NW,315,0.0,0.0,97,0.00,,---,0.36,VWS V14.01,2013-03-06 02:57:00,
2013-03-05 21:58:00,31.6,30.9,29.66,NW,315,0.0,0.0,97,0.00,,---,0.36,VWS V14.01,2013-03-06 02:58:00,
2013-03-05 21:59:00,31.6,30.9,29.66,NW,315,0.0,0.0,97,0.00,,---,0.36,VWS V14.01,2013-03-06 02:59:00,
2013-03-05 22:00:00,31.5,30.8,29.66,NW,315,0.0,0.0,97,0.00,,---,0.36,VWS V14.01,2013-03-06 03:00:00,
2013-03-05 22:01:00,31.5,30.8,29.66,NW,315,0.0,0.0,97,0.00,,---,0.36,VWS V14.01,2013-03-06 03:01:00,
2013-03-05 22:02:00,31.5,30.8,29.66,NW,315,0.0,0.0,97,0.00,,---,0.36,VWS V14.01,2013-03-06 03:02:00,
2013-03-05 22:03:00,31.5,30.8,29.66,NW,315,0.0,0.0,97,0.00,,---,0.36,VWS V14.01,2013-03-06 03:03:00,
2013-03-05 22:04:00,31.5,30.8,29.66,NW,315,0.0,0.0,97,0.00,,---,0.36,VWS V14.01,2013-03-06 03:04:00,
2013-03-05 22:05:00,31.4,30.6,29.66,NW,315,0.0,0.0,97,0.00,,---,0.36,VWS V14.01,2013-03-06 03:05:00,
2013-03-05 22:06:00,31.4,30.6,29.66,NW,315,0.0,0.0,97,0.00,,---,0.36,VWS V14.01,2013-03-06 03:06:00,
2013-03-05 22:07:00,31.4,30.6,29.66,NW,315,0.0,0.0,97,0.00,,---,0.36,VWS V14.01,2013-03-06 03:07:00,
2013-03-05 22:08:00,31.4,30.6,29.66,NW,315,0.0,0.0,97,0.00,,---,0.36,VWS V14.01,2013-03-06 03:08:00,
2013-03-05 22:09:00,31.3,30.5,29.66,NW,315,0.0,0.0,97,0.00,,---,0.36,VWS V14.01,2013-03-06 03:09:00,
2013-03-05 22:10:00,31.3,30.5,29.66,NW,315,0.0,0.0,97,0.00,,---,0.36,VWS V14.01,2013-03-06 03:10:00,
2013-03-05 22:11:00,31.3,30.5,29.66,NW,315,0.0,0.0,97,0.00,,---,0.36,VWS V14.01,2013-03-06 03:11:00,
2013-03-05 22:12:00,31.3,30.5,29.66,NW,315,0.0,0.0,97,0.00,,---,0.36,VWS V14.01,2013-03-06 03:12:00,
2013-03-05 22:13:00,31.2,30.5,29.66,NW,315,0.0,0.0,97,0.00,,---,0.36,VWS V14.01,2013-03-06 03:13:00,
2013-03-05 22:14:00,31.2,30.5,29.66,NW,315,0.0,0.0,97,0.00,,---,0.36,VWS V14.01,2013-03-06 03:14:00,
2013-03-05 22:15:00,31.2,30.5,29.66,NW,315,0.0,0.0,97,0.00,,---,0.36,VWS V14.01,2013-03-06 03:15:00,
2013-03-05 22:16:00,31.1,30.4,29.66,NW,315,0.0,0.0,97,0.00,,---,0.36,VWS V14.01,2013-03-06 03:16:00,
2013-03-05 22:17:00,31.1,30.4,29.66,NW,315,0.0,0.0,97,0.00,,---,0.36,VWS V14.01,2013-03-06 03:17:00,
2013-03-05 22:18:00,31.1,30.4,29.66,NW,315,0.0,0.0,97,0.00,,---,0.36,VWS V14.01,2013-03-06 03:18:00,
2013-03-05 22:19:00,31.1,30.4,29.66,NW,315,0.0,0.0,97,0.00,,---,0.36,VWS V14.01,2013-03-06 03:19:00,
2013-03-05 22:20:00,31.1,30.4,29.66,NW,315,0.0,0.0,97,0.00,,---,0.36,VWS V14.01,2013-03-06 03:20:00,
2013-03-05 22:21:00,31.0,30.2,29.66,NW,315,0.0,0.0,97,0.00,,---,0.36,VWS V14.01,2013-03-06 03:21:00,
2013-03-05 22:22:00,31.0,30.2,29.66,NW,315,0.0,0.0,97,0.00,,---,0.36,VWS V14.01,2013-03-06 03:22:00,
2013-03-05 22:23:00,31.0,30.2,29.66,NW,315,0.0,0.0,97,0.00,,---,0.36,VWS V14.01,2013-03-06 03:23:00,
2013-03-05 22:24:00,31.0,30.2,29.67,NW,315,0.0,0.0,97,0.00,,---,0.36,VWS V14.01,2013-03-06 03:24:00,
2013-03-05 22:25:00,31.0,30.2,29.67,NW,315,0.0,0.0,97,0.00,,---,0.36,VWS V14.01,2013-03-06 03:25:00,
2013-03-05 22:26:00,31.0,30.2,29.67,NW,315,0.0,0.0,97,0.00,,---,0.36,VWS V14.01,2013-03-06 03:26:00,
2013-03-05 22:27:00,31.0,30.2,29.67,NW,315,0.0,0.0,97,0.00,,---,0.36,VWS V14.01,2013-03-06 03:27:00,
2013-03-05 22:28:00,31.0,30.2,29.66,NW,315,0.0,0.0,97,0.00,,---,0.36,VWS V14.01,2013-03-06 03:28:00,
2013-03-05 22:29:00,31.0,30.2,29.67,NW,315,0.0,0.0,97,0.00,,---,0.36,VWS V14.01,2013-03-06 03:29:00,
2013-03-05 22:30:00,31.0,30.2,29.67,NW,315,0.0,0.0,97,0.00,,---,0.36,VWS V14.01,2013-03-06 03:30:00,
2013-03-05 22:31:00,31.0,30.2,29.67,NW,315,0.0,0.0,97,0.00,,---,0.36,VWS V14.01,2013-03-06 03:31:00,
2013-03-05 22:32:00,31.0,30.2,29.67,NW,315,0.0,0.0,97,0.00,,---,0.36,VWS V14.01,2013-03-06 03:32:00,
2013-03-05 22:33:00,30.9,30.1,29.67,NW,315,0.0,0.0,97,0.00,,---,0.36,VWS V14.01,2013-03-06 03:33:00,
2013-03-05 22:34:00,30.9,30.1,29.67,NW,315,0.0,0.0,97,0.00,,---,0.36,VWS V14.01,2013-03-06 03:34:00,
2013-03-05 22:35:00,30.9,30.1,29.67,NW,315,0.0,0.0,97,0.00,,---,0.36,VWS V14.01,2013-03-06 03:35:00,
2013-03-05 22:36:00,30.9,30.1,29.67,NW,315,0.0,0.0,97,0.00,,---,0.36,VWS V14.01,2013-03-06 03:36:00,
2013-03-05 22:37:00,30.9,30.1,29.67,NW,315,0.0,0.0,97,0.00,,---,0.36,VWS V14.01,2013-03-06 03:37:00,
2013-03-05 22:38:00,30.9,30.1,29.67,NW,315,0.0,0.0,97,0.00,,---,0.36,VWS V14.01,2013-03-06 03:38:00,
2013-03-05 22:39:00,30.9,30.1,29.67,NW,315,0.0,0.0,97,0.00,,---,0.36,VWS V14.01,2013-03-06 03:39:00,
2013-03-05 22:40:00,30.8,30.0,29.67,NW,315,0.0,0.0,97,0.00,,---,0.36,VWS V14.01,2013-03-06 03:40:00,
2013-03-05 22:41:00,30.8,30.0,29.67,NW,315,0.0,0.0,97,0.00,,---,0.36,VWS V14.01,2013-03-06 03:41:00,
2013-03-05 22:42:00,30.8,30.0,29.67,NW,315,0.0,0.0,97,0.00,,---,0.36,VWS V14.01,2013-03-06 03:42:00,
2013-03-05 22:43:00,30.8,30.0,29.67,NW,315,0.0,0.0,97,0.00,,---,0.36,VWS V14.01,2013-03-06 03:43:00,
2013-03-05 22:44:00,30.8,30.0,29.67,NW,315,0.0,0.0,97,0.00,,---,0.36,VWS V14.01,2013-03-06 03:44:00,
2013-03-05 22:45:00,30.8,30.0,29.67,NW,315,0.0,0.0,97,0.00,,---,0.36,VWS V14.01,2013-03-06 03:45:00,
2013-03-05 22:46:00,30.7,30.0,29.67,NW,315,0.0,0.0,97,0.00,,---,0.36,VWS V14.01,2013-03-06 03:46:00,
2013-03-05 22:47:00,30.7,30.0,29.67,NW,315,0.0,0.0,97,0.00,,---,0.36,VWS V14.01,2013-03-06 03:47:00,
2013-03-05 22:48:00,30.7,30.0,29.67,NW,315,0.0,0.0,97,0.00,,---,0.36,VWS V14.01,2013-03-06 03:48:00,
2013-03-05 22:49:00,30.7,30.0,29.67,NW,315,0.0,0.0,97,0.00,,---,0.36,VWS V14.01,2013-03-06 03:49:00,
2013-03-05 22:50:00,30.7,30.0,29.67,NW,315,0.0,0.0,97,0.00,,---,0.36,VWS V14.01,2013-03-06 03:50:00,
2013-03-05 22:51:00,30.6,29.9,29.67,NW,315,0.0,0.0,97,0.00,,---,0.36,VWS V14.01,2013-03-06 03:51:00,
2013-03-05 22:52:00,30.6,29.9,29.67,NW,315,0.0,0.0,97,0.00,,---,0.36,VWS V14.01,2013-03-06 03:52:00,
2013-03-05 22:53:00,30.6,29.9,29.67,NW,315,0.0,0.0,97,0.00,,---,0.36,VWS V14.01,2013-03-06 03:53:00,
2013-03-05 22:54:00,30.6,29.9,29.67,NW,315,0.0,0.0,97,0.00,,---,0.36,VWS V14.01,2013-03-06 03:54:00,
2013-03-05 22:55:00,30.6,29.9,29.67,NW,315,0.0,0.0,97,0.00,,---,0.36,VWS V14.01,2013-03-06 03:55:00,
2013-03-05 22:56:00,30.5,29.8,29.67,NW,315,0.0,0.0,97,0.00,,---,0.36,VWS V14.01,2013-03-06 03:56:00,
2013-03-05 22:57:00,30.5,29.8,29.67,NW,315,0.0,0.0,97,0.00,,---,0.36,VWS V14.01,2013-03-06 03:57:00,
2013-03-05 22:58:00,30.5,29.8,29.67,NW,315,0.0,0.0,97,0.00,,---,0.36,VWS V14.01,2013-03-06 03:58:00,
2013-03-05 22:59:00,30.5,29.8,29.67,NW,315,0.0,0.0,97,0.00,,---,0.36,VWS V14.01,2013-03-06 03:59:00,
2013-03-05 23:00:00,30.5,29.8,29.67,NW,315,0.0,0.0,97,0.00,,---,0.36,VWS V14.01,2013-03-06 04:00:00,
2013-03-05 23:01:00,30.5,29.8,29.67,NW,315,0.0,0.0,97,0.00,,---,0.36,VWS V14.01,2013-03-06 04:01:00,
2013-03-05 23:02:00,30.4,29.6,29.67,NW,315,0.0,0.0,97,0.00,,---,0.36,VWS V14.01,2013-03-06 04:02:00,
2013-03-05 23:03:00,30.4,29.6,29.67,NW,315,0.0,0.0,97,0.00,,---,0.36,VWS V14.01,2013-03-06 04:03:00,
2013-03-05 23:04:00,30.3,29.5,29.67,NW,315,0.0,0.0,97,0.00,,---,0.36,VWS V14.01,2013-03-06 04:04:00,
2013-03-05 23:05:00,30.3,29.5,29.67,NW,315,0.0,0.0,97,0.00,,---,0.36,VWS V14.01,2013-03-06 04:05:00,
2013-03-05 23:06:00,30.3,29.5,29.67,NW,315,0.0,0.0,97,0.00,,---,0.36,VWS V14.01,2013-03-06 04:06:00,
2013-03-05 23:07:00,30.3,29.5,29.67,NW,315,0.0,0.0,97,0.00,,---,0.36,VWS V14.01,2013-03-06 04:07:00,
2013-03-05 23:08:00,30.3,29.5,29.67,NW,315,0.0,0.0,97,0.00,,---,0.36,VWS V14.01,2013-03-06 04:08:00,
2013-03-05 23:09:00,30.2,29.5,29.67,NW,315,0.0,0.0,97,0.00,,---,0.36,VWS V14.01,2013-03-06 04:09:00,
2013-03-05 23:10:00,30.2,29.5,29.67,NW,315,0.0,0.0,97,0.00,,---,0.36,VWS V14.01,2013-03-06 04:10:00,
2013-03-05 23:11:00,30.2,29.5,29.67,NW,315,0.0,0.0,97,0.00,,---,0.36,VWS V14.01,2013-03-06 04:11:00,
2013-03-05 23:12:00,30.1,29.4,29.67,NW,315,0.0,0.0,97,0.00,,---,0.36,VWS V14.01,2013-03-06 04:12:00,
2013-03-05 23:13:00,30.1,29.4,29.67,NW,315,0.0,0.0,97,0.00,,---,0.36,VWS V14.01,2013-03-06 04:13:00,
2013-03-05 23:14:00,30.1,29.4,29.67,NW,315,0.0,0.0,97,0.00,,---,0.36,VWS V14.01,2013-03-06 04:14:00,
2013-03-05 23:15:00,30.1,29.4,29.67,NW,315,0.0,0.0,97,0.00,,---,0.36,VWS V14.01,2013-03-06 04:15:00,
2013-03-05 23:16:00,30.1,29.4,29.67,NW,315,0.0,0.0,97,0.00,,---,0.36,VWS V14.01,2013-03-06 04:16:00,
2013-03-05 23:17:00,30.1,29.4,29.67,NW,315,0.0,0.0,97,0.00,,---,0.36,VWS V14.01,2013-03-06 04:17:00,
2013-03-05 23:18:00,30.0,29.2,29.67,NW,315,0.0,0.0,97,0.00,,---,0.36,VWS V14.01,2013-03-06 04:18:00,
2013-03-05 23:19:00,30.0,29.2,29.67,NW,315,0.0,0.0,97,0.00,,---,0.36,VWS V14.01,2013-03-06 04:19:00,
2013-03-05 23:20:00,30.0,29.2,29.67,NW,315,0.0,0.0,97,0.00,,---,0.36,VWS V14.01,2013-03-06 04:20:00,
2013-03-05 23:21:00,30.0,29.2,29.67,NW,315,0.0,0.0,97,0.00,,---,0.36,VWS V14.01,2013-03-06 04:21:00,
2013-03-05 23:22:00,30.0,29.2,29.67,NW,315,0.0,0.0,97,0.00,,---,0.36,VWS V14.01,2013-03-06 04:22:00,
2013-03-05 23:23:00,30.0,29.2,29.67,NW,315,0.0,0.0,97,0.00,,---,0.36,VWS V14.01,2013-03-06 04:23:00,
2013-03-05 23:24:00,30.0,29.2,29.67,NW,315,0.0,0.0,97,0.00,,---,0.36,VWS V14.01,2013-03-06 04:24:00,
2013-03-05 23:25:00,29.9,29.1,29.67,NW,315,0.0,0.0,97,0.00,,---,0.36,VWS V14.01,2013-03-06 04:25:00,
2013-03-05 23:26:00,29.9,29.1,29.67,NW,315,0.0,0.0,97,0.00,,---,0.36,VWS V14.01,2013-03-06 04:26:00,
2013-03-05 23:27:00,29.9,29.1,29.67,NW,315,0.0,0.0,97,0.00,,---,0.36,VWS V14.01,2013-03-06 04:27:00,
2013-03-05 23:28:00,29.9,29.1,29.67,NW,315,0.0,0.0,97,0.00,,---,0.36,VWS V14.01,2013-03-06 04:28:00,
2013-03-05 23:29:00,29.9,29.1,29.67,NW,315,0.0,0.0,97,0.00,,---,0.36,VWS V14.01,2013-03-06 04:29:00,
2013-03-05 23:30:00,29.9,29.1,29.67,NW,315,0.0,0.0,97,0.00,,---,0.36,VWS V14.01,2013-03-06 04:30:00,
2013-03-05 23:31:00,29.9,29.1,29.67,NW,315,0.0,0.0,97,0.00,,---,0.36,VWS V14.01,2013-03-06 04:31:00,
2013-03-05 23:32:00,29.9,29.1,29.67,NW,315,0.0,0.0,97,0.00,,---,0.36,VWS V14.01,2013-03-06 04:32:00,
2013-03-05 23:33:00,29.9,29.1,29.67,NW,315,0.0,0.0,97,0.00,,---,0.36,VWS V14.01,2013-03-06 04:33:00,
2013-03-05 23:34:00,29.8,29.0,29.67,NW,315,0.0,0.0,97,0.00,,---,0.36,VWS V14.01,2013-03-06 04:34:00,
2013-03-05 23:35:00,29.9,29.1,29.67,NW,315,0.0,0.0,97,0.00,,---,0.36,VWS V14.01,2013-03-06 04:35:00,
2013-03-05 23:36:00,29.9,29.1,29.67,NW,315,0.0,0.0,97,0.00,,---,0.36,VWS V14.01,2013-03-06 04:36:00,
2013-03-05 23:37:00,29.8,29.0,29.67,NW,315,0.0,0.0,97,0.00,,---,0.36,VWS V14.01,2013-03-06 04:37:00,
2013-03-05 23:38:00,29.8,29.0,29.67,NW,315,0.0,0.0,97,0.00,,---,0.36,VWS V14.01,2013-03-06 04:38:00,
2013-03-05 23:39:00,29.8,29.0,29.67,NW,315,0.0,0.0,97,0.00,,---,0.36,VWS V14.01,2013-03-06 04:39:00,
2013-03-05 23:40:00,29.8,29.0,29.67,NW,315,0.0,0.0,97,0.00,,---,0.36,VWS V14.01,2013-03-06 04:40:00,
2013-03-05 23:41:00,29.8,29.0,29.67,NW,315,0.0,0.0,97,0.00,,---,0.36,VWS V14.01,2013-03-06 04:41:00,
2013-03-05 23:42:00,29.8,29.0,29.67,NW,315,0.0,0.0,97,0.00,,---,0.36,VWS V14.01,2013-03-06 04:42:00,
2013-03-05 23:43:00,29.8,29.0,29.67,NW,315,0.0,0.0,97,0.00,,---,0.36,VWS V14.01,2013-03-06 04:43:00,
2013-03-05 23:44:00,29.8,29.0,29.67,NW,315,0.0,0.0,97,0.00,,---,0.36,VWS V14.01,2013-03-06 04:44:00,
2013-03-05 23:45:00,29.7,29.0,29.67,NW,315,0.0,0.0,97,0.00,,---,0.36,VWS V14.01,2013-03-06 04:45:00,
2013-03-05 23:46:00,29.8,29.0,29.67,NW,315,0.0,0.0,97,0.00,,---,0.36,VWS V14.01,2013-03-06 04:46:00,
2013-03-05 23:47:00,29.7,29.0,29.68,NW,315,0.0,0.0,97,0.00,,---,0.36,VWS V14.01,2013-03-06 04:47:00,
2013-03-05 23:48:00,29.7,29.0,29.67,NW,315,0.0,0.0,97,0.00,,---,0.36,VWS V14.01,2013-03-06 04:48:00,
2013-03-05 23:49:00,29.7,29.0,29.67,NW,315,0.0,0.0,97,0.00,,---,0.36,VWS V14.01,2013-03-06 04:49:00,
2013-03-05 23:50:00,29.7,29.0,29.68,NW,315,0.0,0.0,97,0.00,,---,0.36,VWS V14.01,2013-03-06 04:50:00,
2013-03-05 23:51:00,29.7,29.0,29.67,NW,315,0.0,0.0,97,0.00,,---,0.36,VWS V14.01,2013-03-06 04:51:00,
2013-03-05 23:52:00,29.7,29.0,29.67,NW,315,0.0,0.0,97,0.00,,---,0.36,VWS V14.01,2013-03-06 04:52:00,
2013-03-05 23:53:00,29.7,29.0,29.67,NW,315,0.0,0.0,97,0.00,,---,0.36,VWS V14.01,2013-03-06 04:53:00,
2013-03-05 23:54:00,29.7,29.0,29.67,NW,315,0.0,0.0,97,0.00,,---,0.36,VWS V14.01,2013-03-06 04:54:00,
2013-03-05 23:55:00,29.7,29.0,29.67,NW,315,0.0,0.0,97,0.00,,---,0.36,VWS V14.01,2013-03-06 04:55:00,
2013-03-05 23:56:00,29.7,29.0,29.67,NW,315,0.0,0.0,97,0.00,,---,0.36,VWS V14.01,2013-03-06 04:56:00,
2013-03-05 23:57:00,29.7,29.0,29.67,NW,315,0.0,0.0,97,0.00,,---,0.36,VWS V14.01,2013-03-06 04:57:00,
2013-03-05 23:58:00,29.6,28.9,29.67,NW,315,0.0,0.0,97,0.00,,---,0.36,VWS V14.01,2013-03-06 04:58:00,
2013-03-05 23:59:00,29.6,28.9,29.67,NW,315,0.0,0.0,97,0.00,,---,0.36,VWS V14.01,2013-03-06 04:59:00,